Darstellungsparameter: Aktuell verwendete Einstellungen:
Skalierung der Graphiken ... ?
xyx+y,   Skalierungsfaktor:      Skalierung: Modus: x, Faktor: 1
Darstellungszeitraum ... ?
Vom - - bis: - -   Zeitraum: 19.09.2011 - 19.10.2011
Min/Max/Avg-Anzeige ... ?
Zeige MMA aktuell
Zeige MMA Monat
Zeige MMA alles
Zeige --A aktuell
Zeige --A Monat
Zeige --A alles
Keine MMA-Anzeige
MMA:
Average (ber die Originaldaten)
MMA-Basis: 23.02.2003 - 29.09.2020
Quicknavigation für Darstellung... ?
Tage:      1T, 2T, 3T, 5T -1T -2T -3T -5T +1T +2T +3T +5T
Wochen: 1W, 2W, 3W -1W -2W -3W +1W +2W +3W
Monate: 1M, 3M, 6M -1M -3M -6M +1M +3M +6M
Jahre:    1J, 3J, 5J, 10J -1J -3J -5J -10J +1J +3J +5J +10J
Nutze für die Darstellung ... ?
Originaldaten oder Mittelwerte auf ...
Stundenbasis Tagesbasis Wochenbasis
Monatsbasis Jahresbasis      Datenbasis: Original-Daten
Darstellen als:
Statistik (Auto) Statistik J:M      Darstellung:
Zur Graphik,    zurück zur Übersicht aller Sensoren.
 
Tabellarische Datenbersicht: ?
 
Sensor: Nr:Datum:Temp:Abs-Feuchte:Windchill:Wind:
Aussen-T/F 1 19-09-2011 00:02:04 8.2 C 7.45 g/m*3 8.2 C 0 km/h
2 19-09-2011 00:14:04 8.5 C 7.6 g/m*3 8.5 C 0 km/h
3 19-09-2011 00:26:04 8.9 C 7.8 g/m*3 8.9 C 0 km/h
4 19-09-2011 00:38:04 9.4 C 8.05 g/m*3 9.4 C 0 km/h
5 19-09-2011 00:50:04 9.4 C 8.05 g/m*3 9.4 C 0 km/h
6 19-09-2011 01:02:04 9.3 C 8 g/m*3 9.3 C 0 km/h
7 19-09-2011 01:14:04 9.1 C 7.9 g/m*3 9.1 C 0 km/h
8 19-09-2011 01:26:04 8.9 C 7.8 g/m*3 8.9 C 0 km/h
9 19-09-2011 01:38:04 8.7 C 7.7 g/m*3 8.7 C 0 km/h
10 19-09-2011 01:50:04 8.9 C 7.71 g/m*3 8.9 C 0 km/h
11 19-09-2011 02:02:04 9 C 7.67 g/m*3 9 C 0 km/h
12 19-09-2011 02:14:04 9.6 C 7.79 g/m*3 9.6 C 0 km/h
13 19-09-2011 02:26:04 9.8 C 7.79 g/m*3 9.8 C 0 km/h
14 19-09-2011 02:38:04 9.9 C 7.66 g/m*3 9.9 C 0 km/h
15 19-09-2011 02:50:04 9.7 C 7.56 g/m*3 9.7 C 0 km/h
16 19-09-2011 03:02:04 9.6 C 7.6 g/m*3 9.6 C 0 km/h
17 19-09-2011 03:14:04 9.4 C 7.42 g/m*3 9.4 C 0 km/h
18 19-09-2011 03:26:04 9 C 7.23 g/m*3 9 C 0 km/h
19 19-09-2011 03:38:04 8.9 C 7.45 g/m*3 8.9 C 0 km/h
20 19-09-2011 03:50:04 8.7 C 7.35 g/m*3 8.7 C 0 km/h
21 19-09-2011 04:02:04 8.7 C 7.44 g/m*3 8.7 C 0 km/h
22 19-09-2011 04:14:05 8.7 C 7.44 g/m*3 8.7 C 0 km/h
23 19-09-2011 04:26:05 9 C 7.58 g/m*3 9 C 0 km/h
24 19-09-2011 04:38:05 9.6 C 7.97 g/m*3 9.6 C 0 km/h
25 19-09-2011 04:50:05 9.8 C 7.98 g/m*3 9.8 C 0 km/h
Sensor: Nr:Datum:Temp:Abs-Feuchte:Windchill:Wind:
Aussen-T/F 26 19-09-2011 05:02:05 10.1 C 8.04 g/m*3 10.1 C 0 km/h
27 19-09-2011 05:14:05 10.4 C 8 g/m*3 10.4 C 0 km/h
28 19-09-2011 05:26:05 10.7 C 7.76 g/m*3 10.7 C 0 km/h
29 19-09-2011 05:38:05 10.8 C 7.31 g/m*3 10.8 C 0 km/h
30 19-09-2011 05:50:05 11 C 7.31 g/m*3 11 C 0 km/h
31 19-09-2011 06:02:05 11 C 7.31 g/m*3 11 C 0 km/h
32 19-09-2011 06:14:05 11 C 7.31 g/m*3 11 C 0 km/h
33 19-09-2011 06:26:05 11.1 C 7.25 g/m*3 11.1 C 0 km/h
34 19-09-2011 06:38:05 10.8 C 7.51 g/m*3 10.8 C 0 km/h
35 19-09-2011 06:50:05 10.5 C 7.57 g/m*3 10.5 C 0 km/h
36 19-09-2011 07:02:05 10.2 C 7.52 g/m*3 10.2 C 0 km/h
37 19-09-2011 07:14:05 10.4 C 7.71 g/m*3 10.4 C 0 km/h
38 19-09-2011 07:26:02 10.8 C 7.61 g/m*3 10.8 C 0 km/h
39 19-09-2011 07:38:01 11.1 C 7.45 g/m*3 11.1 C 0 km/h
40 19-09-2011 07:50:01 11.3 C 7.34 g/m*3 11.3 C 0 km/h
41 19-09-2011 08:02:02 11.4 C 7.19 g/m*3 11.4 C 0 km/h
42 19-09-2011 08:14:02 11.3 C 7.24 g/m*3 11.3 C 0 km/h
43 19-09-2011 08:26:02 11.1 C 7.25 g/m*3 11.1 C 0 km/h
44 19-09-2011 08:38:02 11.1 C 7.45 g/m*3 11.1 C 0 km/h
45 19-09-2011 08:50:02 11.4 C 7.7 g/m*3 11.4 C 0 km/h
46 19-09-2011 09:02:02 11.8 C 7.79 g/m*3 11.8 C 0 km/h
47 19-09-2011 09:14:02 12 C 7.78 g/m*3 12 C 0 km/h
48 19-09-2011 09:26:02 12.1 C 8.04 g/m*3 12.1 C 0 km/h
49 19-09-2011 09:38:02 12.8 C 7.95 g/m*3 12.8 C 0 km/h
50 19-09-2011 09:50:02 13.4 C 7.79 g/m*3 13.4 C 0 km/h
Sensor: Nr:Datum:Temp:Abs-Feuchte:Windchill:Wind:
Aussen-T/F 51 19-09-2011 10:02:02 13.2 C 7.46 g/m*3 13.2 C 0 km/h
52 19-09-2011 10:14:02 13.5 C 7.6 g/m*3 13.5 C 0 km/h
53 19-09-2011 10:26:02 14.1 C 7.65 g/m*3 14.1 C 0 km/h
54 19-09-2011 10:38:02 14 C 7.6 g/m*3 14 C 0 km/h
55 19-09-2011 10:50:02 13.4 C 7.67 g/m*3 13.4 C 0 km/h
56 19-09-2011 11:02:02 14.2 C 7.69 g/m*3 14.2 C 0 km/h
57 19-09-2011 11:14:02 14 C 7.72 g/m*3 14 C 0 km/h
58 19-09-2011 11:26:02 13.4 C 8.14 g/m*3 13.4 C 0 km/h
59 19-09-2011 11:38:02 12.9 C 8.11 g/m*3 12.9 C 0 km/h
60 19-09-2011 11:50:02 13.6 C 8.12 g/m*3 13.6 C 0 km/h
61 19-09-2011 12:02:02 13.5 C 7.72 g/m*3 13.5 C 0 km/h
62 19-09-2011 12:14:02 13.6 C 7.77 g/m*3 13.6 C 0 km/h
63 19-09-2011 12:26:02 15 C 7.69 g/m*3 15 C 0 km/h
64 19-09-2011 12:38:02 15.9 C 7.18 g/m*3 15.9 C 0 km/h
65 19-09-2011 12:50:02 15.9 C 7.31 g/m*3 15.9 C 0 km/h
66 19-09-2011 13:02:02 15.3 C 7.31 g/m*3 15.3 C 0 km/h
67 19-09-2011 13:14:02 15.9 C 7.04 g/m*3 15.9 C 0 km/h
68 19-09-2011 13:26:01 15.8 C 7.13 g/m*3 15.8 C 0 km/h
69 19-09-2011 13:38:02 16.6 C 6.5 g/m*3 16.6 C 0 km/h
70 19-09-2011 13:50:02 17.2 C 6.15 g/m*3 17.2 C 0 km/h
71 19-09-2011 14:02:02 16.8 C 6.15 g/m*3 16.8 C 0 km/h
72 19-09-2011 14:14:02 16.7 C 6.11 g/m*3 16.7 C 0 km/h
73 19-09-2011 14:26:02 17.5 C 5.96 g/m*3 17.5 C 0 km/h
74 19-09-2011 14:38:02 18.1 C 6.03 g/m*3 18.1 C 0 km/h
75 19-09-2011 14:50:02 17.5 C 5.96 g/m*3 17.5 C 0 km/h
Sensor: Nr:Datum:Temp:Abs-Feuchte:Windchill:Wind:
Aussen-T/F 76 19-09-2011 15:02:02 16.5 C 5.76 g/m*3 16.5 C 0 km/h
77 19-09-2011 15:14:02 16.7 C 6.11 g/m*3 16.7 C 0 km/h
78 19-09-2011 15:26:02 17.4 C 6.37 g/m*3 17.4 C 0 km/h
79 19-09-2011 15:38:02 18 C 7.07 g/m*3 18 C 0 km/h
80 19-09-2011 15:50:02 18.1 C 6.33 g/m*3 18.1 C 0 km/h
81 19-09-2011 16:02:02 18.1 C 6.18 g/m*3 18.1 C 0 km/h
82 19-09-2011 16:14:02 18.1 C 6.18 g/m*3 18.1 C 0 km/h
83 19-09-2011 16:26:02 18 C 6.45 g/m*3 18 C 0 km/h
84 19-09-2011 16:38:02 17.5 C 6.41 g/m*3 17.5 C 0 km/h
85 19-09-2011 16:50:02 17.6 C 6.75 g/m*3 17.6 C 0 km/h
86 19-09-2011 17:02:01 20.6 C 6.62 g/m*3 20.6 C 0 km/h
87 19-09-2011 17:14:01 19.4 C 6.17 g/m*3 19.4 C 0 km/h
88 19-09-2011 17:26:02 17.5 C 7.01 g/m*3 17.5 C 0 km/h
89 19-09-2011 17:38:02 16.7 C 8.1 g/m*3 16.7 C 0 km/h
90 19-09-2011 17:50:01 16.9 C 8.34 g/m*3 16.9 C 0 km/h
91 19-09-2011 18:02:02 19.8 C 7.86 g/m*3 19.8 C 0 km/h
92 19-09-2011 18:14:02 19.3 C 7.46 g/m*3 19.3 C 0 km/h
93 19-09-2011 18:26:01 15.5 C 7.93 g/m*3 15.5 C 0 km/h
94 19-09-2011 18:38:02 14.9 C 8.03 g/m*3 14.9 C 0 km/h
95 19-09-2011 18:50:02 14.3 C 8.23 g/m*3 14.3 C 0 km/h
96 19-09-2011 19:02:02 14.7 C 8.06 g/m*3 14.7 C 0 km/h
97 19-09-2011 19:14:02 14.7 C 7.55 g/m*3 14.7 C 0 km/h
98 19-09-2011 19:26:01 13.7 C 7.58 g/m*3 13.7 C 0 km/h
99 19-09-2011 19:38:02 13.3 C 7.86 g/m*3 13.3 C 0 km/h
100 19-09-2011 19:50:02 12.7 C 7.57 g/m*3 12.7 C 0 km/h
Sensor: Nr:Datum:Temp:Abs-Feuchte:Windchill:Wind:
Aussen-T/F 101 19-09-2011 20:02:02 12.4 C 7.54 g/m*3 12.4 C 0 km/h
102 19-09-2011 20:14:02 12.2 C 7.55 g/m*3 12.2 C 0 km/h
103 19-09-2011 20:26:02 11.7 C 7.64 g/m*3 11.7 C 0 km/h
104 19-09-2011 20:38:02 12 C 7.78 g/m*3 12 C 0 km/h
105 19-09-2011 20:50:02 11.5 C 7.64 g/m*3 11.5 C 0 km/h
106 19-09-2011 21:02:02 11.4 C 7.9 g/m*3 11.4 C 0 km/h
107 19-09-2011 21:14:02 11.6 C 8.11 g/m*3 11.6 C 0 km/h
108 19-09-2011 21:26:02 11.2 C 7.91 g/m*3 11.2 C 0 km/h
109 19-09-2011 21:38:01 11.2 C 8.01 g/m*3 11.2 C 0 km/h
110 19-09-2011 21:51:01 11.3 C 8.16 g/m*3 11.3 C 0 km/h
111 19-09-2011 22:03:01 10.8 C 7.91 g/m*3 10.8 C 0 km/h
112 19-09-2011 22:15:01 11.1 C 8.06 g/m*3 11.1 C 0 km/h
113 19-09-2011 22:27:01 11.2 C 8.01 g/m*3 11.2 C 0 km/h
114 19-09-2011 22:39:01 11.4 C 8.01 g/m*3 11.4 C 0 km/h
115 19-09-2011 22:51:01 11.1 C 7.86 g/m*3 11.1 C 0 km/h
116 19-09-2011 23:03:01 11.3 C 8.06 g/m*3 11.3 C 0 km/h
117 19-09-2011 23:15:01 11.4 C 8.01 g/m*3 11.4 C 0 km/h
118 19-09-2011 23:27:01 11 C 7.81 g/m*3 11 C 0 km/h
119 19-09-2011 23:39:01 10.4 C 7.61 g/m*3 10.4 C 0 km/h
120 19-09-2011 23:51:01 10.1 C 7.66 g/m*3 10.1 C 0 km/h
121 20-09-2011 00:03:02 9.9 C 7.84 g/m*3 9.9 C 0 km/h
122 20-09-2011 00:15:02 10.1 C 7.94 g/m*3 10.1 C 0 km/h
123 20-09-2011 00:27:02 10.6 C 8.2 g/m*3 10.6 C 0 km/h
124 20-09-2011 00:39:02 10.2 C 7.9 g/m*3 10.2 C 0 km/h
125 20-09-2011 00:51:02 9.5 C 7.55 g/m*3 9.5 C 0 km/h
Sensor: Nr:Datum:Temp:Abs-Feuchte:Windchill:Wind:
Aussen-T/F 126 20-09-2011 01:03:02 9.5 C 7.74 g/m*3 9.5 C 0 km/h
127 20-09-2011 01:15:02 9.1 C 7.54 g/m*3 9.1 C 0 km/h
128 20-09-2011 01:27:02 8.7 C 7.44 g/m*3 8.7 C 0 km/h
129 20-09-2011 01:39:02 8.7 C 7.52 g/m*3 8.7 C 0 km/h
130 20-09-2011 01:51:02 9 C 7.58 g/m*3 9 C 0 km/h
131 20-09-2011 02:03:02 8.6 C 7.56 g/m*3 8.6 C 0 km/h
132 20-09-2011 02:15:02 8.4 C 7.47 g/m*3 8.4 C 0 km/h
133 20-09-2011 02:27:02 8.4 C 7.47 g/m*3 8.4 C 0 km/h
134 20-09-2011 02:39:02 8.7 C 7.7 g/m*3 8.7 C 0 km/h
135 20-09-2011 02:51:02 8.6 C 7.65 g/m*3 8.6 C 0 km/h
136 20-09-2011 03:03:02 8.7 C 7.7 g/m*3 8.7 C 0 km/h
137 20-09-2011 03:15:02 8.9 C 7.8 g/m*3 8.9 C 0 km/h
138 20-09-2011 03:27:02 8.4 C 7.55 g/m*3 8.4 C 0 km/h
139 20-09-2011 03:39:02 7.9 C 7.31 g/m*3 7.9 C 0 km/h
140 20-09-2011 03:51:02 7.6 C 7.17 g/m*3 7.6 C 0 km/h
141 20-09-2011 04:03:03 7.5 C 7.12 g/m*3 7.5 C 0 km/h
142 20-09-2011 04:15:03 7.2 C 6.99 g/m*3 7.2 C 0 km/h
143 20-09-2011 04:27:03 7.3 C 7.03 g/m*3 7.3 C 0 km/h
144 20-09-2011 04:39:03 7.4 C 7.08 g/m*3 7.4 C 0 km/h
145 20-09-2011 04:51:03 7.1 C 6.94 g/m*3 7.1 C 0 km/h
146 20-09-2011 05:03:03 7.2 C 7.06 g/m*3 7.2 C 0 km/h
147 20-09-2011 05:15:03 6.9 C 6.93 g/m*3 6.9 C 0 km/h
148 20-09-2011 05:27:03 7 C 6.97 g/m*3 7 C 0 km/h
149 20-09-2011 05:39:03 7 C 6.97 g/m*3 7 C 0 km/h
150 20-09-2011 05:51:03 6.6 C 6.87 g/m*3 6.6 C 0 km/h
Sensor: Nr:Datum:Temp:Abs-Feuchte:Windchill:Wind:
Aussen-T/F 151 20-09-2011 06:03:03 6.4 C 6.78 g/m*3 6.4 C 0 km/h
152 20-09-2011 06:15:03 6.3 C 6.74 g/m*3 6.3 C 0 km/h
153 20-09-2011 06:27:03 6.8 C 6.96 g/m*3 6.8 C 0 km/h
154 20-09-2011 06:39:03 6.3 C 6.74 g/m*3 6.3 C 0 km/h
155 20-09-2011 06:51:03 5.9 C 6.56 g/m*3 5.9 C 0 km/h
156 20-09-2011 07:03:03 6.2 C 6.69 g/m*3 6.2 C 0 km/h
157 20-09-2011 07:15:03 6 C 6.6 g/m*3 6 C 0 km/h
158 20-09-2011 07:27:03 6.2 C 6.69 g/m*3 6.2 C 0 km/h
159 20-09-2011 07:39:02 6.3 C 6.74 g/m*3 6.3 C 0 km/h
160 20-09-2011 07:51:02 6.4 C 6.78 g/m*3 6.4 C 0 km/h
161 20-09-2011 08:03:02 6.8 C 7.04 g/m*3 6.8 C 0 km/h
162 20-09-2011 08:15:02 6.5 C 6.9 g/m*3 6.5 C 0 km/h
163 20-09-2011 08:27:02 6.9 C 7.08 g/m*3 6.9 C 0 km/h
164 20-09-2011 08:39:02 7 C 7.05 g/m*3 7 C 0 km/h
165 20-09-2011 08:51:02 7.2 C 7.14 g/m*3 7.2 C 0 km/h
166 20-09-2011 09:03:01 7.9 C 7.56 g/m*3 7.9 C 0 km/h
167 20-09-2011 09:15:02 8.1 C 7.57 g/m*3 8.1 C 0 km/h
168 20-09-2011 09:27:02 9 C 7.93 g/m*3 9 C 0 km/h
169 20-09-2011 09:39:02 9.8 C 8.44 g/m*3 9.8 C 0 km/h
170 20-09-2011 09:51:02 9.8 C 8.35 g/m*3 9.8 C 0 km/h
171 20-09-2011 10:03:03 9.9 C 8.4 g/m*3 9.9 C 0 km/h
172 20-09-2011 10:15:02 10.8 C 8.8 g/m*3 10.8 C 0 km/h
173 20-09-2011 10:27:02 12 C 9.38 g/m*3 12 C 0 km/h
174 20-09-2011 10:39:02 12.7 C 9.46 g/m*3 12.7 C 0 km/h
175 20-09-2011 10:51:01 13.5 C 9.36 g/m*3 13.5 C 0 km/h
Sensor: Nr:Datum:Temp:Abs-Feuchte:Windchill:Wind:
Aussen-T/F 176 20-09-2011 11:03:02 14.1 C 8.62 g/m*3 14.1 C 0 km/h
177 20-09-2011 11:15:01 14.4 C 8.41 g/m*3 14.4 C 0 km/h
178 20-09-2011 11:27:01 14.5 C 8.33 g/m*3 14.5 C 0 km/h
179 20-09-2011 11:39:01 14.7 C 8.31 g/m*3 14.7 C 0 km/h
180 20-09-2011 11:51:01 14.8 C 8.61 g/m*3 14.8 C 0 km/h
181 20-09-2011 12:03:01 15.4 C 8.28 g/m*3 15.4 C 0 km/h
182 20-09-2011 12:15:02 15.8 C 8.21 g/m*3 15.8 C 0 km/h
183 20-09-2011 12:27:02 16.1 C 8.09 g/m*3 16.1 C 0 km/h
184 20-09-2011 12:39:01 16.3 C 8.19 g/m*3 16.3 C 0 km/h
185 20-09-2011 12:51:02 16.8 C 8.01 g/m*3 16.8 C 0 km/h
186 20-09-2011 13:03:01 17.3 C 7.66 g/m*3 17.3 C 0 km/h
187 20-09-2011 13:15:02 17.7 C 7.54 g/m*3 17.7 C 0 km/h
188 20-09-2011 13:27:03 17.9 C 7.63 g/m*3 17.9 C 0 km/h
189 20-09-2011 13:39:01 18 C 6.76 g/m*3 18 C 0 km/h
190 20-09-2011 13:51:02 18.4 C 6.92 g/m*3 18.4 C 0 km/h
191 20-09-2011 14:03:02 18.8 C 7.41 g/m*3 18.8 C 0 km/h
192 20-09-2011 14:15:02 19.3 C 6.97 g/m*3 19.3 C 0 km/h
193 20-09-2011 14:27:02 19.2 C 7.09 g/m*3 19.2 C 0 km/h
194 20-09-2011 14:39:02 19.1 C 6.88 g/m*3 19.1 C 0 km/h
195 20-09-2011 14:51:02 19.4 C 7.34 g/m*3 19.4 C 0 km/h
196 20-09-2011 15:03:02 19.4 C 7.01 g/m*3 19.4 C 0 km/h
197 20-09-2011 15:15:01 19.2 C 6.93 g/m*3 19.2 C 0 km/h
198 20-09-2011 15:27:01 19.3 C 7.13 g/m*3 19.3 C 0 km/h
199 20-09-2011 15:39:02 19.2 C 6.93 g/m*3 19.2 C 0 km/h
200 20-09-2011 15:51:02 19.1 C 6.88 g/m*3 19.1 C 0 km/h
Sensor: Nr:Datum:Temp:Abs-Feuchte:Windchill:Wind:
Aussen-T/F 201 20-09-2011 16:03:02 19 C 6.84 g/m*3 19 C 0 km/h
202 20-09-2011 16:15:01 18.9 C 7.29 g/m*3 18.9 C 0 km/h
203 20-09-2011 16:27:01 18.9 C 7.45 g/m*3 18.9 C 0 km/h
204 20-09-2011 16:39:02 19.1 C 7.38 g/m*3 19.1 C 0 km/h
205 20-09-2011 16:51:02 18.9 C 7.45 g/m*3 18.9 C 0 km/h
206 20-09-2011 17:03:02 18.7 C 7.2 g/m*3 18.7 C 0 km/h
207 20-09-2011 17:15:02 18.7 C 8.01 g/m*3 18.7 C 0 km/h
208 20-09-2011 17:27:02 19.1 C 8.69 g/m*3 19.1 C 0 km/h
209 20-09-2011 17:39:02 18.5 C 8.07 g/m*3 18.5 C 0 km/h
210 20-09-2011 17:51:02 18.8 C 8.37 g/m*3 18.8 C 0 km/h
211 20-09-2011 18:03:02 17.8 C 8.65 g/m*3 17.8 C 0 km/h
212 20-09-2011 18:15:02 17.4 C 9.04 g/m*3 17.4 C 0 km/h
213 20-09-2011 18:27:03 16.8 C 9.29 g/m*3 16.8 C 0 km/h
214 20-09-2011 18:39:01 16.6 C 9.32 g/m*3 16.6 C 0 km/h
215 20-09-2011 18:51:02 16.4 C 9.35 g/m*3 16.4 C 0 km/h
216 20-09-2011 19:03:01 16 C 9.13 g/m*3 16 C 0 km/h
217 20-09-2011 19:15:02 15.7 C 9.23 g/m*3 15.7 C 0 km/h
218 20-09-2011 19:27:02 15.5 C 9.12 g/m*3 15.5 C 0 km/h
219 20-09-2011 19:39:02 15.3 C 9.01 g/m*3 15.3 C 0 km/h
220 20-09-2011 19:51:02 15.1 C 9.03 g/m*3 15.1 C 0 km/h
221 20-09-2011 20:03:02 15.1 C 9.03 g/m*3 15.1 C 0 km/h
222 20-09-2011 20:15:02 14.8 C 9.12 g/m*3 14.8 C 0 km/h
223 20-09-2011 20:27:02 14.7 C 9.07 g/m*3 14.7 C 0 km/h
224 20-09-2011 20:39:02 14.7 C 9.07 g/m*3 14.7 C 0 km/h
225 20-09-2011 20:51:01 14.5 C 8.95 g/m*3 14.5 C 0 km/h
Sensor: Nr:Datum:Temp:Abs-Feuchte:Windchill:Wind:
Aussen-T/F 226 20-09-2011 21:03:02 14.4 C 9.02 g/m*3 14.4 C 0 km/h
227 20-09-2011 21:15:01 13.9 C 8.87 g/m*3 13.9 C 0 km/h
228 20-09-2011 21:27:01 13.8 C 9.06 g/m*3 13.8 C 0 km/h
229 20-09-2011 21:39:01 13.4 C 8.95 g/m*3 13.4 C 0 km/h
230 20-09-2011 21:51:01 13.1 C 8.79 g/m*3 13.1 C 0 km/h
231 20-09-2011 22:03:02 12.5 C 8.58 g/m*3 12.5 C 0 km/h
232 20-09-2011 22:15:01 12 C 8.53 g/m*3 12 C 0 km/h
233 20-09-2011 22:27:01 11.7 C 8.58 g/m*3 11.7 C 0 km/h
234 20-09-2011 22:39:02 11.3 C 8.47 g/m*3 11.3 C 0 km/h
235 20-09-2011 22:51:02 11 C 8.31 g/m*3 11 C 0 km/h
236 20-09-2011 23:03:02 10.7 C 8.25 g/m*3 10.7 C 0 km/h
237 20-09-2011 23:15:01 10.5 C 8.15 g/m*3 10.5 C 0 km/h
238 20-09-2011 23:27:01 10.2 C 7.99 g/m*3 10.2 C 0 km/h
239 20-09-2011 23:39:02 10.3 C 8.14 g/m*3 10.3 C 0 km/h
240 20-09-2011 23:51:01 10.2 C 8.09 g/m*3 10.2 C 0 km/h
241 21-09-2011 00:03:02 10.2 C 8.18 g/m*3 10.2 C 0 km/h
242 21-09-2011 00:15:01 9.9 C 8.12 g/m*3 9.9 C 0 km/h
243 21-09-2011 00:27:01 9.9 C 8.22 g/m*3 9.9 C 0 km/h
244 21-09-2011 00:39:02 9.6 C 8.06 g/m*3 9.6 C 0 km/h
245 21-09-2011 00:51:02 9.4 C 7.96 g/m*3 9.4 C 0 km/h
246 21-09-2011 01:03:02 9.3 C 7.91 g/m*3 9.3 C 0 km/h
247 21-09-2011 01:15:02 9.2 C 7.86 g/m*3 9.2 C 0 km/h
248 21-09-2011 01:27:02 9 C 7.76 g/m*3 9 C 0 km/h
249 21-09-2011 01:39:02 8.9 C 7.8 g/m*3 8.9 C 0 km/h
250 21-09-2011 01:51:02 9 C 7.76 g/m*3 9 C 0 km/h
Sensor: Nr:Datum:Temp:Abs-Feuchte:Windchill:Wind:
Aussen-T/F 251 21-09-2011 02:03:02 9 C 7.76 g/m*3 9 C 0 km/h
252 21-09-2011 02:15:02 8.8 C 7.75 g/m*3 8.8 C 0 km/h
253 21-09-2011 02:27:02 8.7 C 7.7 g/m*3 8.7 C 0 km/h
254 21-09-2011 02:39:02 8.3 C 7.5 g/m*3 8.3 C 0 km/h
255 21-09-2011 02:52:03 8.4 C 7.55 g/m*3 8.4 C 0 km/h
256 21-09-2011 03:04:03 8.4 C 7.55 g/m*3 8.4 C 0 km/h
257 21-09-2011 03:16:03 8 C 7.36 g/m*3 8 C 0 km/h
258 21-09-2011 03:28:03 8.2 C 7.45 g/m*3 8.2 C 0 km/h
259 21-09-2011 03:40:02 7.9 C 7.39 g/m*3 7.9 C 0 km/h
260 21-09-2011 03:52:02 7.8 C 7.35 g/m*3 7.8 C 0 km/h
261 21-09-2011 04:04:02 7.7 C 7.3 g/m*3 7.7 C 0 km/h
262 21-09-2011 04:16:02 7.5 C 7.2 g/m*3 7.5 C 0 km/h
263 21-09-2011 04:28:03 7.6 C 7.25 g/m*3 7.6 C 0 km/h
264 21-09-2011 04:40:02 7.8 C 7.35 g/m*3 7.8 C 0 km/h
265 21-09-2011 04:52:02 7.8 C 7.35 g/m*3 7.8 C 0 km/h
266 21-09-2011 05:04:01 7.9 C 7.47 g/m*3 7.9 C 0 km/h
267 21-09-2011 05:16:02 8.5 C 7.68 g/m*3 8.5 C 0 km/h
268 21-09-2011 05:28:02 8.4 C 7.63 g/m*3 8.4 C 0 km/h
269 21-09-2011 05:40:02 8 C 7.44 g/m*3 8 C 0 km/h
270 21-09-2011 05:52:01 8.6 C 7.82 g/m*3 8.6 C 0 km/h
271 21-09-2011 06:04:02 9 C 7.93 g/m*3 9 C 0 km/h
272 21-09-2011 06:16:01 9.1 C 7.99 g/m*3 9.1 C 0 km/h
273 21-09-2011 06:28:01 9.2 C 8.04 g/m*3 9.2 C 0 km/h
274 21-09-2011 06:40:02 9.3 C 8.18 g/m*3 9.3 C 0 km/h
275 21-09-2011 06:52:02 9.3 C 8.18 g/m*3 9.3 C 0 km/h
Sensor: Nr:Datum:Temp:Abs-Feuchte:Windchill:Wind:
Aussen-T/F 276 21-09-2011 07:04:02 9.5 C 8.28 g/m*3 9.5 C 0 km/h
277 21-09-2011 07:16:01 9.5 C 8.28 g/m*3 9.5 C 0 km/h
278 21-09-2011 07:28:01 9.5 C 8.28 g/m*3 9.5 C 0 km/h
279 21-09-2011 07:40:02 9.6 C 8.34 g/m*3 9.6 C 0 km/h
280 21-09-2011 07:52:01 9.7 C 8.39 g/m*3 9.7 C 0 km/h
281 21-09-2011 08:04:02 9.7 C 8.39 g/m*3 9.7 C 0 km/h
282 21-09-2011 08:16:02 9.8 C 8.44 g/m*3 9.8 C 0 km/h
283 21-09-2011 08:28:02 9.9 C 8.5 g/m*3 9.9 C 0 km/h
284 21-09-2011 08:40:01 10 C 8.36 g/m*3 10 C 0 km/h
285 21-09-2011 08:52:02 10.4 C 8.58 g/m*3 10.4 C 0 km/h
286 21-09-2011 09:04:02 10.8 C 8.8 g/m*3 10.8 C 0 km/h
287 21-09-2011 09:16:01 11.1 C 8.86 g/m*3 11.1 C 0 km/h
288 21-09-2011 09:28:01 11.1 C 8.76 g/m*3 11.1 C 0 km/h
289 21-09-2011 09:40:01 11.9 C 9.11 g/m*3 11.9 C 0 km/h
290 21-09-2011 09:52:01 12.2 C 8.74 g/m*3 12.2 C 0 km/h
291 21-09-2011 10:04:01 12.5 C 8.58 g/m*3 12.5 C 0 km/h
292 21-09-2011 10:16:02 12.8 C 8.51 g/m*3 12.8 C 0 km/h
293 21-09-2011 10:28:02 13.2 C 8.27 g/m*3 13.2 C 0 km/h
294 21-09-2011 10:40:01 13.5 C 8.19 g/m*3 13.5 C 0 km/h
295 21-09-2011 10:52:02 14.3 C 8.11 g/m*3 14.3 C 0 km/h
296 21-09-2011 11:04:02 14.3 C 7.99 g/m*3 14.3 C 0 km/h
297 21-09-2011 11:16:02 13.7 C 8.05 g/m*3 13.7 C 0 km/h
298 21-09-2011 11:28:02 13.5 C 8.54 g/m*3 13.5 C 0 km/h
299 21-09-2011 11:40:01 13.9 C 8.87 g/m*3 13.9 C 0 km/h
300 21-09-2011 11:52:02 14 C 9.17 g/m*3 14 C 0 km/h
Sensor: Nr:Datum:Temp:Abs-Feuchte:Windchill:Wind:
Aussen-T/F 301 21-09-2011 12:04:01 14.5 C 9.08 g/m*3 14.5 C 0 km/h
302 21-09-2011 12:16:01 14.8 C 9.25 g/m*3 14.8 C 0 km/h
303 21-09-2011 12:28:01 15.4 C 9.2 g/m*3 15.4 C 0 km/h
304 21-09-2011 12:40:02 16.1 C 8.36 g/m*3 16.1 C 0 km/h
305 21-09-2011 12:52:02 16.9 C 8.77 g/m*3 16.9 C 0 km/h
306 21-09-2011 13:04:02 18 C 8.75 g/m*3 18 C 0 km/h
307 21-09-2011 13:16:01 19.2 C 7.09 g/m*3 19.2 C 0 km/h
308 21-09-2011 13:28:01 19.4 C 7.67 g/m*3 19.4 C 0 km/h
309 21-09-2011 13:40:02 21 C 6.78 g/m*3 21 C 0 km/h
310 21-09-2011 13:52:02 21.1 C 7.37 g/m*3 21.1 C 0 km/h
311 21-09-2011 14:04:02 20.3 C 7.21 g/m*3 20.3 C 0 km/h
312 21-09-2011 14:16:01 19.5 C 7.05 g/m*3 19.5 C 0 km/h
313 21-09-2011 14:28:01 19.6 C 7.26 g/m*3 19.6 C 0 km/h
314 21-09-2011 14:40:02 19.7 C 7.3 g/m*3 19.7 C 0 km/h
315 21-09-2011 14:52:02 20 C 7.09 g/m*3 20 C 0 km/h
316 21-09-2011 15:04:02 20 C 6.74 g/m*3 20 C 0 km/h
317 21-09-2011 15:16:02 19.7 C 6.96 g/m*3 19.7 C 0 km/h
318 21-09-2011 15:28:02 20.3 C 7.03 g/m*3 20.3 C 0 km/h
319 21-09-2011 15:40:02 20.6 C 6.8 g/m*3 20.6 C 0 km/h
320 21-09-2011 15:52:02 23.1 C 7.03 g/m*3 23.1 C 0 km/h
321 21-09-2011 16:04:02 23.4 C 6.94 g/m*3 23.4 C 0 km/h
322 21-09-2011 16:16:02 22.9 C 6.54 g/m*3 22.9 C 0 km/h
323 21-09-2011 16:28:02 23.5 C 6.77 g/m*3 23.5 C 0 km/h
324 21-09-2011 16:40:01 23.7 C 6.63 g/m*3 23.7 C 0 km/h
325 21-09-2011 16:52:02 23.2 C 6.65 g/m*3 23.2 C 0 km/h
Sensor: Nr:Datum:Temp:Abs-Feuchte:Windchill:Wind:
Aussen-T/F 326 21-09-2011 17:04:02 20.8 C 6.88 g/m*3 20.8 C 0 km/h
327 21-09-2011 17:16:02 20.1 C 7.3 g/m*3 20.1 C 0 km/h
328 21-09-2011 17:28:03 19.4 C 7.67 g/m*3 19.4 C 0 km/h
329 21-09-2011 17:40:01 19.5 C 7.38 g/m*3 19.5 C 0 km/h
330 21-09-2011 17:52:02 19.1 C 6.72 g/m*3 19.1 C 0 km/h
331 21-09-2011 18:04:01 19.1 C 6.88 g/m*3 19.1 C 0 km/h
332 21-09-2011 18:16:01 20.4 C 7.08 g/m*3 20.4 C 0 km/h
333 21-09-2011 18:28:01 19 C 6.84 g/m*3 19 C 0 km/h
334 21-09-2011 18:40:02 17.3 C 7.37 g/m*3 17.3 C 0 km/h
335 21-09-2011 18:52:02 16.3 C 7.77 g/m*3 16.3 C 0 km/h
336 21-09-2011 19:04:02 16.2 C 8.14 g/m*3 16.2 C 0 km/h
337 21-09-2011 19:16:02 16.2 C 7.86 g/m*3 16.2 C 0 km/h
338 21-09-2011 19:28:02 16.2 C 8.14 g/m*3 16.2 C 0 km/h
339 21-09-2011 19:40:02 15.6 C 8.38 g/m*3 15.6 C 0 km/h
340 21-09-2011 19:52:02 15.4 C 8.41 g/m*3 15.4 C 0 km/h
341 21-09-2011 20:04:02 15.4 C 8.54 g/m*3 15.4 C 0 km/h
342 21-09-2011 20:16:02 15.4 C 8.67 g/m*3 15.4 C 0 km/h
343 21-09-2011 20:28:02 15.4 C 8.54 g/m*3 15.4 C 0 km/h
344 21-09-2011 20:40:02 15.3 C 8.62 g/m*3 15.3 C 0 km/h
345 21-09-2011 20:52:01 15.4 C 8.67 g/m*3 15.4 C 0 km/h
346 21-09-2011 21:04:02 15.3 C 8.62 g/m*3 15.3 C 0 km/h
347 21-09-2011 21:16:02 15.4 C 8.67 g/m*3 15.4 C 0 km/h
348 21-09-2011 21:28:02 15.4 C 8.67 g/m*3 15.4 C 0 km/h
349 21-09-2011 21:40:01 15.1 C 8.51 g/m*3 15.1 C 0 km/h
350 21-09-2011 21:52:02 14.4 C 8.41 g/m*3 14.4 C 0 km/h
Sensor: Nr:Datum:Temp:Abs-Feuchte:Windchill:Wind:
Aussen-T/F 351 21-09-2011 22:04:03 14 C 8.44 g/m*3 14 C 0 km/h
352 21-09-2011 22:16:02 13.8 C 8.58 g/m*3 13.8 C 0 km/h
353 21-09-2011 22:28:02 13.5 C 8.42 g/m*3 13.5 C 0 km/h
354 21-09-2011 22:40:02 13.4 C 8.49 g/m*3 13.4 C 0 km/h
355 21-09-2011 22:52:02 13.4 C 8.6 g/m*3 13.4 C 0 km/h
356 21-09-2011 23:04:02 13.6 C 8.71 g/m*3 13.6 C 0 km/h
357 21-09-2011 23:16:02 14 C 8.68 g/m*3 14 C 0 km/h
358 21-09-2011 23:28:02 14.3 C 8.85 g/m*3 14.3 C 0 km/h
359 21-09-2011 23:40:02 15 C 8.46 g/m*3 15 C 0 km/h
360 21-09-2011 23:52:02 15 C 8.59 g/m*3 15 C 0 km/h
361 22-09-2011 00:04:01 15 C 8.59 g/m*3 15 C 0 km/h
362 22-09-2011 00:16:02 15.1 C 8.77 g/m*3 15.1 C 0 km/h
363 22-09-2011 00:28:02 15.9 C 8.4 g/m*3 15.9 C 0 km/h
364 22-09-2011 00:40:01 15.7 C 8.3 g/m*3 15.7 C 0 km/h
365 22-09-2011 00:52:02 15.3 C 8.36 g/m*3 15.3 C 0 km/h
366 22-09-2011 01:04:01 15.1 C 8.51 g/m*3 15.1 C 0 km/h
367 22-09-2011 01:16:02 15.4 C 8.41 g/m*3 15.4 C 0 km/h
368 22-09-2011 01:28:02 15.5 C 8.33 g/m*3 15.5 C 0 km/h
369 22-09-2011 01:40:01 15.3 C 8.36 g/m*3 15.3 C 0 km/h
370 22-09-2011 01:52:02 15.4 C 8.28 g/m*3 15.4 C 0 km/h
371 22-09-2011 02:04:02 14.9 C 8.67 g/m*3 14.9 C 0 km/h
372 22-09-2011 02:16:02 14.9 C 8.67 g/m*3 14.9 C 0 km/h
373 22-09-2011 02:28:02 15.1 C 8.39 g/m*3 15.1 C 0 km/h
374 22-09-2011 02:40:02 15.1 C 8.26 g/m*3 15.1 C 0 km/h
375 22-09-2011 02:52:01 15 C 8.33 g/m*3 15 C 0 km/h
Sensor: Nr:Datum:Temp:Abs-Feuchte:Windchill:Wind:
Aussen-T/F 376 22-09-2011 03:04:01 14.8 C 8.49 g/m*3 14.8 C 0 km/h
377 22-09-2011 03:16:02 14.9 C 8.54 g/m*3 14.9 C 0 km/h
378 22-09-2011 03:28:02 15.2 C 8.44 g/m*3 15.2 C 0 km/h
379 22-09-2011 03:40:01 14.8 C 8.49 g/m*3 14.8 C 0 km/h
380 22-09-2011 03:52:01 15.4 C 8.41 g/m*3 15.4 C 0 km/h
381 22-09-2011 04:04:01 15.1 C 8.39 g/m*3 15.1 C 0 km/h
382 22-09-2011 04:16:01 14.6 C 8.51 g/m*3 14.6 C 0 km/h
383 22-09-2011 04:28:01 14.7 C 8.56 g/m*3 14.7 C 0 km/h
384 22-09-2011 04:40:02 14.4 C 8.53 g/m*3 14.4 C 0 km/h
385 22-09-2011 04:52:01 14.1 C 8.5 g/m*3 14.1 C 0 km/h
386 22-09-2011 05:04:02 13.8 C 8.82 g/m*3 13.8 C 0 km/h
387 22-09-2011 05:16:01 14.4 C 8.65 g/m*3 14.4 C 0 km/h
388 22-09-2011 05:28:01 14.5 C 8.71 g/m*3 14.5 C 0 km/h
389 22-09-2011 05:40:01 14.3 C 8.72 g/m*3 14.3 C 0 km/h
390 22-09-2011 05:52:01 14.3 C 8.85 g/m*3 14.3 C 0 km/h
391 22-09-2011 06:04:01 14.3 C 8.72 g/m*3 14.3 C 0 km/h
392 22-09-2011 06:16:02 14.4 C 8.65 g/m*3 14.4 C 0 km/h
393 22-09-2011 06:28:02 14.4 C 8.65 g/m*3 14.4 C 0 km/h
394 22-09-2011 06:40:01 14.1 C 8.74 g/m*3 14.1 C 0 km/h
395 22-09-2011 06:52:02 14.2 C 8.67 g/m*3 14.2 C 0 km/h
396 22-09-2011 07:04:01 14.4 C 8.65 g/m*3 14.4 C 0 km/h
397 22-09-2011 07:16:01 14.4 C 8.65 g/m*3 14.4 C 0 km/h
398 22-09-2011 07:28:01 14.5 C 8.71 g/m*3 14.5 C 0 km/h
399 22-09-2011 07:40:02 14.2 C 8.67 g/m*3 14.2 C 0 km/h
400 22-09-2011 07:52:01 14.2 C 8.91 g/m*3 14.2 C 0 km/h
Sensor: Nr:Datum:Temp:Abs-Feuchte:Windchill:Wind:
Aussen-T/F 401 22-09-2011 08:04:02 13.8 C 8.82 g/m*3 13.8 C 0 km/h
402 22-09-2011 08:16:01 13.3 C 8.9 g/m*3 13.3 C 0 km/h
403 22-09-2011 08:28:01 13.9 C 9.35 g/m*3 13.9 C 0 km/h
404 22-09-2011 08:40:01 14.1 C 8.98 g/m*3 14.1 C 0 km/h
405 22-09-2011 08:52:01 13.9 C 8.87 g/m*3 13.9 C 0 km/h
406 22-09-2011 09:04:01 13.3 C 8.9 g/m*3 13.3 C 0 km/h
407 22-09-2011 09:16:02 13.1 C 9.01 g/m*3 13.1 C 0 km/h
408 22-09-2011 09:28:02 13.4 C 9.3 g/m*3 13.4 C 0 km/h
409 22-09-2011 09:40:01 13.8 C 9.53 g/m*3 13.8 C 0 km/h
410 22-09-2011 09:52:02 15.2 C 8.96 g/m*3 15.2 C 0 km/h
411 22-09-2011 10:04:01 15 C 8.72 g/m*3 15 C 0 km/h
412 22-09-2011 10:16:02 15.6 C 8.38 g/m*3 15.6 C 0 km/h
413 22-09-2011 10:28:02 15.5 C 8.33 g/m*3 15.5 C 0 km/h
414 22-09-2011 10:40:01 15.4 C 8.28 g/m*3 15.4 C 0 km/h
415 22-09-2011 10:52:02 15.8 C 8.48 g/m*3 15.8 C 0 km/h
416 22-09-2011 11:04:01 16.3 C 7.77 g/m*3 16.3 C 0 km/h
417 22-09-2011 11:16:01 16.9 C 7.19 g/m*3 16.9 C 0 km/h
418 22-09-2011 11:28:01 17.8 C 6.98 g/m*3 17.8 C 0 km/h
419 22-09-2011 11:40:02 18.1 C 6.64 g/m*3 18.1 C 0 km/h
420 22-09-2011 11:52:01 18.2 C 6.53 g/m*3 18.2 C 0 km/h
421 22-09-2011 12:04:02 18.4 C 6.45 g/m*3 18.4 C 0 km/h
422 22-09-2011 12:16:01 18.4 C 6.13 g/m*3 18.4 C 0 km/h
423 22-09-2011 12:28:01 17.7 C 6.19 g/m*3 17.7 C 0 km/h
424 22-09-2011 12:40:01 18.1 C 6.18 g/m*3 18.1 C 0 km/h
425 22-09-2011 12:52:01 17.8 C 6.22 g/m*3 17.8 C 0 km/h
Sensor: Nr:Datum:Temp:Abs-Feuchte:Windchill:Wind:
Aussen-T/F 426 22-09-2011 13:04:01 18.4 C 5.98 g/m*3 18.4 C 0 km/h
427 22-09-2011 13:16:01 18.1 C 5.41 g/m*3 18.1 C 0 km/h
428 22-09-2011 13:28:01 18.1 C 5.56 g/m*3 18.1 C 0 km/h
429 22-09-2011 13:40:01 20.2 C 5.94 g/m*3 20.2 C 0 km/h
430 22-09-2011 13:52:01 20.3 C 5.45 g/m*3 20.3 C 0 km/h
431 22-09-2011 14:04:01 19.8 C 5.47 g/m*3 19.8 C 0 km/h
432 22-09-2011 14:16:02 20 C 5.7 g/m*3 20 C 0 km/h
433 22-09-2011 14:28:02 20.1 C 5.56 g/m*3 20.1 C 0 km/h
434 22-09-2011 14:40:01 20.4 C 5.66 g/m*3 20.4 C 0 km/h
435 22-09-2011 14:52:02 20.2 C 5.42 g/m*3 20.2 C 0 km/h
436 22-09-2011 15:04:01 19.9 C 5.33 g/m*3 19.9 C 0 km/h
437 22-09-2011 15:16:01 20 C 5.53 g/m*3 20 C 0 km/h
438 22-09-2011 15:28:01 21 C 5.5 g/m*3 21 C 0 km/h
439 22-09-2011 15:40:02 21 C 5.31 g/m*3 21 C 0 km/h
440 22-09-2011 15:52:01 20.3 C 5.28 g/m*3 20.3 C 0 km/h
441 22-09-2011 16:04:02 20 C 6.22 g/m*3 20 C 0 km/h
442 22-09-2011 16:17:01 19.7 C 6.11 g/m*3 19.7 C 0 km/h
443 22-09-2011 16:29:01 19.8 C 6.32 g/m*3 19.8 C 0 km/h
444 22-09-2011 16:40:02 19.8 C 6.32 g/m*3 19.8 C 0 km/h
445 22-09-2011 16:53:01 19.4 C 6.17 g/m*3 19.4 C 0 km/h
446 22-09-2011 17:04:02 19 C 6.52 g/m*3 19 C 0 km/h
447 22-09-2011 17:17:01 18.7 C 7.84 g/m*3 18.7 C 0 km/h
448 22-09-2011 17:29:01 18.4 C 6.92 g/m*3 18.4 C 0 km/h
449 22-09-2011 17:41:01 18.2 C 7.46 g/m*3 18.2 C 0 km/h
450 22-09-2011 17:53:01 17.5 C 8.35 g/m*3 17.5 C 0 km/h
Sensor: Nr:Datum:Temp:Abs-Feuchte:Windchill:Wind:
Aussen-T/F 451 22-09-2011 18:05:01 17.3 C 7.51 g/m*3 17.3 C 0 km/h
452 22-09-2011 18:17:02 17.3 C 7.37 g/m*3 17.3 C 0 km/h
453 22-09-2011 18:29:02 17 C 7.81 g/m*3 17 C 0 km/h
454 22-09-2011 18:41:01 16.7 C 7.96 g/m*3 16.7 C 0 km/h
455 22-09-2011 18:53:02 16.1 C 7.68 g/m*3 16.1 C 0 km/h
456 22-09-2011 19:05:01 15.9 C 7.85 g/m*3 15.9 C 0 km/h
457 22-09-2011 19:17:01 15.7 C 7.89 g/m*3 15.7 C 0 km/h
458 22-09-2011 19:29:02 15.6 C 7.98 g/m*3 15.6 C 0 km/h
459 22-09-2011 19:41:01 15.4 C 8.01 g/m*3 15.4 C 0 km/h
460 22-09-2011 19:53:02 15 C 7.69 g/m*3 15 C 0 km/h
461 22-09-2011 20:05:01 14.9 C 7.77 g/m*3 14.9 C 0 km/h
462 22-09-2011 20:17:01 15 C 7.82 g/m*3 15 C 0 km/h
463 22-09-2011 20:29:01 14.7 C 7.81 g/m*3 14.7 C 0 km/h
464 22-09-2011 20:41:02 14.1 C 7.65 g/m*3 14.1 C 0 km/h
465 22-09-2011 20:53:01 13.5 C 7.72 g/m*3 13.5 C 0 km/h
466 22-09-2011 21:05:02 13.3 C 7.86 g/m*3 13.3 C 0 km/h
467 22-09-2011 21:17:01 12.8 C 7.95 g/m*3 12.8 C 0 km/h
468 22-09-2011 21:29:01 12.5 C 8.14 g/m*3 12.5 C 0 km/h
469 22-09-2011 21:41:01 12.7 C 8.24 g/m*3 12.7 C 0 km/h
470 22-09-2011 21:53:01 13 C 8.17 g/m*3 13 C 0 km/h
471 22-09-2011 22:05:02 13.2 C 8.15 g/m*3 13.2 C 0 km/h
472 22-09-2011 22:17:01 12.9 C 8.11 g/m*3 12.9 C 0 km/h
473 22-09-2011 22:29:01 12.6 C 8.08 g/m*3 12.6 C 0 km/h
474 22-09-2011 22:41:01 12.7 C 8.24 g/m*3 12.7 C 0 km/h
475 22-09-2011 22:53:01 12.6 C 8.19 g/m*3 12.6 C 0 km/h
Sensor: Nr:Datum:Temp:Abs-Feuchte:Windchill:Wind:
Aussen-T/F 476 22-09-2011 23:06:01 12.6 C 8.19 g/m*3 12.6 C 0 km/h
477 22-09-2011 23:18:01 12.4 C 8.19 g/m*3 12.4 C 0 km/h
478 22-09-2011 23:30:01 11.9 C 8.15 g/m*3 11.9 C 0 km/h
479 22-09-2011 23:42:01 11.7 C 8.26 g/m*3 11.7 C 0 km/h
480 22-09-2011 23:54:01 11.7 C 8.37 g/m*3 11.7 C 0 km/h
481 23-09-2011 00:06:01 11.6 C 8.42 g/m*3 11.6 C 0 km/h
482 23-09-2011 00:18:01 11.4 C 8.31 g/m*3 11.4 C 0 km/h
483 23-09-2011 00:30:01 11.1 C 8.16 g/m*3 11.1 C 0 km/h
484 23-09-2011 00:42:01 11.1 C 8.26 g/m*3 11.1 C 0 km/h
485 23-09-2011 00:54:01 11.9 C 8.79 g/m*3 11.9 C 0 km/h
486 23-09-2011 01:06:01 12.2 C 8.85 g/m*3 12.2 C 0 km/h
487 23-09-2011 01:18:01 12.5 C 8.58 g/m*3 12.5 C 0 km/h
488 23-09-2011 01:30:01 12.6 C 8.41 g/m*3 12.6 C 0 km/h
489 23-09-2011 01:42:01 12.5 C 8.25 g/m*3 12.5 C 0 km/h
490 23-09-2011 01:54:01 12.7 C 8.24 g/m*3 12.7 C 0 km/h
491 23-09-2011 02:06:01 12.6 C 8.3 g/m*3 12.6 C 0 km/h
492 23-09-2011 02:18:01 12.5 C 8.25 g/m*3 12.5 C 0 km/h
493 23-09-2011 02:30:01 12.5 C 8.14 g/m*3 12.5 C 0 km/h
494 23-09-2011 02:42:02 12.5 C 8.14 g/m*3 12.5 C 0 km/h
495 23-09-2011 02:54:02 12.4 C 8.09 g/m*3 12.4 C 0 km/h
496 23-09-2011 03:06:02 12.4 C 8.09 g/m*3 12.4 C 0 km/h
497 23-09-2011 03:18:02 12.5 C 8.03 g/m*3 12.5 C 0 km/h
498 23-09-2011 03:30:02 12 C 7.99 g/m*3 12 C 0 km/h
499 23-09-2011 03:42:02 11.8 C 8.1 g/m*3 11.8 C 0 km/h
500 23-09-2011 03:54:02 12.1 C 8.04 g/m*3 12.1 C 0 km/h
Sensor: Nr:Datum:Temp:Abs-Feuchte:Windchill:Wind:
Aussen-T/F 501 23-09-2011 04:06:02 12.1 C 8.04 g/m*3 12.1 C 0 km/h
502 23-09-2011 04:18:02 12 C 7.99 g/m*3 12 C 0 km/h
503 23-09-2011 04:30:02 11.9 C 8.05 g/m*3 11.9 C 0 km/h
504 23-09-2011 04:42:02 11.4 C 8.01 g/m*3 11.4 C 0 km/h
505 23-09-2011 04:54:02 11.4 C 8.11 g/m*3 11.4 C 0 km/h
506 23-09-2011 05:06:02 11.3 C 8.16 g/m*3 11.3 C 0 km/h
507 23-09-2011 05:18:02 11.3 C 8.26 g/m*3 11.3 C 0 km/h
508 23-09-2011 05:30:02 11.2 C 8.21 g/m*3 11.2 C 0 km/h
509 23-09-2011 05:42:02 11.4 C 8.31 g/m*3 11.4 C 0 km/h
510 23-09-2011 05:54:02 11.3 C 8.26 g/m*3 11.3 C 0 km/h
511 23-09-2011 06:06:02 11.2 C 8.21 g/m*3 11.2 C 0 km/h
512 23-09-2011 06:18:02 11.3 C 8.26 g/m*3 11.3 C 0 km/h
513 23-09-2011 06:30:02 11.2 C 8.21 g/m*3 11.2 C 0 km/h
514 23-09-2011 06:42:02 11.3 C 8.26 g/m*3 11.3 C 0 km/h
515 23-09-2011 06:54:03 11.3 C 8.26 g/m*3 11.3 C 0 km/h
516 23-09-2011 07:06:03 11 C 8.11 g/m*3 11 C 0 km/h
517 23-09-2011 07:18:03 10.8 C 8.11 g/m*3 10.8 C 0 km/h
518 23-09-2011 07:30:03 10.8 C 8.2 g/m*3 10.8 C 0 km/h
519 23-09-2011 07:42:03 11 C 8.31 g/m*3 11 C 0 km/h
520 23-09-2011 07:54:02 11.1 C 8.26 g/m*3 11.1 C 0 km/h
521 23-09-2011 08:06:02 11.2 C 8.21 g/m*3 11.2 C 0 km/h
522 23-09-2011 08:18:02 11.3 C 8.16 g/m*3 11.3 C 0 km/h
523 23-09-2011 08:30:02 11.5 C 8.16 g/m*3 11.5 C 0 km/h
524 23-09-2011 08:42:02 11.7 C 8.16 g/m*3 11.7 C 0 km/h
525 23-09-2011 08:54:01 12 C 8.1 g/m*3 12 C 0 km/h
Sensor: Nr:Datum:Temp:Abs-Feuchte:Windchill:Wind:
Aussen-T/F 526 23-09-2011 09:06:01 12.3 C 8.04 g/m*3 12.3 C 0 km/h
527 23-09-2011 09:18:01 12.5 C 8.03 g/m*3 12.5 C 0 km/h
528 23-09-2011 09:30:01 12.8 C 8.06 g/m*3 12.8 C 0 km/h
529 23-09-2011 09:42:01 13 C 7.94 g/m*3 13 C 0 km/h
530 23-09-2011 09:54:02 13.2 C 7.92 g/m*3 13.2 C 0 km/h
531 23-09-2011 10:06:02 13.4 C 7.9 g/m*3 13.4 C 0 km/h
532 23-09-2011 10:18:01 13.4 C 8.02 g/m*3 13.4 C 0 km/h
533 23-09-2011 10:30:01 13.1 C 7.87 g/m*3 13.1 C 0 km/h
534 23-09-2011 10:42:01 13.3 C 8.09 g/m*3 13.3 C 0 km/h
535 23-09-2011 10:54:01 13.2 C 8.04 g/m*3 13.2 C 0 km/h
536 23-09-2011 11:06:01 13.6 C 8.36 g/m*3 13.6 C 0 km/h
537 23-09-2011 11:18:02 13.9 C 8.39 g/m*3 13.9 C 0 km/h
538 23-09-2011 11:30:02 14.2 C 8.43 g/m*3 14.2 C 0 km/h
539 23-09-2011 11:42:01 14.2 C 8.79 g/m*3 14.2 C 0 km/h
540 23-09-2011 11:54:02 14.8 C 8.11 g/m*3 14.8 C 0 km/h
541 23-09-2011 12:06:02 15.2 C 7.92 g/m*3 15.2 C 0 km/h
542 23-09-2011 12:18:02 15.4 C 8.54 g/m*3 15.4 C 0 km/h
543 23-09-2011 12:30:03 15.5 C 8.59 g/m*3 15.5 C 0 km/h
544 23-09-2011 12:42:01 15.9 C 9.07 g/m*3 15.9 C 0 km/h
545 23-09-2011 12:54:02 16.8 C 7.29 g/m*3 16.8 C 0 km/h
546 23-09-2011 13:06:01 17.6 C 6.45 g/m*3 17.6 C 0 km/h
547 23-09-2011 13:18:01 17.1 C 8.15 g/m*3 17.1 C 0 km/h
548 23-09-2011 13:30:01 16.8 C 8.01 g/m*3 16.8 C 0 km/h
549 23-09-2011 13:42:02 16.5 C 8.14 g/m*3 16.5 C 0 km/h
550 23-09-2011 13:54:02 17 C 7.67 g/m*3 17 C 0 km/h
Sensor: Nr:Datum:Temp:Abs-Feuchte:Windchill:Wind:
Aussen-T/F 551 23-09-2011 14:06:02 17.8 C 5.92 g/m*3 17.8 C 0 km/h
552 23-09-2011 14:18:02 17.8 C 7.29 g/m*3 17.8 C 0 km/h
553 23-09-2011 14:30:02 18.8 C 6.6 g/m*3 18.8 C 0 km/h
554 23-09-2011 14:42:02 19.3 C 6.3 g/m*3 19.3 C 0 km/h
555 23-09-2011 14:54:02 20 C 6.05 g/m*3 20 C 0 km/h
556 23-09-2011 15:06:02 20.9 C 6.01 g/m*3 20.9 C 0 km/h
557 23-09-2011 15:18:03 20.8 C 5.61 g/m*3 20.8 C 0 km/h
558 23-09-2011 15:30:03 20.4 C 5.84 g/m*3 20.4 C 0 km/h
559 23-09-2011 15:42:02 22.1 C 5.66 g/m*3 22.1 C 0 km/h
560 23-09-2011 15:54:02 21 C 5.31 g/m*3 21 C 0 km/h
561 23-09-2011 16:06:02 22.6 C 5.42 g/m*3 22.6 C 0 km/h
562 23-09-2011 16:18:02 23.3 C 5.23 g/m*3 23.3 C 0 km/h
563 23-09-2011 16:30:02 24.1 C 4.81 g/m*3 24.1 C 0 km/h
564 23-09-2011 16:42:02 26.4 C 6.22 g/m*3 26.4 C 0 km/h
565 23-09-2011 16:54:02 25.2 C 5.12 g/m*3 25.2 C 0 km/h
566 23-09-2011 17:06:01 26.2 C 6.4 g/m*3 26.2 C 0 km/h
567 23-09-2011 17:18:02 24.6 C 6.08 g/m*3 24.6 C 0 km/h
568 23-09-2011 17:30:02 25.2 C 6.05 g/m*3 25.2 C 0 km/h
569 23-09-2011 17:42:02 24.6 C 6.53 g/m*3 24.6 C 0 km/h
570 23-09-2011 17:54:01 23.8 C 6.45 g/m*3 23.8 C 0 km/h
571 23-09-2011 18:06:02 23.6 C 6.81 g/m*3 23.6 C 0 km/h
572 23-09-2011 18:18:01 22 C 6.79 g/m*3 22 C 0 km/h
573 23-09-2011 18:30:01 19 C 6.68 g/m*3 19 C 0 km/h
574 23-09-2011 18:42:02 17.9 C 6.87 g/m*3 17.9 C 0 km/h
575 23-09-2011 18:54:02 16.2 C 6.76 g/m*3 16.2 C 0 km/h
Sensor: Nr:Datum:Temp:Abs-Feuchte:Windchill:Wind:
Aussen-T/F 576 23-09-2011 19:06:02 15.6 C 6.52 g/m*3 15.6 C 0 km/h
577 23-09-2011 19:18:01 15.2 C 6.36 g/m*3 15.2 C 0 km/h
578 23-09-2011 19:30:01 14.3 C 6.51 g/m*3 14.3 C 0 km/h
579 23-09-2011 19:42:02 13.8 C 6.67 g/m*3 13.8 C 0 km/h
580 23-09-2011 19:54:01 12.9 C 6.76 g/m*3 12.9 C 0 km/h
581 23-09-2011 20:06:02 12.6 C 7.08 g/m*3 12.6 C 0 km/h
582 23-09-2011 20:18:02 11.8 C 6.95 g/m*3 11.8 C 0 km/h
583 23-09-2011 20:30:02 11.4 C 6.77 g/m*3 11.4 C 0 km/h
584 23-09-2011 20:42:02 11.1 C 6.85 g/m*3 11.1 C 0 km/h
585 23-09-2011 20:54:02 11 C 7.11 g/m*3 11 C 0 km/h
586 23-09-2011 21:06:01 10.7 C 7.17 g/m*3 10.7 C 0 km/h
587 23-09-2011 21:18:02 10.4 C 7.13 g/m*3 10.4 C 0 km/h
588 23-09-2011 21:30:02 10.2 C 7.14 g/m*3 10.2 C 0 km/h
589 23-09-2011 21:42:01 10.1 C 7.28 g/m*3 10.1 C 0 km/h
590 23-09-2011 21:54:02 9.8 C 7.33 g/m*3 9.8 C 0 km/h
591 23-09-2011 22:06:02 9.7 C 7.28 g/m*3 9.7 C 0 km/h
592 23-09-2011 22:18:02 9.4 C 7.15 g/m*3 9.4 C 0 km/h
593 23-09-2011 22:30:02 9.2 C 7.14 g/m*3 9.2 C 0 km/h
594 23-09-2011 22:42:03 9.1 C 7.19 g/m*3 9.1 C 0 km/h
595 23-09-2011 22:54:02 9.2 C 7.32 g/m*3 9.2 C 0 km/h
596 23-09-2011 23:06:02 8.8 C 7.22 g/m*3 8.8 C 0 km/h
597 23-09-2011 23:18:01 8.7 C 7.26 g/m*3 8.7 C 0 km/h
598 23-09-2011 23:30:01 8.6 C 7.22 g/m*3 8.6 C 0 km/h
599 23-09-2011 23:42:02 8.2 C 7.03 g/m*3 8.2 C 0 km/h
600 23-09-2011 23:54:02 8.1 C 7.07 g/m*3 8.1 C 0 km/h
Sensor: Nr:Datum:Temp:Abs-Feuchte:Windchill:Wind:
Aussen-T/F 601 24-09-2011 00:06:02 8 C 7.03 g/m*3 8 C 0 km/h
602 24-09-2011 00:18:02 7.8 C 7.02 g/m*3 7.8 C 0 km/h
603 24-09-2011 00:30:02 8 C 7.03 g/m*3 8 C 0 km/h
604 24-09-2011 00:42:02 8 C 7.11 g/m*3 8 C 0 km/h
605 24-09-2011 00:54:02 7.9 C 7.15 g/m*3 7.9 C 0 km/h
606 24-09-2011 01:06:02 7.5 C 7.04 g/m*3 7.5 C 0 km/h
607 24-09-2011 01:18:02 7.6 C 7.09 g/m*3 7.6 C 0 km/h
608 24-09-2011 01:30:02 7.3 C 6.95 g/m*3 7.3 C 0 km/h
609 24-09-2011 01:42:01 7.4 C 6.92 g/m*3 7.4 C 0 km/h
610 24-09-2011 01:54:02 7.4 C 7 g/m*3 7.4 C 0 km/h
611 24-09-2011 02:06:01 7.2 C 6.91 g/m*3 7.2 C 0 km/h
612 24-09-2011 02:18:02 6.9 C 6.85 g/m*3 6.9 C 0 km/h
613 24-09-2011 02:30:02 7 C 6.82 g/m*3 7 C 0 km/h
614 24-09-2011 02:42:01 7 C 6.82 g/m*3 7 C 0 km/h
615 24-09-2011 02:55:03 6.6 C 6.72 g/m*3 6.6 C 0 km/h
616 24-09-2011 03:07:03 6.8 C 6.81 g/m*3 6.8 C 0 km/h
617 24-09-2011 03:19:03 6.7 C 6.76 g/m*3 6.7 C 0 km/h
618 24-09-2011 03:31:02 6.4 C 6.63 g/m*3 6.4 C 0 km/h
619 24-09-2011 03:43:02 6.3 C 6.59 g/m*3 6.3 C 0 km/h
620 24-09-2011 03:55:02 6.2 C 6.55 g/m*3 6.2 C 0 km/h
621 24-09-2011 04:07:01 6.5 C 6.67 g/m*3 6.5 C 0 km/h
622 24-09-2011 04:19:02 6.2 C 6.55 g/m*3 6.2 C 0 km/h
623 24-09-2011 04:31:02 6.4 C 6.71 g/m*3 6.4 C 0 km/h
624 24-09-2011 04:43:02 6.1 C 6.5 g/m*3 6.1 C 0 km/h
625 24-09-2011 04:55:01 5.9 C 6.49 g/m*3 5.9 C 0 km/h
Sensor: Nr:Datum:Temp:Abs-Feuchte:Windchill:Wind:
Aussen-T/F 626 24-09-2011 05:07:02 5.9 C 6.49 g/m*3 5.9 C 0 km/h
627 24-09-2011 05:19:01 6.3 C 6.66 g/m*3 6.3 C 0 km/h
628 24-09-2011 05:31:02 5.9 C 6.49 g/m*3 5.9 C 0 km/h
629 24-09-2011 05:43:03 5.7 C 6.4 g/m*3 5.7 C 0 km/h
630 24-09-2011 05:55:02 5.7 C 6.4 g/m*3 5.7 C 0 km/h
631 24-09-2011 06:07:02 5.5 C 6.32 g/m*3 5.5 C 0 km/h
632 24-09-2011 06:19:01 5.7 C 6.4 g/m*3 5.7 C 0 km/h
633 24-09-2011 06:31:02 6.2 C 6.62 g/m*3 6.2 C 0 km/h
634 24-09-2011 06:43:02 6.4 C 6.78 g/m*3 6.4 C 0 km/h
635 24-09-2011 06:55:01 6.8 C 6.96 g/m*3 6.8 C 0 km/h
636 24-09-2011 07:07:02 7 C 6.97 g/m*3 7 C 0 km/h
637 24-09-2011 07:19:02 7 C 7.05 g/m*3 7 C 0 km/h
638 24-09-2011 07:31:01 7 C 7.05 g/m*3 7 C 0 km/h
639 24-09-2011 07:43:01 7 C 7.05 g/m*3 7 C 0 km/h
640 24-09-2011 07:55:02 6.9 C 7.08 g/m*3 6.9 C 0 km/h
641 24-09-2011 08:07:01 7.1 C 7.1 g/m*3 7.1 C 0 km/h
642 24-09-2011 08:19:02 7.1 C 7.1 g/m*3 7.1 C 0 km/h
643 24-09-2011 08:31:02 7.2 C 7.14 g/m*3 7.2 C 0 km/h
644 24-09-2011 08:43:02 7.4 C 7.32 g/m*3 7.4 C 0 km/h
645 24-09-2011 08:55:02 7.5 C 7.28 g/m*3 7.5 C 0 km/h
646 24-09-2011 09:07:02 7.9 C 7.47 g/m*3 7.9 C 0 km/h
647 24-09-2011 09:19:02 7.9 C 7.47 g/m*3 7.9 C 0 km/h
648 24-09-2011 09:31:03 8.1 C 7.49 g/m*3 8.1 C 0 km/h
649 24-09-2011 09:43:03 8.2 C 7.54 g/m*3 8.2 C 0 km/h
650 24-09-2011 09:55:02 8.2 C 7.45 g/m*3 8.2 C 0 km/h
Sensor: Nr:Datum:Temp:Abs-Feuchte:Windchill:Wind:
Aussen-T/F 651 24-09-2011 10:07:01 8.2 C 7.45 g/m*3 8.2 C 0 km/h
652 24-09-2011 10:19:01 8.4 C 7.55 g/m*3 8.4 C 0 km/h
653 24-09-2011 10:31:02 8.8 C 7.75 g/m*3 8.8 C 0 km/h
654 24-09-2011 10:43:02 9.2 C 7.86 g/m*3 9.2 C 0 km/h
655 24-09-2011 10:55:02 9.7 C 8.2 g/m*3 9.7 C 0 km/h
656 24-09-2011 11:07:02 10 C 8.27 g/m*3 10 C 0 km/h
657 24-09-2011 11:19:01 10.5 C 8.53 g/m*3 10.5 C 0 km/h
658 24-09-2011 11:31:02 11.2 C 8.82 g/m*3 11.2 C 0 km/h
659 24-09-2011 11:43:02 12.1 C 9.22 g/m*3 12.1 C 0 km/h
660 24-09-2011 11:55:01 12.6 C 9.29 g/m*3 12.6 C 0 km/h
661 24-09-2011 12:07:02 13 C 9.41 g/m*3 13 C 0 km/h
662 24-09-2011 12:19:02 13.5 C 9.71 g/m*3 13.5 C 0 km/h
663 24-09-2011 12:31:01 14.3 C 9.95 g/m*3 14.3 C 0 km/h
664 24-09-2011 12:43:01 14.8 C 9.75 g/m*3 14.8 C 0 km/h
665 24-09-2011 12:55:01 15.1 C 9.68 g/m*3 15.1 C 0 km/h
666 24-09-2011 13:07:01 16 C 9.54 g/m*3 16 C 0 km/h
667 24-09-2011 13:19:02 17.2 C 8.79 g/m*3 17.2 C 0 km/h
668 24-09-2011 13:31:01 17.5 C 9.24 g/m*3 17.5 C 0 km/h
669 24-09-2011 13:43:01 18.4 C 8.81 g/m*3 18.4 C 0 km/h
670 24-09-2011 13:55:02 19.1 C 8.2 g/m*3 19.1 C 0 km/h
671 24-09-2011 14:07:01 19.9 C 8.42 g/m*3 19.9 C 0 km/h
672 24-09-2011 14:19:01 19.7 C 7.98 g/m*3 19.7 C 0 km/h
673 24-09-2011 14:31:02 19.9 C 8.08 g/m*3 19.9 C 0 km/h
674 24-09-2011 14:43:02 20.4 C 7.96 g/m*3 20.4 C 0 km/h
675 24-09-2011 14:55:02 20.7 C 8.28 g/m*3 20.7 C 0 km/h
Sensor: Nr:Datum:Temp:Abs-Feuchte:Windchill:Wind:
Aussen-T/F 676 24-09-2011 15:07:02 20.8 C 7.97 g/m*3 20.8 C 0 km/h
677 24-09-2011 15:19:02 21.2 C 7.6 g/m*3 21.2 C 0 km/h
678 24-09-2011 15:31:02 21.7 C 7.82 g/m*3 21.7 C 0 km/h
679 24-09-2011 15:43:02 22.5 C 7.59 g/m*3 22.5 C 0 km/h
680 24-09-2011 15:55:02 21.9 C 7.91 g/m*3 21.9 C 0 km/h
681 24-09-2011 16:07:02 22.1 C 7.61 g/m*3 22.1 C 0 km/h
682 24-09-2011 16:19:02 24.7 C 8.15 g/m*3 24.7 C 0 km/h
683 24-09-2011 16:31:02 26.5 C 7.76 g/m*3 26.5 C 0 km/h
684 24-09-2011 16:43:02 27.2 C 7.81 g/m*3 27.2 C 0 km/h
685 24-09-2011 16:55:02 26.6 C 7.55 g/m*3 26.6 C 0 km/h
686 24-09-2011 17:07:02 26.2 C 6.65 g/m*3 26.2 C 0 km/h
687 24-09-2011 17:19:03 26.5 C 8.26 g/m*3 26.5 C 0 km/h
688 24-09-2011 17:31:02 27.1 C 8.02 g/m*3 27.1 C 0 km/h
689 24-09-2011 17:43:02 25.8 C 8.19 g/m*3 25.8 C 0 km/h
690 24-09-2011 17:55:03 25.4 C 8.48 g/m*3 25.4 C 0 km/h
691 24-09-2011 18:07:02 24.7 C 8.83 g/m*3 24.7 C 0 km/h
692 24-09-2011 18:19:02 22.6 C 8.64 g/m*3 22.6 C 0 km/h
693 24-09-2011 18:31:02 21.7 C 8.97 g/m*3 21.7 C 0 km/h
694 24-09-2011 18:43:02 20.2 C 8.74 g/m*3 20.2 C 0 km/h
695 24-09-2011 18:55:02 19.1 C 8.69 g/m*3 19.1 C 0 km/h
696 24-09-2011 19:07:02 17.6 C 8.85 g/m*3 17.6 C 0 km/h
697 24-09-2011 19:19:02 16.4 C 8.93 g/m*3 16.4 C 0 km/h
698 24-09-2011 19:31:02 15.9 C 9.07 g/m*3 15.9 C 0 km/h
699 24-09-2011 19:43:02 15.7 C 8.96 g/m*3 15.7 C 0 km/h
700 24-09-2011 19:55:02 15.5 C 8.99 g/m*3 15.5 C 0 km/h
Sensor: Nr:Datum:Temp:Abs-Feuchte:Windchill:Wind:
Aussen-T/F 701 24-09-2011 20:07:02 15.4 C 9.07 g/m*3 15.4 C 0 km/h
702 24-09-2011 20:19:01 15.3 C 9.01 g/m*3 15.3 C 0 km/h
703 24-09-2011 20:31:02 15.4 C 9.07 g/m*3 15.4 C 0 km/h
704 24-09-2011 20:43:03 15.9 C 9.34 g/m*3 15.9 C 0 km/h
705 24-09-2011 20:55:02 15.5 C 9.25 g/m*3 15.5 C 0 km/h
706 24-09-2011 21:07:02 15.2 C 9.35 g/m*3 15.2 C 0 km/h
707 24-09-2011 21:19:01 15 C 9.36 g/m*3 15 C 0 km/h
708 24-09-2011 21:31:02 14.4 C 9.27 g/m*3 14.4 C 0 km/h
709 24-09-2011 21:43:02 14.1 C 9.34 g/m*3 14.1 C 0 km/h
710 24-09-2011 21:55:02 13.5 C 9.12 g/m*3 13.5 C 0 km/h
711 24-09-2011 22:07:02 13.2 C 9.19 g/m*3 13.2 C 0 km/h
712 24-09-2011 22:19:02 13.1 C 9.13 g/m*3 13.1 C 0 km/h
713 24-09-2011 22:31:02 13 C 9.19 g/m*3 13 C 0 km/h
714 24-09-2011 22:43:02 13.2 C 9.42 g/m*3 13.2 C 0 km/h
715 24-09-2011 22:55:01 12.4 C 8.96 g/m*3 12.4 C 0 km/h
716 24-09-2011 23:07:01 12 C 8.85 g/m*3 12 C 0 km/h
717 24-09-2011 23:19:01 11.9 C 8.79 g/m*3 11.9 C 0 km/h
718 24-09-2011 23:31:01 11.8 C 8.95 g/m*3 11.8 C 0 km/h
719 24-09-2011 23:43:01 11.8 C 9.05 g/m*3 11.8 C 0 km/h
720 24-09-2011 23:55:01 11.7 C 9.1 g/m*3 11.7 C 0 km/h
721 25-09-2011 00:07:01 11.8 C 9.16 g/m*3 11.8 C 0 km/h
722 25-09-2011 00:19:02 11.2 C 8.82 g/m*3 11.2 C 0 km/h
723 25-09-2011 00:31:01 11 C 8.61 g/m*3 11 C 0 km/h
724 25-09-2011 00:43:01 10.9 C 8.65 g/m*3 10.9 C 0 km/h
725 25-09-2011 00:55:01 10.7 C 8.55 g/m*3 10.7 C 0 km/h
Sensor: Nr:Datum:Temp:Abs-Feuchte:Windchill:Wind:
Aussen-T/F 726 25-09-2011 01:07:01 10.6 C 8.49 g/m*3 10.6 C 0 km/h
727 25-09-2011 01:19:02 10.5 C 8.44 g/m*3 10.5 C 0 km/h
728 25-09-2011 01:31:01 10.4 C 8.38 g/m*3 10.4 C 0 km/h
729 25-09-2011 01:43:01 10.4 C 8.38 g/m*3 10.4 C 0 km/h
730 25-09-2011 01:55:03 10.4 C 8.38 g/m*3 10.4 C 0 km/h
731 25-09-2011 02:07:02 10.2 C 8.28 g/m*3 10.2 C 0 km/h
732 25-09-2011 02:19:02 10.1 C 8.23 g/m*3 10.1 C 0 km/h
733 25-09-2011 02:31:03 10.4 C 8.38 g/m*3 10.4 C 0 km/h
734 25-09-2011 02:43:03 10.1 C 8.23 g/m*3 10.1 C 0 km/h
735 25-09-2011 02:56:03 10 C 8.17 g/m*3 10 C 0 km/h
736 25-09-2011 03:08:03 9.8 C 8.26 g/m*3 9.8 C 0 km/h
737 25-09-2011 03:20:03 9.9 C 8.31 g/m*3 9.9 C 0 km/h
738 25-09-2011 03:32:02 9.7 C 8.2 g/m*3 9.7 C 0 km/h
739 25-09-2011 03:44:02 9.7 C 8.2 g/m*3 9.7 C 0 km/h
740 25-09-2011 03:56:02 9.6 C 8.15 g/m*3 9.6 C 0 km/h
741 25-09-2011 04:08:02 9.6 C 8.15 g/m*3 9.6 C 0 km/h
742 25-09-2011 04:20:02 9.4 C 8.05 g/m*3 9.4 C 0 km/h
743 25-09-2011 04:32:02 9.5 C 8.1 g/m*3 9.5 C 0 km/h
744 25-09-2011 04:44:02 9.3 C 8 g/m*3 9.3 C 0 km/h
745 25-09-2011 04:56:02 9 C 7.85 g/m*3 9 C 0 km/h
746 25-09-2011 05:08:01 9.1 C 7.9 g/m*3 9.1 C 0 km/h
747 25-09-2011 05:20:02 8.9 C 7.88 g/m*3 8.9 C 0 km/h
748 25-09-2011 05:32:02 8.7 C 7.78 g/m*3 8.7 C 0 km/h
749 25-09-2011 05:44:02 8.5 C 7.68 g/m*3 8.5 C 0 km/h
750 25-09-2011 05:56:02 8.3 C 7.59 g/m*3 8.3 C 0 km/h
Sensor: Nr:Datum:Temp:Abs-Feuchte:Windchill:Wind:
Aussen-T/F 751 25-09-2011 06:08:02 8.1 C 7.49 g/m*3 8.1 C 0 km/h
752 25-09-2011 06:20:02 8.5 C 7.68 g/m*3 8.5 C 0 km/h
753 25-09-2011 06:32:02 8.2 C 7.54 g/m*3 8.2 C 0 km/h
754 25-09-2011 06:44:02 8 C 7.36 g/m*3 8 C 0 km/h
755 25-09-2011 06:56:01 8.1 C 7.49 g/m*3 8.1 C 0 km/h
756 25-09-2011 07:08:01 8.1 C 7.49 g/m*3 8.1 C 0 km/h
757 25-09-2011 07:20:01 7.7 C 7.38 g/m*3 7.7 C 0 km/h
758 25-09-2011 07:32:01 7.6 C 7.33 g/m*3 7.6 C 0 km/h
759 25-09-2011 07:44:01 8.4 C 7.72 g/m*3 8.4 C 0 km/h
760 25-09-2011 07:56:02 8.5 C 7.77 g/m*3 8.5 C 0 km/h
761 25-09-2011 08:08:02 9.1 C 7.99 g/m*3 9.1 C 0 km/h
762 25-09-2011 08:20:02 9.4 C 8.23 g/m*3 9.4 C 0 km/h
763 25-09-2011 08:32:02 9.5 C 8.28 g/m*3 9.5 C 0 km/h
764 25-09-2011 08:44:02 9.7 C 8.39 g/m*3 9.7 C 0 km/h
765 25-09-2011 08:56:02 9.7 C 8.39 g/m*3 9.7 C 0 km/h
766 25-09-2011 09:08:02 9.8 C 8.44 g/m*3 9.8 C 0 km/h
767 25-09-2011 09:20:02 9.9 C 8.5 g/m*3 9.9 C 0 km/h
768 25-09-2011 09:32:02 10.1 C 8.42 g/m*3 10.1 C 0 km/h
769 25-09-2011 09:44:02 10.6 C 8.69 g/m*3 10.6 C 0 km/h
770 25-09-2011 09:56:02 10.7 C 8.74 g/m*3 10.7 C 0 km/h
771 25-09-2011 10:08:01 10.8 C 8.8 g/m*3 10.8 C 0 km/h
772 25-09-2011 10:20:01 10.5 C 8.53 g/m*3 10.5 C 0 km/h
773 25-09-2011 10:32:02 10.7 C 8.64 g/m*3 10.7 C 0 km/h
774 25-09-2011 10:44:02 10.9 C 8.75 g/m*3 10.9 C 0 km/h
775 25-09-2011 10:56:02 11.1 C 8.86 g/m*3 11.1 C 0 km/h
Sensor: Nr:Datum:Temp:Abs-Feuchte:Windchill:Wind:
Aussen-T/F 776 25-09-2011 11:08:02 11.5 C 9.09 g/m*3 11.5 C 0 km/h
777 25-09-2011 11:20:02 11.8 C 9.26 g/m*3 11.8 C 0 km/h
778 25-09-2011 11:32:02 12.1 C 9.44 g/m*3 12.1 C 0 km/h
779 25-09-2011 11:44:02 12.6 C 9.74 g/m*3 12.6 C 0 km/h
780 25-09-2011 11:56:02 13.1 C 10.04 g/m*3 13.1 C 0 km/h
781 25-09-2011 12:08:02 13.3 C 10.17 g/m*3 13.3 C 0 km/h
782 25-09-2011 12:20:01 13.9 C 10.55 g/m*3 13.9 C 0 km/h
783 25-09-2011 12:32:02 14.5 C 10.94 g/m*3 14.5 C 0 km/h
784 25-09-2011 12:44:02 15.1 C 11.22 g/m*3 15.1 C 0 km/h
785 25-09-2011 12:56:01 15.4 C 11.43 g/m*3 15.4 C 0 km/h
786 25-09-2011 13:08:02 16.2 C 11.86 g/m*3 16.2 C 0 km/h
787 25-09-2011 13:20:02 17.2 C 12.01 g/m*3 17.2 C 0 km/h
788 25-09-2011 13:32:02 17.8 C 11.99 g/m*3 17.8 C 0 km/h
789 25-09-2011 13:44:02 18.8 C 11.92 g/m*3 18.8 C 0 km/h
790 25-09-2011 13:56:02 18.6 C 11.46 g/m*3 18.6 C 0 km/h
791 25-09-2011 14:08:01 19.2 C 11.38 g/m*3 19.2 C 0 km/h
792 25-09-2011 14:20:02 19.7 C 10.53 g/m*3 19.7 C 0 km/h
793 25-09-2011 14:32:02 20.2 C 10.14 g/m*3 20.2 C 0 km/h
794 25-09-2011 14:44:02 20.2 C 10.32 g/m*3 20.2 C 0 km/h
795 25-09-2011 14:56:02 20.7 C 9.36 g/m*3 20.7 C 0 km/h
796 25-09-2011 15:08:02 20.4 C 9.91 g/m*3 20.4 C 0 km/h
797 25-09-2011 15:20:02 20.8 C 9.42 g/m*3 20.8 C 0 km/h
798 25-09-2011 15:32:02 20.9 C 9.65 g/m*3 20.9 C 0 km/h
799 25-09-2011 15:44:02 21.7 C 9.35 g/m*3 21.7 C 0 km/h
800 25-09-2011 15:56:02 21.7 C 9.16 g/m*3 21.7 C 0 km/h
Sensor: Nr:Datum:Temp:Abs-Feuchte:Windchill:Wind:
Aussen-T/F 801 25-09-2011 16:08:02 21.3 C 8.95 g/m*3 21.3 C 0 km/h
802 25-09-2011 16:20:01 25.5 C 8.29 g/m*3 25.5 C 0 km/h
803 25-09-2011 16:32:02 27.1 C 8.28 g/m*3 27.1 C 0 km/h
804 25-09-2011 16:44:02 27.4 C 8.16 g/m*3 27.4 C 0 km/h
805 25-09-2011 16:56:02 27.2 C 8.07 g/m*3 27.2 C 0 km/h
806 25-09-2011 17:08:02 26.1 C 8.08 g/m*3 26.1 C 0 km/h
807 25-09-2011 17:20:01 26.3 C 8.17 g/m*3 26.3 C 0 km/h
808 25-09-2011 17:32:02 25.7 C 8.14 g/m*3 25.7 C 0 km/h
809 25-09-2011 17:44:02 25.4 C 7.77 g/m*3 25.4 C 0 km/h
810 25-09-2011 17:56:01 24.6 C 8.1 g/m*3 24.6 C 0 km/h
811 25-09-2011 18:08:02 23.3 C 8.36 g/m*3 23.3 C 0 km/h
812 25-09-2011 18:20:02 22.4 C 8.54 g/m*3 22.4 C 0 km/h
813 25-09-2011 18:32:01 21.4 C 8.44 g/m*3 21.4 C 0 km/h
814 25-09-2011 18:44:01 20.7 C 8.64 g/m*3 20.7 C 0 km/h
815 25-09-2011 18:56:02 19.3 C 8.46 g/m*3 19.3 C 0 km/h
816 25-09-2011 19:08:01 18.5 C 8.54 g/m*3 18.5 C 0 km/h
817 25-09-2011 19:20:02 18.4 C 8.81 g/m*3 18.4 C 0 km/h
818 25-09-2011 19:32:02 17.9 C 9.47 g/m*3 17.9 C 0 km/h
819 25-09-2011 19:44:02 17.4 C 10.08 g/m*3 17.4 C 0 km/h
820 25-09-2011 19:56:02 16.7 C 10.09 g/m*3 16.7 C 0 km/h
821 25-09-2011 20:08:03 16.1 C 10.14 g/m*3 16.1 C 0 km/h
822 25-09-2011 20:20:02 15.8 C 10.23 g/m*3 15.8 C 0 km/h
823 25-09-2011 20:32:02 15.5 C 10.18 g/m*3 15.5 C 0 km/h
824 25-09-2011 20:44:02 15.2 C 10.12 g/m*3 15.2 C 0 km/h
825 25-09-2011 20:56:02 15 C 10 g/m*3 15 C 0 km/h
Sensor: Nr:Datum:Temp:Abs-Feuchte:Windchill:Wind:
Aussen-T/F 826 25-09-2011 21:08:02 15.2 C 10.25 g/m*3 15.2 C 0 km/h
827 25-09-2011 21:20:01 15 C 10 g/m*3 15 C 0 km/h
828 25-09-2011 21:32:02 14.6 C 9.89 g/m*3 14.6 C 0 km/h
829 25-09-2011 21:44:02 14.5 C 9.83 g/m*3 14.5 C 0 km/h
830 25-09-2011 21:56:02 14.2 C 9.65 g/m*3 14.2 C 0 km/h
831 25-09-2011 22:08:02 13.8 C 9.65 g/m*3 13.8 C 0 km/h
832 25-09-2011 22:20:01 13.5 C 9.59 g/m*3 13.5 C 0 km/h
833 25-09-2011 22:32:02 13.1 C 9.36 g/m*3 13.1 C 0 km/h
834 25-09-2011 22:44:02 13 C 9.3 g/m*3 13 C 0 km/h
835 25-09-2011 22:56:02 13 C 9.41 g/m*3 13 C 0 km/h
836 25-09-2011 23:08:02 13 C 9.53 g/m*3 13 C 0 km/h
837 25-09-2011 23:20:02 13 C 9.64 g/m*3 13 C 0 km/h
838 25-09-2011 23:32:02 13.2 C 9.76 g/m*3 13.2 C 0 km/h
839 25-09-2011 23:44:02 12.8 C 9.63 g/m*3 12.8 C 0 km/h
840 25-09-2011 23:56:01 12.6 C 9.51 g/m*3 12.6 C 0 km/h
841 26-09-2011 00:08:02 12.4 C 9.4 g/m*3 12.4 C 0 km/h
842 26-09-2011 00:20:02 12.7 C 9.68 g/m*3 12.7 C 0 km/h
843 26-09-2011 00:32:02 12.3 C 9.45 g/m*3 12.3 C 0 km/h
844 26-09-2011 00:44:02 12.1 C 9.33 g/m*3 12.1 C 0 km/h
845 26-09-2011 00:56:02 12 C 9.27 g/m*3 12 C 0 km/h
846 26-09-2011 01:08:02 11.7 C 9.1 g/m*3 11.7 C 0 km/h
847 26-09-2011 01:20:02 11.8 C 9.16 g/m*3 11.8 C 0 km/h
848 26-09-2011 01:32:01 11.6 C 9.04 g/m*3 11.6 C 0 km/h
849 26-09-2011 01:44:01 11.4 C 8.93 g/m*3 11.4 C 0 km/h
850 26-09-2011 01:56:02 11.4 C 8.93 g/m*3 11.4 C 0 km/h
Sensor: Nr:Datum:Temp:Abs-Feuchte:Windchill:Wind:
Aussen-T/F 851 26-09-2011 02:08:01 11.2 C 8.82 g/m*3 11.2 C 0 km/h
852 26-09-2011 02:20:01 11.2 C 8.82 g/m*3 11.2 C 0 km/h
853 26-09-2011 02:32:02 11.1 C 8.76 g/m*3 11.1 C 0 km/h
854 26-09-2011 02:44:02 11.1 C 8.76 g/m*3 11.1 C 0 km/h
855 26-09-2011 02:56:01 11 C 8.81 g/m*3 11 C 0 km/h
856 26-09-2011 03:08:01 10.9 C 8.75 g/m*3 10.9 C 0 km/h
857 26-09-2011 03:20:02 11.4 C 9.03 g/m*3 11.4 C 0 km/h
858 26-09-2011 03:32:01 11 C 8.91 g/m*3 11 C 0 km/h
859 26-09-2011 03:44:01 10.8 C 8.8 g/m*3 10.8 C 0 km/h
860 26-09-2011 03:56:01 10.4 C 8.58 g/m*3 10.4 C 0 km/h
861 26-09-2011 04:08:01 10.3 C 8.43 g/m*3 10.3 C 0 km/h
862 26-09-2011 04:20:01 10.5 C 8.63 g/m*3 10.5 C 0 km/h
863 26-09-2011 04:32:02 10.4 C 8.58 g/m*3 10.4 C 0 km/h
864 26-09-2011 04:44:02 10.2 C 8.47 g/m*3 10.2 C 0 km/h
865 26-09-2011 04:56:01 10.2 C 8.47 g/m*3 10.2 C 0 km/h
866 26-09-2011 05:08:02 10.3 C 8.52 g/m*3 10.3 C 0 km/h
867 26-09-2011 05:20:01 10.1 C 8.42 g/m*3 10.1 C 0 km/h
868 26-09-2011 05:32:01 10.1 C 8.32 g/m*3 10.1 C 0 km/h
869 26-09-2011 05:44:01 10.1 C 8.42 g/m*3 10.1 C 0 km/h
870 26-09-2011 05:56:01 10 C 8.36 g/m*3 10 C 0 km/h
871 26-09-2011 06:08:01 10.1 C 8.42 g/m*3 10.1 C 0 km/h
872 26-09-2011 06:20:02 9.8 C 8.35 g/m*3 9.8 C 0 km/h
873 26-09-2011 06:32:01 10.1 C 8.42 g/m*3 10.1 C 0 km/h
874 26-09-2011 06:44:01 9.9 C 8.4 g/m*3 9.9 C 0 km/h
875 26-09-2011 06:56:01 9.9 C 8.4 g/m*3 9.9 C 0 km/h
Sensor: Nr:Datum:Temp:Abs-Feuchte:Windchill:Wind:
Aussen-T/F 876 26-09-2011 07:08:01 9.9 C 8.5 g/m*3 9.9 C 0 km/h
877 26-09-2011 07:20:02 9.6 C 8.24 g/m*3 9.6 C 0 km/h
878 26-09-2011 07:32:01 9.5 C 8.19 g/m*3 9.5 C 0 km/h
879 26-09-2011 07:44:01 9.6 C 8.24 g/m*3 9.6 C 0 km/h
880 26-09-2011 07:56:02 9.6 C 8.24 g/m*3 9.6 C 0 km/h
881 26-09-2011 08:08:01 9.7 C 8.3 g/m*3 9.7 C 0 km/h
882 26-09-2011 08:20:01 10 C 8.36 g/m*3 10 C 0 km/h
883 26-09-2011 08:32:02 10.5 C 8.63 g/m*3 10.5 C 0 km/h
884 26-09-2011 08:44:02 10.5 C 8.63 g/m*3 10.5 C 0 km/h
885 26-09-2011 08:56:01 10.6 C 8.78 g/m*3 10.6 C 0 km/h
886 26-09-2011 09:08:02 10.8 C 8.9 g/m*3 10.8 C 0 km/h
887 26-09-2011 09:20:01 11 C 8.91 g/m*3 11 C 0 km/h
888 26-09-2011 09:32:02 11.2 C 9.02 g/m*3 11.2 C 0 km/h
889 26-09-2011 09:44:02 11.8 C 9.37 g/m*3 11.8 C 0 km/h
890 26-09-2011 09:56:01 12.1 C 9.54 g/m*3 12.1 C 0 km/h
891 26-09-2011 10:08:02 12.5 C 9.78 g/m*3 12.5 C 0 km/h
892 26-09-2011 10:20:01 12.7 C 9.91 g/m*3 12.7 C 0 km/h
893 26-09-2011 10:32:01 13.4 C 10.35 g/m*3 13.4 C 0 km/h
894 26-09-2011 10:44:01 13.7 C 10.54 g/m*3 13.7 C 0 km/h
895 26-09-2011 10:56:01 14.2 C 10.75 g/m*3 14.2 C 0 km/h
896 26-09-2011 11:08:01 14.4 C 10.88 g/m*3 14.4 C 0 km/h
897 26-09-2011 11:20:02 14.7 C 11.08 g/m*3 14.7 C 0 km/h
898 26-09-2011 11:32:01 15 C 11.28 g/m*3 15 C 0 km/h
899 26-09-2011 11:44:01 15.4 C 11.56 g/m*3 15.4 C 0 km/h
900 26-09-2011 11:56:02 15.8 C 11.85 g/m*3 15.8 C 0 km/h
Sensor: Nr:Datum:Temp:Abs-Feuchte:Windchill:Wind:
Aussen-T/F 901 26-09-2011 12:08:01 16.1 C 11.93 g/m*3 16.1 C 0 km/h
902 26-09-2011 12:20:02 16.7 C 12.36 g/m*3 16.7 C 0 km/h
903 26-09-2011 12:32:01 17 C 12.3 g/m*3 17 C 0 km/h
904 26-09-2011 12:44:01 17.8 C 12.75 g/m*3 17.8 C 0 km/h
905 26-09-2011 12:56:02 18.6 C 12.89 g/m*3 18.6 C 0 km/h
906 26-09-2011 13:08:01 19.1 C 12.95 g/m*3 19.1 C 0 km/h
907 26-09-2011 13:20:01 19.8 C 13.15 g/m*3 19.8 C 0 km/h
908 26-09-2011 13:32:02 20.6 C 13.07 g/m*3 20.6 C 0 km/h
909 26-09-2011 13:44:02 21.5 C 13.2 g/m*3 21.5 C 0 km/h
910 26-09-2011 13:56:01 22.1 C 12.69 g/m*3 22.1 C 0 km/h
911 26-09-2011 14:08:02 23.1 C 12.82 g/m*3 23.1 C 0 km/h
912 26-09-2011 14:20:01 24.1 C 10.94 g/m*3 24.1 C 0 km/h
913 26-09-2011 14:32:01 25.2 C 9.08 g/m*3 25.2 C 0 km/h
914 26-09-2011 14:44:01 24.9 C 9.84 g/m*3 24.9 C 0 km/h
915 26-09-2011 14:56:01 25.4 C 9.18 g/m*3 25.4 C 0 km/h
916 26-09-2011 15:08:01 25.5 C 8.76 g/m*3 25.5 C 0 km/h
917 26-09-2011 15:20:01 25.9 C 9.68 g/m*3 25.9 C 0 km/h
918 26-09-2011 15:32:01 26.3 C 9.9 g/m*3 26.3 C 0 km/h
919 26-09-2011 15:44:01 26.1 C 9.06 g/m*3 26.1 C 0 km/h
920 26-09-2011 15:56:01 25.6 C 9.52 g/m*3 25.6 C 0 km/h
921 26-09-2011 16:08:01 25.2 C 9.54 g/m*3 25.2 C 0 km/h
922 26-09-2011 16:20:01 24.7 C 9.73 g/m*3 24.7 C 0 km/h
923 26-09-2011 16:32:02 24.8 C 9.56 g/m*3 24.8 C 0 km/h
924 26-09-2011 16:44:02 24.7 C 8.83 g/m*3 24.7 C 0 km/h
925 26-09-2011 16:56:01 23.9 C 9.3 g/m*3 23.9 C 0 km/h
Sensor: Nr:Datum:Temp:Abs-Feuchte:Windchill:Wind:
Aussen-T/F 926 26-09-2011 17:08:02 23.5 C 9.73 g/m*3 23.5 C 0 km/h
927 26-09-2011 17:20:01 23.2 C 9.98 g/m*3 23.2 C 0 km/h
928 26-09-2011 17:32:01 22.7 C 10.51 g/m*3 22.7 C 0 km/h
929 26-09-2011 17:44:01 22.6 C 10.25 g/m*3 22.6 C 0 km/h
930 26-09-2011 17:56:01 22.6 C 10.45 g/m*3 22.6 C 0 km/h
931 26-09-2011 18:08:01 22.2 C 10.41 g/m*3 22.2 C 0 km/h
932 26-09-2011 18:20:01 21.7 C 10.68 g/m*3 21.7 C 0 km/h
933 26-09-2011 18:32:01 21.8 C 10.36 g/m*3 21.8 C 0 km/h
934 26-09-2011 18:44:01 21.2 C 10.38 g/m*3 21.2 C 0 km/h
935 26-09-2011 18:56:01 21.3 C 10.44 g/m*3 21.3 C 0 km/h
936 26-09-2011 19:08:01 20.4 C 10.26 g/m*3 20.4 C 0 km/h
937 26-09-2011 19:20:02 19.8 C 10.59 g/m*3 19.8 C 0 km/h
938 26-09-2011 19:32:01 19.5 C 10.57 g/m*3 19.5 C 0 km/h
939 26-09-2011 19:44:01 19.3 C 10.62 g/m*3 19.3 C 0 km/h
940 26-09-2011 19:56:02 19.1 C 10.66 g/m*3 19.1 C 0 km/h
941 26-09-2011 20:08:01 18.7 C 10.73 g/m*3 18.7 C 0 km/h
942 26-09-2011 20:20:01 18.2 C 10.88 g/m*3 18.2 C 0 km/h
943 26-09-2011 20:32:02 18.1 C 10.97 g/m*3 18.1 C 0 km/h
944 26-09-2011 20:44:02 17.5 C 10.73 g/m*3 17.5 C 0 km/h
945 26-09-2011 20:56:01 16.8 C 10.72 g/m*3 16.8 C 0 km/h
946 26-09-2011 21:08:01 16.6 C 11.02 g/m*3 16.6 C 0 km/h
947 26-09-2011 21:20:01 16.5 C 11.09 g/m*3 16.5 C 0 km/h
948 26-09-2011 21:32:02 16.4 C 11.17 g/m*3 16.4 C 0 km/h
949 26-09-2011 21:44:02 16.4 C 10.89 g/m*3 16.4 C 0 km/h
950 26-09-2011 21:56:01 17 C 11.14 g/m*3 17 C 0 km/h
Sensor: Nr:Datum:Temp:Abs-Feuchte:Windchill:Wind:
Aussen-T/F 951 26-09-2011 22:08:01 17.1 C 11.06 g/m*3 17.1 C 0 km/h
952 26-09-2011 22:21:10 16 C 10.35 g/m*3 16 C 0 km/h
953 26-09-2011 22:33:10 15.3 C 10.32 g/m*3 15.3 C 0 km/h
954 26-09-2011 22:45:10 15.3 C 10.71 g/m*3 15.3 C 0 km/h
955 26-09-2011 22:57:11 15.5 C 10.97 g/m*3 15.5 C 0 km/h
956 26-09-2011 23:09:11 15 C 10.64 g/m*3 15 C 0 km/h
957 26-09-2011 23:21:11 14.7 C 10.58 g/m*3 14.7 C 0 km/h
958 26-09-2011 23:33:11 14.6 C 10.51 g/m*3 14.6 C 0 km/h
959 26-09-2011 23:45:11 14.5 C 10.57 g/m*3 14.5 C 0 km/h
960 26-09-2011 23:57:11 14.4 C 10.51 g/m*3 14.4 C 0 km/h
961 27-09-2011 00:09:11 14.3 C 10.44 g/m*3 14.3 C 0 km/h
962 27-09-2011 00:21:11 14.2 C 10.38 g/m*3 14.2 C 0 km/h
963 27-09-2011 00:33:11 14.2 C 10.5 g/m*3 14.2 C 0 km/h
964 27-09-2011 00:45:11 14.3 C 10.57 g/m*3 14.3 C 0 km/h
965 27-09-2011 00:57:11 14 C 10.37 g/m*3 14 C 0 km/h
966 27-09-2011 01:09:11 14.3 C 10.69 g/m*3 14.3 C 0 km/h
967 27-09-2011 01:21:11 14.5 C 10.82 g/m*3 14.5 C 0 km/h
968 27-09-2011 01:33:11 14.1 C 10.56 g/m*3 14.1 C 0 km/h
969 27-09-2011 01:45:11 13.8 C 10.37 g/m*3 13.8 C 0 km/h
970 27-09-2011 01:57:11 14.3 C 10.69 g/m*3 14.3 C 0 km/h
971 27-09-2011 02:09:11 13.9 C 10.55 g/m*3 13.9 C 0 km/h
972 27-09-2011 02:21:11 13.6 C 10.36 g/m*3 13.6 C 0 km/h
973 27-09-2011 02:33:11 13.3 C 10.17 g/m*3 13.3 C 0 km/h
974 27-09-2011 02:45:11 13.2 C 10.1 g/m*3 13.2 C 0 km/h
975 27-09-2011 02:57:11 13.4 C 10.23 g/m*3 13.4 C 0 km/h
Sensor: Nr:Datum:Temp:Abs-Feuchte:Windchill:Wind:
Aussen-T/F 976 27-09-2011 03:09:12 13.2 C 10.1 g/m*3 13.2 C 0 km/h
977 27-09-2011 03:21:12 13.3 C 10.17 g/m*3 13.3 C 0 km/h
978 27-09-2011 03:33:12 13.5 C 10.41 g/m*3 13.5 C 0 km/h
979 27-09-2011 03:45:12 13.3 C 10.17 g/m*3 13.3 C 0 km/h
980 27-09-2011 03:57:12 13.2 C 10.1 g/m*3 13.2 C 0 km/h
981 27-09-2011 04:09:12 13.2 C 10.1 g/m*3 13.2 C 0 km/h
982 27-09-2011 04:21:12 13.1 C 10.04 g/m*3 13.1 C 0 km/h
983 27-09-2011 04:33:12 12.9 C 10.03 g/m*3 12.9 C 0 km/h
984 27-09-2011 04:45:12 12.7 C 9.91 g/m*3 12.7 C 0 km/h
985 27-09-2011 04:57:12 12.5 C 9.78 g/m*3 12.5 C 0 km/h
986 27-09-2011 05:09:12 12.4 C 9.72 g/m*3 12.4 C 0 km/h
987 27-09-2011 05:21:12 12.4 C 9.72 g/m*3 12.4 C 0 km/h
988 27-09-2011 05:33:12 12.3 C 9.66 g/m*3 12.3 C 0 km/h
989 27-09-2011 05:45:12 12.7 C 9.91 g/m*3 12.7 C 0 km/h
990 27-09-2011 05:57:12 12.9 C 10.03 g/m*3 12.9 C 0 km/h
991 27-09-2011 06:09:12 13.1 C 10.16 g/m*3 13.1 C 0 km/h
992 27-09-2011 06:21:12 13.3 C 10.28 g/m*3 13.3 C 0 km/h
993 27-09-2011 06:33:12 13.1 C 10.16 g/m*3 13.1 C 0 km/h
994 27-09-2011 06:45:12 13 C 10.09 g/m*3 13 C 0 km/h
995 27-09-2011 06:57:12 13 C 10.09 g/m*3 13 C 0 km/h
996 27-09-2011 07:09:13 12.6 C 9.96 g/m*3 12.6 C 0 km/h
997 27-09-2011 07:21:13 12.8 C 10.08 g/m*3 12.8 C 0 km/h
998 27-09-2011 07:33:11 12.8 C 10.08 g/m*3 12.8 C 0 km/h
999 27-09-2011 07:45:02 12.6 C 9.96 g/m*3 12.6 C 0 km/h
1000 27-09-2011 07:57:02 12.9 C 10.14 g/m*3 12.9 C 0 km/h
Sensor: Nr:Datum:Temp:Abs-Feuchte:Windchill:Wind:
Aussen-T/F 1001 27-09-2011 08:09:03 12.7 C 10.02 g/m*3 12.7 C 0 km/h
1002 27-09-2011 08:21:02 12.8 C 10.08 g/m*3 12.8 C 0 km/h
1003 27-09-2011 08:33:03 12.7 C 10.02 g/m*3 12.7 C 0 km/h
1004 27-09-2011 08:45:02 12.8 C 10.08 g/m*3 12.8 C 0 km/h
1005 27-09-2011 08:57:02 13.2 C 10.22 g/m*3 13.2 C 0 km/h
1006 27-09-2011 09:09:02 13.3 C 10.28 g/m*3 13.3 C 0 km/h
1007 27-09-2011 09:21:03 13.4 C 10.35 g/m*3 13.4 C 0 km/h
1008 27-09-2011 09:33:02 13.5 C 10.41 g/m*3 13.5 C 0 km/h
1009 27-09-2011 09:45:03 13.6 C 10.47 g/m*3 13.6 C 0 km/h
1010 27-09-2011 09:57:03 13.8 C 10.6 g/m*3 13.8 C 0 km/h
1011 27-09-2011 10:09:02 14.1 C 10.8 g/m*3 14.1 C 0 km/h
1012 27-09-2011 10:21:03 14.8 C 11.27 g/m*3 14.8 C 0 km/h
1013 27-09-2011 10:33:02 15.8 C 11.98 g/m*3 15.8 C 0 km/h
1014 27-09-2011 10:45:02 16.1 C 11.93 g/m*3 16.1 C 0 km/h
1015 27-09-2011 10:57:02 16.8 C 12.3 g/m*3 16.8 C 0 km/h
1016 27-09-2011 11:09:02 16.8 C 11.87 g/m*3 16.8 C 0 km/h
1017 27-09-2011 11:21:02 17 C 11.87 g/m*3 17 C 0 km/h
1018 27-09-2011 11:33:02 16.9 C 11.79 g/m*3 16.9 C 0 km/h
1019 27-09-2011 11:45:01 17 C 11.87 g/m*3 17 C 0 km/h
1020 27-09-2011 11:57:01 17.2 C 12.01 g/m*3 17.2 C 0 km/h
1021 27-09-2011 12:09:02 17.4 C 11.71 g/m*3 17.4 C 0 km/h
1022 27-09-2011 12:21:01 18.2 C 11.97 g/m*3 18.2 C 0 km/h
1023 27-09-2011 12:33:02 18.3 C 12.04 g/m*3 18.3 C 0 km/h
1024 27-09-2011 12:45:01 18.5 C 12.18 g/m*3 18.5 C 0 km/h
1025 27-09-2011 12:57:01 18.9 C 11.5 g/m*3 18.9 C 0 km/h
Sensor: Nr:Datum:Temp:Abs-Feuchte:Windchill:Wind:
Aussen-T/F 1026 27-09-2011 13:09:02 19.7 C 11.72 g/m*3 19.7 C 0 km/h
1027 27-09-2011 13:21:01 20.2 C 11.89 g/m*3 20.2 C 0 km/h
1028 27-09-2011 13:33:02 21.1 C 11.06 g/m*3 21.1 C 0 km/h
1029 27-09-2011 13:45:01 22.4 C 10.92 g/m*3 22.4 C 0 km/h
1030 27-09-2011 13:57:01 21.8 C 10.94 g/m*3 21.8 C 0 km/h
1031 27-09-2011 14:09:02 22.2 C 10.41 g/m*3 22.2 C 0 km/h
1032 27-09-2011 14:21:02 21.9 C 10.42 g/m*3 21.9 C 0 km/h
1033 27-09-2011 14:33:01 22.2 C 10.01 g/m*3 22.2 C 0 km/h
1034 27-09-2011 14:45:02 22.9 C 8.99 g/m*3 22.9 C 0 km/h
1035 27-09-2011 14:57:02 22.5 C 9.79 g/m*3 22.5 C 0 km/h
1036 27-09-2011 15:09:01 23.2 C 9.15 g/m*3 23.2 C 0 km/h
1037 27-09-2011 15:21:01 23 C 9.25 g/m*3 23 C 0 km/h
1038 27-09-2011 15:33:01 23.4 C 8.62 g/m*3 23.4 C 0 km/h
1039 27-09-2011 15:45:02 24.1 C 8.75 g/m*3 24.1 C 0 km/h
1040 27-09-2011 15:57:02 23.9 C 8.87 g/m*3 23.9 C 0 km/h
1041 27-09-2011 16:09:01 24.1 C 9.19 g/m*3 24.1 C 0 km/h
1042 27-09-2011 16:21:02 27.3 C 8.63 g/m*3 27.3 C 0 km/h
1043 27-09-2011 16:33:02 29.5 C 8.56 g/m*3 29.5 C 0 km/h
1044 27-09-2011 16:45:02 30.3 C 9.55 g/m*3 30.3 C 0 km/h
1045 27-09-2011 16:57:02 30 C 9.4 g/m*3 30 C 0 km/h
1046 27-09-2011 17:09:02 28.9 C 8.86 g/m*3 28.9 C 0 km/h
1047 27-09-2011 17:21:02 28 C 9.52 g/m*3 28 C 0 km/h
1048 27-09-2011 17:33:02 26.1 C 8.81 g/m*3 26.1 C 0 km/h
1049 27-09-2011 17:45:02 26.9 C 9.73 g/m*3 26.9 C 0 km/h
1050 27-09-2011 17:57:02 26.1 C 10.04 g/m*3 26.1 C 0 km/h
Sensor: Nr:Datum:Temp:Abs-Feuchte:Windchill:Wind:
Aussen-T/F 1051 27-09-2011 18:09:02 23.1 C 10.34 g/m*3 23.1 C 0 km/h
1052 27-09-2011 18:21:02 23.2 C 11.02 g/m*3 23.2 C 0 km/h
1053 27-09-2011 18:33:02 22.4 C 10.72 g/m*3 22.4 C 0 km/h
1054 27-09-2011 18:45:01 21.2 C 10.56 g/m*3 21.2 C 0 km/h
1055 27-09-2011 18:57:01 20.4 C 10.61 g/m*3 20.4 C 0 km/h
1056 27-09-2011 19:09:01 19.4 C 10.84 g/m*3 19.4 C 0 km/h
1057 27-09-2011 19:21:02 19 C 10.92 g/m*3 19 C 0 km/h
1058 27-09-2011 19:33:01 18.6 C 10.98 g/m*3 18.6 C 0 km/h
1059 27-09-2011 19:45:02 18.4 C 10.85 g/m*3 18.4 C 0 km/h
1060 27-09-2011 19:57:02 18.1 C 10.97 g/m*3 18.1 C 0 km/h
1061 27-09-2011 20:09:02 17.8 C 11.08 g/m*3 17.8 C 0 km/h
1062 27-09-2011 20:21:02 17.7 C 11.16 g/m*3 17.7 C 0 km/h
1063 27-09-2011 20:33:02 17.6 C 11.1 g/m*3 17.6 C 0 km/h
1064 27-09-2011 20:45:02 17.2 C 10.84 g/m*3 17.2 C 0 km/h
1065 27-09-2011 20:57:02 17.2 C 11.13 g/m*3 17.2 C 0 km/h
1066 27-09-2011 21:09:02 17.1 C 11.06 g/m*3 17.1 C 0 km/h
1067 27-09-2011 21:21:01 16.9 C 11.22 g/m*3 16.9 C 0 km/h
1068 27-09-2011 21:34:01 16.8 C 11.15 g/m*3 16.8 C 0 km/h
1069 27-09-2011 21:46:01 16.7 C 11.23 g/m*3 16.7 C 0 km/h
1070 27-09-2011 21:58:01 16.6 C 11.3 g/m*3 16.6 C 0 km/h
1071 27-09-2011 22:10:01 16.4 C 11.17 g/m*3 16.4 C 0 km/h
1072 27-09-2011 22:22:01 16 C 11.04 g/m*3 16 C 0 km/h
1073 27-09-2011 22:34:01 15.6 C 10.91 g/m*3 15.6 C 0 km/h
1074 27-09-2011 22:46:01 15.9 C 11.24 g/m*3 15.9 C 0 km/h
1075 27-09-2011 22:58:01 15.5 C 10.97 g/m*3 15.5 C 0 km/h
Sensor: Nr:Datum:Temp:Abs-Feuchte:Windchill:Wind:
Aussen-T/F 1076 27-09-2011 23:10:01 15.5 C 11.1 g/m*3 15.5 C 0 km/h
1077 27-09-2011 23:22:01 14.9 C 10.83 g/m*3 14.9 C 0 km/h
1078 27-09-2011 23:34:01 14.6 C 10.64 g/m*3 14.6 C 0 km/h
1079 27-09-2011 23:46:02 14.6 C 10.76 g/m*3 14.6 C 0 km/h
1080 27-09-2011 23:58:02 14.4 C 10.63 g/m*3 14.4 C 0 km/h
1081 28-09-2011 00:10:02 14.1 C 10.44 g/m*3 14.1 C 0 km/h
1082 28-09-2011 00:22:02 14 C 10.37 g/m*3 14 C 0 km/h
1083 28-09-2011 00:34:02 14.2 C 10.5 g/m*3 14.2 C 0 km/h
1084 28-09-2011 00:46:02 13.8 C 10.37 g/m*3 13.8 C 0 km/h
1085 28-09-2011 00:58:02 13.7 C 10.3 g/m*3 13.7 C 0 km/h
1086 28-09-2011 01:10:02 13.5 C 10.18 g/m*3 13.5 C 0 km/h
1087 28-09-2011 01:22:02 13.2 C 9.99 g/m*3 13.2 C 0 km/h
1088 28-09-2011 01:34:02 13.4 C 10.23 g/m*3 13.4 C 0 km/h
1089 28-09-2011 01:46:02 12.7 C 9.8 g/m*3 12.7 C 0 km/h
1090 28-09-2011 01:58:02 12.9 C 9.92 g/m*3 12.9 C 0 km/h
1091 28-09-2011 02:10:02 12.8 C 9.86 g/m*3 12.8 C 0 km/h
1092 28-09-2011 02:22:02 13.1 C 9.93 g/m*3 13.1 C 0 km/h
1093 28-09-2011 02:34:02 12.8 C 9.86 g/m*3 12.8 C 0 km/h
1094 28-09-2011 02:46:02 12.8 C 9.97 g/m*3 12.8 C 0 km/h
1095 28-09-2011 02:58:02 12.8 C 9.97 g/m*3 12.8 C 0 km/h
1096 28-09-2011 03:10:02 12.4 C 9.72 g/m*3 12.4 C 0 km/h
1097 28-09-2011 03:22:02 12.6 C 9.74 g/m*3 12.6 C 0 km/h
1098 28-09-2011 03:34:02 12.4 C 9.62 g/m*3 12.4 C 0 km/h
1099 28-09-2011 03:46:02 12.3 C 9.56 g/m*3 12.3 C 0 km/h
1100 28-09-2011 03:58:03 12.4 C 9.72 g/m*3 12.4 C 0 km/h
Sensor: Nr:Datum:Temp:Abs-Feuchte:Windchill:Wind:
Aussen-T/F 1101 28-09-2011 04:10:03 12.1 C 9.44 g/m*3 12.1 C 0 km/h
1102 28-09-2011 04:22:03 11.8 C 9.37 g/m*3 11.8 C 0 km/h
1103 28-09-2011 04:34:03 11.8 C 9.37 g/m*3 11.8 C 0 km/h
1104 28-09-2011 04:46:03 11.9 C 9.43 g/m*3 11.9 C 0 km/h
1105 28-09-2011 04:58:03 11.8 C 9.37 g/m*3 11.8 C 0 km/h
1106 28-09-2011 05:10:03 11.5 C 9.19 g/m*3 11.5 C 0 km/h
1107 28-09-2011 05:22:03 11.7 C 9.31 g/m*3 11.7 C 0 km/h
1108 28-09-2011 05:34:03 11.5 C 9.19 g/m*3 11.5 C 0 km/h
1109 28-09-2011 05:46:03 11.3 C 9.08 g/m*3 11.3 C 0 km/h
1110 28-09-2011 05:58:03 11.2 C 9.02 g/m*3 11.2 C 0 km/h
1111 28-09-2011 06:10:03 10.9 C 8.85 g/m*3 10.9 C 0 km/h
1112 28-09-2011 06:22:03 11.2 C 9.02 g/m*3 11.2 C 0 km/h
1113 28-09-2011 06:34:03 11.7 C 9.31 g/m*3 11.7 C 0 km/h
1114 28-09-2011 06:46:03 12.2 C 9.6 g/m*3 12.2 C 0 km/h
1115 28-09-2011 06:58:03 12.6 C 9.85 g/m*3 12.6 C 0 km/h
1116 28-09-2011 07:10:02 12.8 C 10.08 g/m*3 12.8 C 0 km/h
1117 28-09-2011 07:22:01 13 C 10.09 g/m*3 13 C 0 km/h
1118 28-09-2011 07:34:02 13.1 C 10.16 g/m*3 13.1 C 0 km/h
1119 28-09-2011 07:46:02 13.1 C 10.16 g/m*3 13.1 C 0 km/h
1120 28-09-2011 07:58:02 13.2 C 10.22 g/m*3 13.2 C 0 km/h
1121 28-09-2011 08:10:02 13.3 C 10.28 g/m*3 13.3 C 0 km/h
1122 28-09-2011 08:22:01 13.3 C 10.4 g/m*3 13.3 C 0 km/h
1123 28-09-2011 08:34:02 13.4 C 10.46 g/m*3 13.4 C 0 km/h
1124 28-09-2011 08:46:02 13.4 C 10.46 g/m*3 13.4 C 0 km/h
1125 28-09-2011 08:58:02 13.5 C 10.53 g/m*3 13.5 C 0 km/h
Sensor: Nr:Datum:Temp:Abs-Feuchte:Windchill:Wind:
Aussen-T/F 1126 28-09-2011 09:10:02 13.5 C 10.53 g/m*3 13.5 C 0 km/h
1127 28-09-2011 09:22:02 13.5 C 10.53 g/m*3 13.5 C 0 km/h
1128 28-09-2011 09:34:02 14 C 10.74 g/m*3 14 C 0 km/h
1129 28-09-2011 09:46:02 14.4 C 11 g/m*3 14.4 C 0 km/h
1130 28-09-2011 09:58:02 14.4 C 11 g/m*3 14.4 C 0 km/h
1131 28-09-2011 10:10:02 14.7 C 11.21 g/m*3 14.7 C 0 km/h
1132 28-09-2011 10:22:02 15 C 11.28 g/m*3 15 C 0 km/h
1133 28-09-2011 10:34:01 14.9 C 11.34 g/m*3 14.9 C 0 km/h
1134 28-09-2011 10:46:02 15.2 C 11.29 g/m*3 15.2 C 0 km/h
1135 28-09-2011 10:58:03 15.4 C 11.43 g/m*3 15.4 C 0 km/h
1136 28-09-2011 11:10:01 15.2 C 11.16 g/m*3 15.2 C 0 km/h
1137 28-09-2011 11:22:01 15.2 C 11.16 g/m*3 15.2 C 0 km/h
1138 28-09-2011 11:34:02 15.5 C 11.37 g/m*3 15.5 C 0 km/h
1139 28-09-2011 11:46:02 16 C 11.72 g/m*3 16 C 0 km/h
1140 28-09-2011 11:58:02 16.4 C 12 g/m*3 16.4 C 0 km/h
1141 28-09-2011 12:10:02 16.8 C 12.15 g/m*3 16.8 C 0 km/h
1142 28-09-2011 12:22:02 17.6 C 12 g/m*3 17.6 C 0 km/h
1143 28-09-2011 12:34:02 17.9 C 11.91 g/m*3 17.9 C 0 km/h
1144 28-09-2011 12:46:02 18.2 C 11.97 g/m*3 18.2 C 0 km/h
1145 28-09-2011 12:58:02 18.6 C 11.78 g/m*3 18.6 C 0 km/h
1146 28-09-2011 13:10:02 19.2 C 11.54 g/m*3 19.2 C 0 km/h
1147 28-09-2011 13:22:01 19.5 C 11.58 g/m*3 19.5 C 0 km/h
1148 28-09-2011 13:34:02 20.3 C 11.78 g/m*3 20.3 C 0 km/h
1149 28-09-2011 13:46:01 20.9 C 11.29 g/m*3 20.9 C 0 km/h
1150 28-09-2011 13:58:01 21 C 11.17 g/m*3 21 C 0 km/h
Sensor: Nr:Datum:Temp:Abs-Feuchte:Windchill:Wind:
Aussen-T/F 1151 28-09-2011 14:10:02 21.6 C 11 g/m*3 21.6 C 0 km/h
1152 28-09-2011 14:22:02 21.6 C 11.19 g/m*3 21.6 C 0 km/h
1153 28-09-2011 14:34:02 22 C 10.87 g/m*3 22 C 0 km/h
1154 28-09-2011 14:46:02 22.5 C 10.59 g/m*3 22.5 C 0 km/h
1155 28-09-2011 14:58:02 22.8 C 10.97 g/m*3 22.8 C 0 km/h
1156 28-09-2011 15:10:01 23.2 C 10.6 g/m*3 23.2 C 0 km/h
1157 28-09-2011 15:22:02 23.4 C 10.51 g/m*3 23.4 C 0 km/h
1158 28-09-2011 15:34:02 23.5 C 10.57 g/m*3 23.5 C 0 km/h
1159 28-09-2011 15:46:02 22.4 C 11.72 g/m*3 22.4 C 0 km/h
1160 28-09-2011 15:58:02 22.1 C 11.52 g/m*3 22.1 C 0 km/h
1161 28-09-2011 16:10:02 22.9 C 12.06 g/m*3 22.9 C 0 km/h
1162 28-09-2011 16:22:02 25.4 C 11.06 g/m*3 25.4 C 0 km/h
1163 28-09-2011 16:34:02 26.5 C 10.51 g/m*3 26.5 C 0 km/h
1164 28-09-2011 16:46:01 26.1 C 11.02 g/m*3 26.1 C 0 km/h
1165 28-09-2011 16:58:01 27.3 C 9.68 g/m*3 27.3 C 0 km/h
1166 28-09-2011 17:10:02 28.7 C 11.3 g/m*3 28.7 C 0 km/h
1167 28-09-2011 17:22:01 28.3 C 10.78 g/m*3 28.3 C 0 km/h
1168 28-09-2011 17:34:02 27.7 C 10.7 g/m*3 27.7 C 0 km/h
1169 28-09-2011 17:46:01 27.1 C 10.87 g/m*3 27.1 C 0 km/h
1170 28-09-2011 17:58:01 26.2 C 10.34 g/m*3 26.2 C 0 km/h
1171 28-09-2011 18:10:02 25.7 C 10.53 g/m*3 25.7 C 0 km/h
1172 28-09-2011 18:22:02 24.6 C 10.8 g/m*3 24.6 C 0 km/h
1173 28-09-2011 18:34:01 23.5 C 11 g/m*3 23.5 C 0 km/h
1174 28-09-2011 18:46:02 22.6 C 11.05 g/m*3 22.6 C 0 km/h
1175 28-09-2011 18:58:02 21.3 C 11 g/m*3 21.3 C 0 km/h
Sensor: Nr:Datum:Temp:Abs-Feuchte:Windchill:Wind:
Aussen-T/F 1176 28-09-2011 19:10:01 19.3 C 11.28 g/m*3 19.3 C 0 km/h
1177 28-09-2011 19:22:02 18.5 C 11.39 g/m*3 18.5 C 0 km/h
1178 28-09-2011 19:34:01 18.1 C 11.43 g/m*3 18.1 C 0 km/h
1179 28-09-2011 19:46:02 17.7 C 11.62 g/m*3 17.7 C 0 km/h
1180 28-09-2011 19:58:02 17.6 C 11.7 g/m*3 17.6 C 0 km/h
1181 28-09-2011 20:10:01 17.2 C 11.42 g/m*3 17.2 C 0 km/h
1182 28-09-2011 20:22:01 17.1 C 11.5 g/m*3 17.1 C 0 km/h
1183 28-09-2011 20:34:02 17 C 11.58 g/m*3 17 C 0 km/h
1184 28-09-2011 20:46:02 16.8 C 11.58 g/m*3 16.8 C 0 km/h
1185 28-09-2011 20:58:02 16.7 C 11.65 g/m*3 16.7 C 0 km/h
1186 28-09-2011 21:10:02 16.5 C 11.65 g/m*3 16.5 C 0 km/h
1187 28-09-2011 21:22:02 16.4 C 11.58 g/m*3 16.4 C 0 km/h
1188 28-09-2011 21:34:02 16.2 C 11.45 g/m*3 16.2 C 0 km/h
1189 28-09-2011 21:46:02 16.3 C 11.65 g/m*3 16.3 C 0 km/h
1190 28-09-2011 21:58:02 16 C 11.44 g/m*3 16 C 0 km/h
1191 28-09-2011 22:10:02 16.2 C 11.58 g/m*3 16.2 C 0 km/h
1192 28-09-2011 22:22:02 16 C 11.44 g/m*3 16 C 0 km/h
1193 28-09-2011 22:34:02 15.7 C 11.37 g/m*3 15.7 C 0 km/h
1194 28-09-2011 22:46:02 15.7 C 11.51 g/m*3 15.7 C 0 km/h
1195 28-09-2011 22:58:02 15.8 C 11.58 g/m*3 15.8 C 0 km/h
1196 28-09-2011 23:10:02 15.7 C 11.51 g/m*3 15.7 C 0 km/h
1197 28-09-2011 23:22:03 15.6 C 11.44 g/m*3 15.6 C 0 km/h
1198 28-09-2011 23:34:02 15.6 C 11.44 g/m*3 15.6 C 0 km/h
1199 28-09-2011 23:46:01 15.2 C 11.16 g/m*3 15.2 C 0 km/h
1200 28-09-2011 23:58:01 14.8 C 11.02 g/m*3 14.8 C 0 km/h
Sensor: Nr:Datum:Temp:Abs-Feuchte:Windchill:Wind:
Aussen-T/F 1201 29-09-2011 00:10:02 14.8 C 11.02 g/m*3 14.8 C 0 km/h
1202 29-09-2011 00:22:01 14.3 C 10.69 g/m*3 14.3 C 0 km/h
1203 29-09-2011 00:34:01 14.1 C 10.56 g/m*3 14.1 C 0 km/h
1204 29-09-2011 00:46:01 13.9 C 10.55 g/m*3 13.9 C 0 km/h
1205 29-09-2011 00:58:01 13.7 C 10.42 g/m*3 13.7 C 0 km/h
1206 29-09-2011 01:10:02 13.6 C 10.24 g/m*3 13.6 C 0 km/h
1207 29-09-2011 01:22:01 13.4 C 10.23 g/m*3 13.4 C 0 km/h
1208 29-09-2011 01:34:01 13.5 C 10.29 g/m*3 13.5 C 0 km/h
1209 29-09-2011 01:46:01 13.5 C 10.29 g/m*3 13.5 C 0 km/h
1210 29-09-2011 01:58:01 13 C 9.98 g/m*3 13 C 0 km/h
1211 29-09-2011 02:10:01 12.8 C 9.97 g/m*3 12.8 C 0 km/h
1212 29-09-2011 02:22:02 12.7 C 9.91 g/m*3 12.7 C 0 km/h
1213 29-09-2011 02:34:01 12.7 C 9.91 g/m*3 12.7 C 0 km/h
1214 29-09-2011 02:46:02 12.7 C 9.91 g/m*3 12.7 C 0 km/h
1215 29-09-2011 02:58:02 12.5 C 9.78 g/m*3 12.5 C 0 km/h
1216 29-09-2011 03:10:01 12.2 C 9.6 g/m*3 12.2 C 0 km/h
1217 29-09-2011 03:22:01 12.4 C 9.72 g/m*3 12.4 C 0 km/h
1218 29-09-2011 03:34:02 12 C 9.48 g/m*3 12 C 0 km/h
1219 29-09-2011 03:46:02 11.8 C 9.37 g/m*3 11.8 C 0 km/h
1220 29-09-2011 03:58:02 11.6 C 9.25 g/m*3 11.6 C 0 km/h
1221 29-09-2011 04:10:01 11.7 C 9.31 g/m*3 11.7 C 0 km/h
1222 29-09-2011 04:22:02 11.9 C 9.53 g/m*3 11.9 C 0 km/h
1223 29-09-2011 04:34:01 12.1 C 9.54 g/m*3 12.1 C 0 km/h
1224 29-09-2011 04:46:02 12.2 C 9.6 g/m*3 12.2 C 0 km/h
1225 29-09-2011 04:58:02 12.2 C 9.6 g/m*3 12.2 C 0 km/h
Sensor: Nr:Datum:Temp:Abs-Feuchte:Windchill:Wind:
Aussen-T/F 1226 29-09-2011 05:10:01 12.4 C 9.72 g/m*3 12.4 C 0 km/h
1227 29-09-2011 05:22:01 12.5 C 9.78 g/m*3 12.5 C 0 km/h
1228 29-09-2011 05:34:02 12.4 C 9.72 g/m*3 12.4 C 0 km/h
1229 29-09-2011 05:46:01 12.5 C 9.89 g/m*3 12.5 C 0 km/h
1230 29-09-2011 05:58:01 12.6 C 9.96 g/m*3 12.6 C 0 km/h
1231 29-09-2011 06:10:02 12.5 C 9.89 g/m*3 12.5 C 0 km/h
1232 29-09-2011 06:22:01 12.3 C 9.77 g/m*3 12.3 C 0 km/h
1233 29-09-2011 06:34:02 12.4 C 9.83 g/m*3 12.4 C 0 km/h
1234 29-09-2011 06:46:01 12.3 C 9.77 g/m*3 12.3 C 0 km/h
1235 29-09-2011 06:58:01 12.4 C 9.83 g/m*3 12.4 C 0 km/h
1236 29-09-2011 07:10:02 12.3 C 9.77 g/m*3 12.3 C 0 km/h
1237 29-09-2011 07:22:01 12.2 C 9.71 g/m*3 12.2 C 0 km/h
1238 29-09-2011 07:34:01 12.2 C 9.71 g/m*3 12.2 C 0 km/h
1239 29-09-2011 07:46:01 12.3 C 9.77 g/m*3 12.3 C 0 km/h
1240 29-09-2011 07:58:01 12.3 C 9.77 g/m*3 12.3 C 0 km/h
1241 29-09-2011 08:10:01 12.5 C 9.89 g/m*3 12.5 C 0 km/h
1242 29-09-2011 08:22:02 12.5 C 9.89 g/m*3 12.5 C 0 km/h
1243 29-09-2011 08:34:01 12.4 C 9.83 g/m*3 12.4 C 0 km/h
1244 29-09-2011 08:46:02 12.6 C 9.96 g/m*3 12.6 C 0 km/h
1245 29-09-2011 08:58:02 12.8 C 10.08 g/m*3 12.8 C 0 km/h
1246 29-09-2011 09:10:01 13 C 10.21 g/m*3 13 C 0 km/h
1247 29-09-2011 09:22:01 13.2 C 10.33 g/m*3 13.2 C 0 km/h
1248 29-09-2011 09:34:01 13.1 C 10.27 g/m*3 13.1 C 0 km/h
1249 29-09-2011 09:46:01 13.2 C 10.33 g/m*3 13.2 C 0 km/h
1250 29-09-2011 09:58:02 13.7 C 10.66 g/m*3 13.7 C 0 km/h
Sensor: Nr:Datum:Temp:Abs-Feuchte:Windchill:Wind:
Aussen-T/F 1251 29-09-2011 10:10:01 13.9 C 10.79 g/m*3 13.9 C 0 km/h
1252 29-09-2011 10:22:01 14.3 C 10.93 g/m*3 14.3 C 0 km/h
1253 29-09-2011 10:34:02 14 C 10.61 g/m*3 14 C 0 km/h
1254 29-09-2011 10:46:01 14 C 10.49 g/m*3 14 C 0 km/h
1255 29-09-2011 10:58:01 14.2 C 10.62 g/m*3 14.2 C 0 km/h
1256 29-09-2011 11:10:02 14.1 C 10.56 g/m*3 14.1 C 0 km/h
1257 29-09-2011 11:22:01 14.4 C 10.88 g/m*3 14.4 C 0 km/h
1258 29-09-2011 11:34:01 15 C 11.16 g/m*3 15 C 0 km/h
1259 29-09-2011 11:46:01 15.5 C 11.63 g/m*3 15.5 C 0 km/h
1260 29-09-2011 11:58:01 15.6 C 11.7 g/m*3 15.6 C 0 km/h
1261 29-09-2011 12:10:01 16.2 C 12 g/m*3 16.2 C 0 km/h
1262 29-09-2011 12:22:02 16.9 C 12.08 g/m*3 16.9 C 0 km/h
1263 29-09-2011 12:34:01 17.6 C 11.55 g/m*3 17.6 C 0 km/h
1264 29-09-2011 12:46:02 18.5 C 11.08 g/m*3 18.5 C 0 km/h
1265 29-09-2011 12:58:02 19.3 C 10.95 g/m*3 19.3 C 0 km/h
1266 29-09-2011 13:10:01 19.6 C 10.8 g/m*3 19.6 C 0 km/h
1267 29-09-2011 13:22:02 20.3 C 10.55 g/m*3 20.3 C 0 km/h
1268 29-09-2011 13:34:01 21.6 C 11 g/m*3 21.6 C 0 km/h
1269 29-09-2011 13:46:02 22 C 10.29 g/m*3 22 C 0 km/h
1270 29-09-2011 13:58:02 22.2 C 9.82 g/m*3 22.2 C 0 km/h
1271 29-09-2011 14:10:01 22.5 C 9.99 g/m*3 22.5 C 0 km/h
1272 29-09-2011 14:22:01 22.5 C 9.79 g/m*3 22.5 C 0 km/h
1273 29-09-2011 14:34:02 22.6 C 9.84 g/m*3 22.6 C 0 km/h
1274 29-09-2011 14:46:01 23 C 10.07 g/m*3 23 C 0 km/h
1275 29-09-2011 14:58:01 23.4 C 10.3 g/m*3 23.4 C 0 km/h
Sensor: Nr:Datum:Temp:Abs-Feuchte:Windchill:Wind:
Aussen-T/F 1276 29-09-2011 15:10:02 23.7 C 10.27 g/m*3 23.7 C 0 km/h
1277 29-09-2011 15:22:01 23.7 C 10.05 g/m*3 23.7 C 0 km/h
1278 29-09-2011 15:34:01 23.4 C 10.3 g/m*3 23.4 C 0 km/h
1279 29-09-2011 15:46:01 22.8 C 9.96 g/m*3 22.8 C 0 km/h
1280 29-09-2011 15:58:01 22.6 C 10.04 g/m*3 22.6 C 0 km/h
1281 29-09-2011 16:10:02 23.1 C 9.72 g/m*3 23.1 C 0 km/h
1282 29-09-2011 16:22:01 25.3 C 10.07 g/m*3 25.3 C 0 km/h
1283 29-09-2011 16:34:01 27.7 C 8.83 g/m*3 27.7 C 0 km/h
1284 29-09-2011 16:46:01 27.5 C 9.79 g/m*3 27.5 C 0 km/h
1285 29-09-2011 16:58:01 28.4 C 9.45 g/m*3 28.4 C 0 km/h
1286 29-09-2011 17:10:01 29 C 9.77 g/m*3 29 C 0 km/h
1287 29-09-2011 17:22:02 28.4 C 9.45 g/m*3 28.4 C 0 km/h
1288 29-09-2011 17:34:01 28.5 C 9.78 g/m*3 28.5 C 0 km/h
1289 29-09-2011 17:46:02 25.2 C 9.54 g/m*3 25.2 C 0 km/h
1290 29-09-2011 17:58:02 23.8 C 10.33 g/m*3 23.8 C 0 km/h
1291 29-09-2011 18:10:01 22.9 C 10.01 g/m*3 22.9 C 0 km/h
1292 29-09-2011 18:22:01 21 C 8.79 g/m*3 21 C 0 km/h
1293 29-09-2011 18:34:02 20.7 C 8.64 g/m*3 20.7 C 0 km/h
1294 29-09-2011 18:46:01 20.6 C 8.95 g/m*3 20.6 C 0 km/h
1295 29-09-2011 18:58:01 19.5 C 8.73 g/m*3 19.5 C 0 km/h
1296 29-09-2011 19:10:01 18.2 C 9.01 g/m*3 18.2 C 0 km/h
1297 29-09-2011 19:22:01 17.6 C 9.15 g/m*3 17.6 C 0 km/h
1298 29-09-2011 19:34:02 17.1 C 9.32 g/m*3 17.1 C 0 km/h
1299 29-09-2011 19:46:01 17 C 9.26 g/m*3 17 C 0 km/h
1300 29-09-2011 19:58:01 17 C 9.41 g/m*3 17 C 0 km/h
Sensor: Nr:Datum:Temp:Abs-Feuchte:Windchill:Wind:
Aussen-T/F 1301 29-09-2011 20:10:02 16.8 C 9.58 g/m*3 16.8 C 0 km/h
1302 29-09-2011 20:22:01 16.2 C 9.52 g/m*3 16.2 C 0 km/h
1303 29-09-2011 20:34:01 16 C 9.67 g/m*3 16 C 0 km/h
1304 29-09-2011 20:46:01 15.7 C 9.9 g/m*3 15.7 C 0 km/h
1305 29-09-2011 20:58:01 15 C 9.62 g/m*3 15 C 0 km/h
1306 29-09-2011 21:10:01 14.4 C 9.39 g/m*3 14.4 C 0 km/h
1307 29-09-2011 21:22:02 14.1 C 9.34 g/m*3 14.1 C 0 km/h
1308 29-09-2011 21:34:01 13.8 C 9.41 g/m*3 13.8 C 0 km/h
1309 29-09-2011 21:46:02 13.6 C 9.53 g/m*3 13.6 C 0 km/h
1310 29-09-2011 21:58:02 13.4 C 9.42 g/m*3 13.4 C 0 km/h
1311 29-09-2011 22:10:01 13.1 C 9.36 g/m*3 13.1 C 0 km/h
1312 29-09-2011 22:23:02 12.8 C 9.3 g/m*3 12.8 C 0 km/h
1313 29-09-2011 22:35:02 12.7 C 9.24 g/m*3 12.7 C 0 km/h
1314 29-09-2011 22:47:02 12.5 C 9.13 g/m*3 12.5 C 0 km/h
1315 29-09-2011 22:59:02 12.4 C 9.07 g/m*3 12.4 C 0 km/h
1316 29-09-2011 23:11:02 12.4 C 9.18 g/m*3 12.4 C 0 km/h
1317 29-09-2011 23:23:02 11.9 C 9 g/m*3 11.9 C 0 km/h
1318 29-09-2011 23:35:02 11.9 C 9 g/m*3 11.9 C 0 km/h
1319 29-09-2011 23:47:02 11.8 C 9.05 g/m*3 11.8 C 0 km/h
1320 29-09-2011 23:59:02 11.5 C 8.78 g/m*3 11.5 C 0 km/h
1321 30-09-2011 00:11:02 11.5 C 8.88 g/m*3 11.5 C 0 km/h
1322 30-09-2011 00:23:02 11.5 C 8.88 g/m*3 11.5 C 0 km/h
1323 30-09-2011 00:35:02 11.2 C 8.72 g/m*3 11.2 C 0 km/h
1324 30-09-2011 00:47:02 11 C 8.61 g/m*3 11 C 0 km/h
1325 30-09-2011 00:59:02 11 C 8.61 g/m*3 11 C 0 km/h
Sensor: Nr:Datum:Temp:Abs-Feuchte:Windchill:Wind:
Aussen-T/F 1326 30-09-2011 01:11:03 11.1 C 8.76 g/m*3 11.1 C 0 km/h
1327 30-09-2011 01:23:03 10.7 C 8.55 g/m*3 10.7 C 0 km/h
1328 30-09-2011 01:35:03 10.6 C 8.49 g/m*3 10.6 C 0 km/h
1329 30-09-2011 01:47:03 10.6 C 8.49 g/m*3 10.6 C 0 km/h
1330 30-09-2011 01:59:03 10.8 C 8.7 g/m*3 10.8 C 0 km/h
1331 30-09-2011 02:11:03 10.3 C 8.43 g/m*3 10.3 C 0 km/h
1332 30-09-2011 02:23:03 10.1 C 8.32 g/m*3 10.1 C 0 km/h
1333 30-09-2011 02:35:03 9.8 C 8.26 g/m*3 9.8 C 0 km/h
1334 30-09-2011 02:47:03 9.9 C 8.31 g/m*3 9.9 C 0 km/h
1335 30-09-2011 02:59:03 9.7 C 8.2 g/m*3 9.7 C 0 km/h
1336 30-09-2011 03:11:03 9.6 C 8.15 g/m*3 9.6 C 0 km/h
1337 30-09-2011 03:23:03 9.5 C 8.1 g/m*3 9.5 C 0 km/h
1338 30-09-2011 03:35:03 9.6 C 8.15 g/m*3 9.6 C 0 km/h
1339 30-09-2011 03:47:03 9.5 C 8.01 g/m*3 9.5 C 0 km/h
1340 30-09-2011 03:59:03 9.5 C 8.1 g/m*3 9.5 C 0 km/h
1341 30-09-2011 04:11:03 9.3 C 8 g/m*3 9.3 C 0 km/h
1342 30-09-2011 04:23:03 9.2 C 7.95 g/m*3 9.2 C 0 km/h
1343 30-09-2011 04:35:03 9.3 C 8 g/m*3 9.3 C 0 km/h
1344 30-09-2011 04:47:03 9.3 C 7.91 g/m*3 9.3 C 0 km/h
1345 30-09-2011 04:59:03 9 C 7.85 g/m*3 9 C 0 km/h
1346 30-09-2011 05:11:03 8.8 C 7.83 g/m*3 8.8 C 0 km/h
1347 30-09-2011 05:23:03 9.3 C 8 g/m*3 9.3 C 0 km/h
1348 30-09-2011 05:35:04 9 C 7.85 g/m*3 9 C 0 km/h
1349 30-09-2011 05:47:04 9.3 C 8.09 g/m*3 9.3 C 0 km/h
1350 30-09-2011 05:59:04 9.2 C 8.04 g/m*3 9.2 C 0 km/h
Sensor: Nr:Datum:Temp:Abs-Feuchte:Windchill:Wind:
Aussen-T/F 1351 30-09-2011 06:11:04 8.7 C 7.87 g/m*3 8.7 C 0 km/h
1352 30-09-2011 06:23:04 8.4 C 7.72 g/m*3 8.4 C 0 km/h
1353 30-09-2011 06:35:04 8.3 C 7.67 g/m*3 8.3 C 0 km/h
1354 30-09-2011 06:47:04 8.6 C 7.82 g/m*3 8.6 C 0 km/h
1355 30-09-2011 06:59:04 8.6 C 7.82 g/m*3 8.6 C 0 km/h
1356 30-09-2011 07:11:02 8.6 C 7.82 g/m*3 8.6 C 0 km/h
1357 30-09-2011 07:23:02 8.9 C 7.97 g/m*3 8.9 C 0 km/h
1358 30-09-2011 07:35:02 9 C 7.93 g/m*3 9 C 0 km/h
1359 30-09-2011 07:47:02 9.3 C 8.18 g/m*3 9.3 C 0 km/h
1360 30-09-2011 07:59:02 9.4 C 8.23 g/m*3 9.4 C 0 km/h
1361 30-09-2011 08:11:02 9.5 C 8.28 g/m*3 9.5 C 0 km/h
1362 30-09-2011 08:23:03 9.5 C 8.28 g/m*3 9.5 C 0 km/h
1363 30-09-2011 08:35:02 9.4 C 8.23 g/m*3 9.4 C 0 km/h
1364 30-09-2011 08:47:02 9.1 C 8.07 g/m*3 9.1 C 0 km/h
1365 30-09-2011 08:59:02 9.4 C 8.23 g/m*3 9.4 C 0 km/h
1366 30-09-2011 09:11:02 9.4 C 8.23 g/m*3 9.4 C 0 km/h
1367 30-09-2011 09:23:02 9.3 C 8.18 g/m*3 9.3 C 0 km/h
1368 30-09-2011 09:35:01 9.8 C 8.44 g/m*3 9.8 C 0 km/h
1369 30-09-2011 09:47:02 10.5 C 8.73 g/m*3 10.5 C 0 km/h
1370 30-09-2011 09:59:02 10.5 C 8.73 g/m*3 10.5 C 0 km/h
1371 30-09-2011 10:11:01 10.2 C 8.56 g/m*3 10.2 C 0 km/h
1372 30-09-2011 10:23:01 10.1 C 8.42 g/m*3 10.1 C 0 km/h
1373 30-09-2011 10:35:02 10.5 C 8.73 g/m*3 10.5 C 0 km/h
1374 30-09-2011 10:47:02 11.1 C 9.07 g/m*3 11.1 C 0 km/h
1375 30-09-2011 10:59:02 11.6 C 9.35 g/m*3 11.6 C 0 km/h
Sensor: Nr:Datum:Temp:Abs-Feuchte:Windchill:Wind:
Aussen-T/F 1376 30-09-2011 11:11:02 12.3 C 9.77 g/m*3 12.3 C 0 km/h
1377 30-09-2011 11:23:02 12.9 C 10.14 g/m*3 12.9 C 0 km/h
1378 30-09-2011 11:35:02 13.5 C 10.41 g/m*3 13.5 C 0 km/h
1379 30-09-2011 11:47:02 14 C 10.74 g/m*3 14 C 0 km/h
1380 30-09-2011 11:59:02 14.8 C 11.27 g/m*3 14.8 C 0 km/h
1381 30-09-2011 12:11:02 15 C 11.41 g/m*3 15 C 0 km/h
1382 30-09-2011 12:23:02 15.5 C 11.63 g/m*3 15.5 C 0 km/h
1383 30-09-2011 12:35:02 16.1 C 11.93 g/m*3 16.1 C 0 km/h
1384 30-09-2011 12:47:02 16.5 C 11.94 g/m*3 16.5 C 0 km/h
1385 30-09-2011 12:59:02 16.9 C 12.08 g/m*3 16.9 C 0 km/h
1386 30-09-2011 13:11:02 17.6 C 12 g/m*3 17.6 C 0 km/h
1387 30-09-2011 13:23:02 18.1 C 11.9 g/m*3 18.1 C 0 km/h
1388 30-09-2011 13:35:02 20.7 C 12.6 g/m*3 20.7 C 0 km/h
1389 30-09-2011 13:47:02 20.9 C 10.56 g/m*3 20.9 C 0 km/h
1390 30-09-2011 13:59:02 20 C 10.89 g/m*3 20 C 0 km/h
1391 30-09-2011 14:11:01 19.9 C 10.31 g/m*3 19.9 C 0 km/h
1392 30-09-2011 14:23:02 20.2 C 9.79 g/m*3 20.2 C 0 km/h
1393 30-09-2011 14:35:02 20.9 C 9.11 g/m*3 20.9 C 0 km/h
1394 30-09-2011 14:47:02 21.9 C 8.68 g/m*3 21.9 C 0 km/h
1395 30-09-2011 14:59:02 21.9 C 8.88 g/m*3 21.9 C 0 km/h
1396 30-09-2011 15:11:03 21.5 C 9.43 g/m*3 21.5 C 0 km/h
1397 30-09-2011 15:23:02 21.3 C 9.32 g/m*3 21.3 C 0 km/h
1398 30-09-2011 15:35:02 21 C 8.98 g/m*3 21 C 0 km/h
1399 30-09-2011 15:47:01 21.9 C 8.88 g/m*3 21.9 C 0 km/h
1400 30-09-2011 15:59:01 22 C 8.73 g/m*3 22 C 0 km/h
Sensor: Nr:Datum:Temp:Abs-Feuchte:Windchill:Wind:
Aussen-T/F 1401 30-09-2011 16:11:02 23.1 C 8.27 g/m*3 23.1 C 0 km/h
1402 30-09-2011 16:23:01 26.2 C 9.35 g/m*3 26.2 C 0 km/h
1403 30-09-2011 16:35:01 29.3 C 7.88 g/m*3 29.3 C 0 km/h
1404 30-09-2011 16:47:01 30.1 C 7.93 g/m*3 30.1 C 0 km/h
1405 30-09-2011 16:59:01 30.6 C 8.46 g/m*3 30.6 C 0 km/h
1406 30-09-2011 17:11:01 30.4 C 8.68 g/m*3 30.4 C 0 km/h
1407 30-09-2011 17:23:02 28.5 C 8.38 g/m*3 28.5 C 0 km/h
1408 30-09-2011 17:35:01 26.9 C 8.45 g/m*3 26.9 C 0 km/h
1409 30-09-2011 17:47:03 25.6 C 8.33 g/m*3 25.6 C 0 km/h
1410 30-09-2011 17:59:03 25 C 8.52 g/m*3 25 C 0 km/h
1411 30-09-2011 18:11:02 23.8 C 8.6 g/m*3 23.8 C 0 km/h
1412 30-09-2011 18:23:02 22.6 C 8.64 g/m*3 22.6 C 0 km/h
1413 30-09-2011 18:35:02 21.8 C 8.83 g/m*3 21.8 C 0 km/h
1414 30-09-2011 18:47:02 20.7 C 8.82 g/m*3 20.7 C 0 km/h
1415 30-09-2011 18:59:02 19.1 C 8.85 g/m*3 19.1 C 0 km/h
1416 30-09-2011 19:11:01 18.5 C 9.18 g/m*3 18.5 C 0 km/h
1417 30-09-2011 19:23:02 18.6 C 8.75 g/m*3 18.6 C 0 km/h
1418 30-09-2011 19:35:02 18.4 C 8.81 g/m*3 18.4 C 0 km/h
1419 30-09-2011 19:47:01 18.1 C 8.65 g/m*3 18.1 C 0 km/h
1420 30-09-2011 19:59:01 16.9 C 9.06 g/m*3 16.9 C 0 km/h
1421 30-09-2011 20:11:02 15.7 C 8.96 g/m*3 15.7 C 0 km/h
1422 30-09-2011 20:23:01 15.1 C 9.16 g/m*3 15.1 C 0 km/h
1423 30-09-2011 20:35:01 15.2 C 9.48 g/m*3 15.2 C 0 km/h
1424 30-09-2011 20:47:01 15.1 C 9.68 g/m*3 15.1 C 0 km/h
1425 30-09-2011 20:59:01 14.7 C 9.44 g/m*3 14.7 C 0 km/h
Sensor: Nr:Datum:Temp:Abs-Feuchte:Windchill:Wind:
Aussen-T/F 1426 30-09-2011 21:11:02 14.2 C 9.16 g/m*3 14.2 C 0 km/h
1427 30-09-2011 21:23:01 13.8 C 9.17 g/m*3 13.8 C 0 km/h
1428 30-09-2011 21:35:01 13.6 C 9.18 g/m*3 13.6 C 0 km/h
1429 30-09-2011 21:47:01 13.4 C 9.18 g/m*3 13.4 C 0 km/h
1430 30-09-2011 21:59:01 13.1 C 9.01 g/m*3 13.1 C 0 km/h
1431 30-09-2011 22:12:03 13.1 C 9.24 g/m*3 13.1 C 0 km/h
1432 30-09-2011 22:24:03 12.8 C 9.18 g/m*3 12.8 C 0 km/h
1433 30-09-2011 22:36:03 12.8 C 9.18 g/m*3 12.8 C 0 km/h
1434 30-09-2011 22:48:03 12.5 C 9.02 g/m*3 12.5 C 0 km/h
1435 30-09-2011 23:00:03 12.4 C 9.07 g/m*3 12.4 C 0 km/h
1436 30-09-2011 23:12:03 12.2 C 8.96 g/m*3 12.2 C 0 km/h
1437 30-09-2011 23:24:03 12.1 C 9.01 g/m*3 12.1 C 0 km/h
1438 30-09-2011 23:36:03 12.2 C 9.17 g/m*3 12.2 C 0 km/h
1439 30-09-2011 23:48:03 11.7 C 8.89 g/m*3 11.7 C 0 km/h
1440 01-10-2011 00:00:03 11.5 C 8.78 g/m*3 11.5 C 0 km/h
1441 01-10-2011 00:12:03 11.3 C 8.67 g/m*3 11.3 C 0 km/h
1442 01-10-2011 00:24:03 11.3 C 8.77 g/m*3 11.3 C 0 km/h
1443 01-10-2011 00:36:03 11.2 C 8.72 g/m*3 11.2 C 0 km/h
1444 01-10-2011 00:48:03 11.1 C 8.66 g/m*3 11.1 C 0 km/h
1445 01-10-2011 01:00:03 11.1 C 8.66 g/m*3 11.1 C 0 km/h
1446 01-10-2011 01:12:03 10.8 C 8.6 g/m*3 10.8 C 0 km/h
1447 01-10-2011 01:24:03 10.8 C 8.6 g/m*3 10.8 C 0 km/h
1448 01-10-2011 01:36:03 10.6 C 8.49 g/m*3 10.6 C 0 km/h
1449 01-10-2011 01:48:03 10.8 C 8.6 g/m*3 10.8 C 0 km/h
1450 01-10-2011 02:00:03 10.6 C 8.59 g/m*3 10.6 C 0 km/h
Sensor: Nr:Datum:Temp:Abs-Feuchte:Windchill:Wind:
Aussen-T/F 1451 01-10-2011 02:12:04 10.2 C 8.28 g/m*3 10.2 C 0 km/h
1452 01-10-2011 02:24:04 10.5 C 8.44 g/m*3 10.5 C 0 km/h
1453 01-10-2011 02:36:04 10.4 C 8.48 g/m*3 10.4 C 0 km/h
1454 01-10-2011 02:48:04 9.9 C 8.31 g/m*3 9.9 C 0 km/h
1455 01-10-2011 03:00:04 10 C 8.17 g/m*3 10 C 0 km/h
1456 01-10-2011 03:12:04 10 C 8.27 g/m*3 10 C 0 km/h
1457 01-10-2011 03:24:04 9.9 C 8.31 g/m*3 9.9 C 0 km/h
1458 01-10-2011 03:36:04 9.8 C 8.26 g/m*3 9.8 C 0 km/h
1459 01-10-2011 03:48:04 9.6 C 8.15 g/m*3 9.6 C 0 km/h
1460 01-10-2011 04:00:04 9.6 C 8.06 g/m*3 9.6 C 0 km/h
1461 01-10-2011 04:12:04 9.5 C 8.1 g/m*3 9.5 C 0 km/h
1462 01-10-2011 04:24:04 9.6 C 8.15 g/m*3 9.6 C 0 km/h
1463 01-10-2011 04:36:04 9.3 C 8 g/m*3 9.3 C 0 km/h
1464 01-10-2011 04:48:04 9 C 7.85 g/m*3 9 C 0 km/h
1465 01-10-2011 05:00:04 9 C 7.85 g/m*3 9 C 0 km/h
1466 01-10-2011 05:12:04 9.1 C 7.9 g/m*3 9.1 C 0 km/h
1467 01-10-2011 05:24:04 8.8 C 7.83 g/m*3 8.8 C 0 km/h
1468 01-10-2011 05:36:04 9.1 C 7.9 g/m*3 9.1 C 0 km/h
1469 01-10-2011 05:48:04 9.1 C 7.9 g/m*3 9.1 C 0 km/h
1470 01-10-2011 06:00:04 8.8 C 7.83 g/m*3 8.8 C 0 km/h
1471 01-10-2011 06:12:04 8.5 C 7.68 g/m*3 8.5 C 0 km/h
1472 01-10-2011 06:24:04 8.6 C 7.73 g/m*3 8.6 C 0 km/h
1473 01-10-2011 06:36:05 8.3 C 7.59 g/m*3 8.3 C 0 km/h
1474 01-10-2011 06:48:05 8.3 C 7.59 g/m*3 8.3 C 0 km/h
1475 01-10-2011 07:00:05 8.2 C 7.54 g/m*3 8.2 C 0 km/h
Sensor: Nr:Datum:Temp:Abs-Feuchte:Windchill:Wind:
Aussen-T/F 1476 01-10-2011 07:12:05 8.2 C 7.54 g/m*3 8.2 C 0 km/h
1477 01-10-2011 07:24:05 8.4 C 7.63 g/m*3 8.4 C 0 km/h
1478 01-10-2011 07:36:05 8.2 C 7.54 g/m*3 8.2 C 0 km/h
1479 01-10-2011 07:48:01 8.5 C 7.77 g/m*3 8.5 C 0 km/h
1480 01-10-2011 08:00:02 8.5 C 7.77 g/m*3 8.5 C 0 km/h
1481 01-10-2011 08:12:01 8.3 C 7.67 g/m*3 8.3 C 0 km/h
1482 01-10-2011 08:24:01 8.4 C 7.72 g/m*3 8.4 C 0 km/h
1483 01-10-2011 08:36:02 8.4 C 7.63 g/m*3 8.4 C 0 km/h
1484 01-10-2011 08:48:02 8.5 C 7.77 g/m*3 8.5 C 0 km/h
1485 01-10-2011 09:00:02 8.6 C 7.82 g/m*3 8.6 C 0 km/h
1486 01-10-2011 09:12:02 8.7 C 7.87 g/m*3 8.7 C 0 km/h
1487 01-10-2011 09:24:01 8.8 C 7.92 g/m*3 8.8 C 0 km/h
1488 01-10-2011 09:36:02 9 C 7.93 g/m*3 9 C 0 km/h
1489 01-10-2011 09:48:01 9.1 C 7.99 g/m*3 9.1 C 0 km/h
1490 01-10-2011 10:00:01 9.4 C 8.14 g/m*3 9.4 C 0 km/h
1491 01-10-2011 10:12:02 9.9 C 8.4 g/m*3 9.9 C 0 km/h
1492 01-10-2011 10:24:01 10.3 C 8.52 g/m*3 10.3 C 0 km/h
1493 01-10-2011 10:36:02 10.8 C 8.9 g/m*3 10.8 C 0 km/h
1494 01-10-2011 10:48:02 11.3 C 9.18 g/m*3 11.3 C 0 km/h
1495 01-10-2011 11:00:02 11.7 C 9.41 g/m*3 11.7 C 0 km/h
1496 01-10-2011 11:12:01 11.9 C 9.53 g/m*3 11.9 C 0 km/h
1497 01-10-2011 11:24:02 12.4 C 9.83 g/m*3 12.4 C 0 km/h
1498 01-10-2011 11:36:01 12.9 C 10.14 g/m*3 12.9 C 0 km/h
1499 01-10-2011 11:48:02 13.2 C 10.22 g/m*3 13.2 C 0 km/h
1500 01-10-2011 12:00:02 13.5 C 10.41 g/m*3 13.5 C 0 km/h
Sensor: Nr:Datum:Temp:Abs-Feuchte:Windchill:Wind:
Aussen-T/F 1501 01-10-2011 12:12:01 13.8 C 10.6 g/m*3 13.8 C 0 km/h
1502 01-10-2011 12:24:01 14.4 C 11 g/m*3 14.4 C 0 km/h
1503 01-10-2011 12:36:01 14.5 C 11.07 g/m*3 14.5 C 0 km/h
1504 01-10-2011 12:48:02 15.5 C 11.76 g/m*3 15.5 C 0 km/h
1505 01-10-2011 13:00:03 16.4 C 12.14 g/m*3 16.4 C 0 km/h
1506 01-10-2011 13:12:01 16.7 C 12.08 g/m*3 16.7 C 0 km/h
1507 01-10-2011 13:24:02 17.8 C 12.6 g/m*3 17.8 C 0 km/h
1508 01-10-2011 13:36:02 20 C 13.31 g/m*3 20 C 0 km/h
1509 01-10-2011 13:48:02 19.5 C 12.08 g/m*3 19.5 C 0 km/h
1510 01-10-2011 14:00:02 19 C 11.73 g/m*3 19 C 0 km/h
1511 01-10-2011 14:12:03 19.3 C 11.78 g/m*3 19.3 C 0 km/h
1512 01-10-2011 14:24:02 19.3 C 11.94 g/m*3 19.3 C 0 km/h
1513 01-10-2011 14:36:03 19.2 C 11.87 g/m*3 19.2 C 0 km/h
1514 01-10-2011 14:48:02 19.1 C 11.8 g/m*3 19.1 C 0 km/h
1515 01-10-2011 15:00:02 19.3 C 11.61 g/m*3 19.3 C 0 km/h
1516 01-10-2011 15:12:02 19.6 C 11.65 g/m*3 19.6 C 0 km/h
1517 01-10-2011 15:24:01 19.9 C 11.34 g/m*3 19.9 C 0 km/h
1518 01-10-2011 15:36:02 20.1 C 11.13 g/m*3 20.1 C 0 km/h
1519 01-10-2011 15:48:02 20.5 C 10.68 g/m*3 20.5 C 0 km/h
1520 01-10-2011 16:00:02 20.8 C 10.5 g/m*3 20.8 C 0 km/h
1521 01-10-2011 16:12:02 21.4 C 10.12 g/m*3 21.4 C 0 km/h
1522 01-10-2011 16:24:01 26.9 C 9.98 g/m*3 26.9 C 0 km/h
1523 01-10-2011 16:36:02 30 C 9.4 g/m*3 30 C 0 km/h
1524 01-10-2011 16:48:01 30.1 C 9.76 g/m*3 30.1 C 0 km/h
1525 01-10-2011 17:00:01 30 C 9.1 g/m*3 30 C 0 km/h
Sensor: Nr:Datum:Temp:Abs-Feuchte:Windchill:Wind:
Aussen-T/F 1526 01-10-2011 17:12:02 29.8 C 9 g/m*3 29.8 C 0 km/h
1527 01-10-2011 17:24:02 28.5 C 8.66 g/m*3 28.5 C 0 km/h
1528 01-10-2011 17:36:02 28.5 C 8.66 g/m*3 28.5 C 0 km/h
1529 01-10-2011 17:48:02 26.7 C 8.86 g/m*3 26.7 C 0 km/h
1530 01-10-2011 18:00:02 26.3 C 8.91 g/m*3 26.3 C 0 km/h
1531 01-10-2011 18:12:01 25.6 C 8.81 g/m*3 25.6 C 0 km/h
1532 01-10-2011 18:24:02 24.3 C 8.85 g/m*3 24.3 C 0 km/h
1533 01-10-2011 18:36:01 24 C 8.92 g/m*3 24 C 0 km/h
1534 01-10-2011 18:48:02 23.2 C 8.94 g/m*3 23.2 C 0 km/h
1535 01-10-2011 19:00:03 20.4 C 9.02 g/m*3 20.4 C 0 km/h
1536 01-10-2011 19:12:02 19 C 9.13 g/m*3 19 C 0 km/h
1537 01-10-2011 19:24:02 18.4 C 9.59 g/m*3 18.4 C 0 km/h
1538 01-10-2011 19:36:02 18 C 9.68 g/m*3 18 C 0 km/h
1539 01-10-2011 19:48:02 17.8 C 9.71 g/m*3 17.8 C 0 km/h
1540 01-10-2011 20:00:02 17.1 C 9.61 g/m*3 17.1 C 0 km/h
1541 01-10-2011 20:12:02 17 C 9.84 g/m*3 17 C 0 km/h
1542 01-10-2011 20:24:02 16.5 C 9.83 g/m*3 16.5 C 0 km/h
1543 01-10-2011 20:36:02 15.9 C 9.75 g/m*3 15.9 C 0 km/h
1544 01-10-2011 20:48:01 15.6 C 9.71 g/m*3 15.6 C 0 km/h
1545 01-10-2011 21:00:01 15.2 C 9.61 g/m*3 15.2 C 0 km/h
1546 01-10-2011 21:12:02 14.9 C 9.69 g/m*3 14.9 C 0 km/h
1547 01-10-2011 21:24:01 14.7 C 9.57 g/m*3 14.7 C 0 km/h
1548 01-10-2011 21:36:02 14.5 C 9.58 g/m*3 14.5 C 0 km/h
1549 01-10-2011 21:48:01 14.3 C 9.46 g/m*3 14.3 C 0 km/h
1550 01-10-2011 22:00:01 13.8 C 9.41 g/m*3 13.8 C 0 km/h
Sensor: Nr:Datum:Temp:Abs-Feuchte:Windchill:Wind:
Aussen-T/F 1551 01-10-2011 22:12:02 13.6 C 9.3 g/m*3 13.6 C 0 km/h
1552 01-10-2011 22:24:01 13.5 C 9.36 g/m*3 13.5 C 0 km/h
1553 01-10-2011 22:37:02 13.2 C 9.3 g/m*3 13.2 C 0 km/h
1554 01-10-2011 22:49:02 12.9 C 9.24 g/m*3 12.9 C 0 km/h
1555 01-10-2011 23:01:02 13.1 C 9.36 g/m*3 13.1 C 0 km/h
1556 01-10-2011 23:13:02 13 C 9.41 g/m*3 13 C 0 km/h
1557 01-10-2011 23:25:02 13 C 9.53 g/m*3 13 C 0 km/h
1558 01-10-2011 23:37:02 12.8 C 9.41 g/m*3 12.8 C 0 km/h
1559 01-10-2011 23:49:02 13 C 9.53 g/m*3 13 C 0 km/h
1560 02-10-2011 00:01:02 12.5 C 9.35 g/m*3 12.5 C 0 km/h
1561 02-10-2011 00:13:02 12.4 C 9.29 g/m*3 12.4 C 0 km/h
1562 02-10-2011 00:25:02 12.1 C 9.12 g/m*3 12.1 C 0 km/h
1563 02-10-2011 00:37:02 12.1 C 9.12 g/m*3 12.1 C 0 km/h
1564 02-10-2011 00:49:02 11.9 C 9.21 g/m*3 11.9 C 0 km/h
1565 02-10-2011 01:01:02 11.7 C 9.1 g/m*3 11.7 C 0 km/h
1566 02-10-2011 01:13:02 11.5 C 8.88 g/m*3 11.5 C 0 km/h
1567 02-10-2011 01:25:02 11.3 C 8.77 g/m*3 11.3 C 0 km/h
1568 02-10-2011 01:37:02 11.2 C 8.82 g/m*3 11.2 C 0 km/h
1569 02-10-2011 01:49:02 11.2 C 8.82 g/m*3 11.2 C 0 km/h
1570 02-10-2011 02:01:02 11.2 C 8.82 g/m*3 11.2 C 0 km/h
1571 02-10-2011 02:13:02 11 C 8.71 g/m*3 11 C 0 km/h
1572 02-10-2011 02:25:02 10.8 C 8.7 g/m*3 10.8 C 0 km/h
1573 02-10-2011 02:37:02 10.8 C 8.6 g/m*3 10.8 C 0 km/h
1574 02-10-2011 02:49:02 10.9 C 8.65 g/m*3 10.9 C 0 km/h
1575 02-10-2011 03:01:03 11 C 8.71 g/m*3 11 C 0 km/h
Sensor: Nr:Datum:Temp:Abs-Feuchte:Windchill:Wind:
Aussen-T/F 1576 02-10-2011 03:13:03 11 C 8.71 g/m*3 11 C 0 km/h
1577 02-10-2011 03:25:03 10.6 C 8.59 g/m*3 10.6 C 0 km/h
1578 02-10-2011 03:37:03 10.4 C 8.48 g/m*3 10.4 C 0 km/h
1579 02-10-2011 03:49:03 10.4 C 8.48 g/m*3 10.4 C 0 km/h
1580 02-10-2011 04:01:03 10.4 C 8.48 g/m*3 10.4 C 0 km/h
1581 02-10-2011 04:13:03 10.3 C 8.43 g/m*3 10.3 C 0 km/h
1582 02-10-2011 04:25:03 10.1 C 8.32 g/m*3 10.1 C 0 km/h
1583 02-10-2011 04:37:03 10 C 8.27 g/m*3 10 C 0 km/h
1584 02-10-2011 04:49:03 9.9 C 8.31 g/m*3 9.9 C 0 km/h
1585 02-10-2011 05:01:03 9.6 C 8.15 g/m*3 9.6 C 0 km/h
1586 02-10-2011 05:13:03 9.8 C 8.26 g/m*3 9.8 C 0 km/h
1587 02-10-2011 05:25:03 9.6 C 8.15 g/m*3 9.6 C 0 km/h
1588 02-10-2011 05:37:03 9.5 C 8.1 g/m*3 9.5 C 0 km/h
1589 02-10-2011 05:49:03 9.7 C 8.2 g/m*3 9.7 C 0 km/h
1590 02-10-2011 06:01:03 10 C 8.36 g/m*3 10 C 0 km/h
1591 02-10-2011 06:13:03 10.1 C 8.42 g/m*3 10.1 C 0 km/h
1592 02-10-2011 06:25:03 9.8 C 8.35 g/m*3 9.8 C 0 km/h
1593 02-10-2011 06:37:03 9.7 C 8.3 g/m*3 9.7 C 0 km/h
1594 02-10-2011 06:49:03 9.3 C 8.09 g/m*3 9.3 C 0 km/h
1595 02-10-2011 07:01:03 9.2 C 8.04 g/m*3 9.2 C 0 km/h
1596 02-10-2011 07:13:03 9.1 C 7.99 g/m*3 9.1 C 0 km/h
1597 02-10-2011 07:25:04 9.3 C 8.09 g/m*3 9.3 C 0 km/h
1598 02-10-2011 07:37:04 9.5 C 8.19 g/m*3 9.5 C 0 km/h
1599 02-10-2011 07:49:04 9.3 C 8.09 g/m*3 9.3 C 0 km/h
1600 02-10-2011 08:01:04 9.1 C 7.99 g/m*3 9.1 C 0 km/h
Sensor: Nr:Datum:Temp:Abs-Feuchte:Windchill:Wind:
Aussen-T/F 1601 02-10-2011 08:13:04 9.1 C 7.99 g/m*3 9.1 C 0 km/h
1602 02-10-2011 08:25:04 9.1 C 7.99 g/m*3 9.1 C 0 km/h
1603 02-10-2011 08:37:04 9.3 C 8.09 g/m*3 9.3 C 0 km/h
1604 02-10-2011 08:49:04 9.6 C 8.34 g/m*3 9.6 C 0 km/h
1605 02-10-2011 09:01:02 9.6 C 8.34 g/m*3 9.6 C 0 km/h
1606 02-10-2011 09:13:02 9.7 C 8.39 g/m*3 9.7 C 0 km/h
1607 02-10-2011 09:25:01 10 C 8.36 g/m*3 10 C 0 km/h
1608 02-10-2011 09:37:01 10.2 C 8.47 g/m*3 10.2 C 0 km/h
1609 02-10-2011 09:49:01 10.5 C 8.73 g/m*3 10.5 C 0 km/h
1610 02-10-2011 10:01:02 10.8 C 8.9 g/m*3 10.8 C 0 km/h
1611 02-10-2011 10:13:02 11.1 C 8.96 g/m*3 11.1 C 0 km/h
1612 02-10-2011 10:25:02 11.4 C 9.14 g/m*3 11.4 C 0 km/h
1613 02-10-2011 10:37:01 11.7 C 9.41 g/m*3 11.7 C 0 km/h
1614 02-10-2011 10:49:02 12.3 C 9.77 g/m*3 12.3 C 0 km/h
1615 02-10-2011 11:01:01 12.6 C 9.96 g/m*3 12.6 C 0 km/h
1616 02-10-2011 11:13:01 12.7 C 10.02 g/m*3 12.7 C 0 km/h
1617 02-10-2011 11:25:02 13 C 10.09 g/m*3 13 C 0 km/h
1618 02-10-2011 11:37:01 13.3 C 10.28 g/m*3 13.3 C 0 km/h
1619 02-10-2011 11:49:02 13.8 C 10.72 g/m*3 13.8 C 0 km/h
1620 02-10-2011 12:01:02 14.2 C 10.87 g/m*3 14.2 C 0 km/h
1621 02-10-2011 12:13:02 14.4 C 11 g/m*3 14.4 C 0 km/h
1622 02-10-2011 12:25:02 15 C 11.28 g/m*3 15 C 0 km/h
1623 02-10-2011 12:37:02 15.4 C 11.56 g/m*3 15.4 C 0 km/h
1624 02-10-2011 12:49:01 16.2 C 12.14 g/m*3 16.2 C 0 km/h
1625 02-10-2011 13:01:02 16.8 C 12.3 g/m*3 16.8 C 0 km/h
Sensor: Nr:Datum:Temp:Abs-Feuchte:Windchill:Wind:
Aussen-T/F 1626 02-10-2011 13:13:02 17.3 C 12.37 g/m*3 17.3 C 0 km/h
1627 02-10-2011 13:25:01 18.2 C 12.43 g/m*3 18.2 C 0 km/h
1628 02-10-2011 13:37:02 20.9 C 12.75 g/m*3 20.9 C 0 km/h
1629 02-10-2011 13:49:01 19.6 C 11.48 g/m*3 19.6 C 0 km/h
1630 02-10-2011 14:01:02 19.6 C 11.31 g/m*3 19.6 C 0 km/h
1631 02-10-2011 14:13:02 19.3 C 11.11 g/m*3 19.3 C 0 km/h
1632 02-10-2011 14:25:01 19.3 C 11.11 g/m*3 19.3 C 0 km/h
1633 02-10-2011 14:37:02 19.2 C 11.21 g/m*3 19.2 C 0 km/h
1634 02-10-2011 14:49:01 19.2 C 11.05 g/m*3 19.2 C 0 km/h
1635 02-10-2011 15:01:02 19.1 C 10.98 g/m*3 19.1 C 0 km/h
1636 02-10-2011 15:13:02 19.7 C 10.7 g/m*3 19.7 C 0 km/h
1637 02-10-2011 15:25:02 19.7 C 10.7 g/m*3 19.7 C 0 km/h
1638 02-10-2011 15:37:01 19.8 C 10.76 g/m*3 19.8 C 0 km/h
1639 02-10-2011 15:49:02 20.4 C 10.44 g/m*3 20.4 C 0 km/h
1640 02-10-2011 16:01:01 20.6 C 10.56 g/m*3 20.6 C 0 km/h
1641 02-10-2011 16:13:01 20.9 C 10.56 g/m*3 20.9 C 0 km/h
1642 02-10-2011 16:25:02 27.1 C 10.35 g/m*3 27.1 C 0 km/h
1643 02-10-2011 16:37:01 29.4 C 9.1 g/m*3 29.4 C 0 km/h
1644 02-10-2011 16:49:02 30.3 C 9.55 g/m*3 30.3 C 0 km/h
1645 02-10-2011 17:01:02 30.1 C 9.15 g/m*3 30.1 C 0 km/h
1646 02-10-2011 17:13:02 29.1 C 8.95 g/m*3 29.1 C 0 km/h
1647 02-10-2011 17:25:02 29 C 8.9 g/m*3 29 C 0 km/h
1648 02-10-2011 17:37:02 26.7 C 8.86 g/m*3 26.7 C 0 km/h
1649 02-10-2011 17:49:01 25.4 C 8.71 g/m*3 25.4 C 0 km/h
1650 02-10-2011 18:01:02 24.3 C 8.63 g/m*3 24.3 C 0 km/h
Sensor: Nr:Datum:Temp:Abs-Feuchte:Windchill:Wind:
Aussen-T/F 1651 02-10-2011 18:13:02 23.6 C 8.93 g/m*3 23.6 C 0 km/h
1652 02-10-2011 18:25:01 23.3 C 8.99 g/m*3 23.3 C 0 km/h
1653 02-10-2011 18:37:02 22.5 C 8.99 g/m*3 22.5 C 0 km/h
1654 02-10-2011 18:49:01 22 C 9.12 g/m*3 22 C 0 km/h
1655 02-10-2011 19:01:02 19.7 C 9.17 g/m*3 19.7 C 0 km/h
1656 02-10-2011 19:13:02 18.8 C 9.18 g/m*3 18.8 C 0 km/h
1657 02-10-2011 19:25:01 18.2 C 9.17 g/m*3 18.2 C 0 km/h
1658 02-10-2011 19:37:02 17.9 C 9.31 g/m*3 17.9 C 0 km/h
1659 02-10-2011 19:49:01 17.1 C 9.17 g/m*3 17.1 C 0 km/h
1660 02-10-2011 20:01:02 16.8 C 9.72 g/m*3 16.8 C 0 km/h
1661 02-10-2011 20:13:02 16.3 C 9.57 g/m*3 16.3 C 0 km/h
1662 02-10-2011 20:25:02 16.3 C 9.71 g/m*3 16.3 C 0 km/h
1663 02-10-2011 20:37:01 15.7 C 9.63 g/m*3 15.7 C 0 km/h
1664 02-10-2011 20:49:02 15.6 C 9.71 g/m*3 15.6 C 0 km/h
1665 02-10-2011 21:01:01 15.4 C 9.85 g/m*3 15.4 C 0 km/h
1666 02-10-2011 21:13:01 15.1 C 9.68 g/m*3 15.1 C 0 km/h
1667 02-10-2011 21:25:02 14.8 C 9.75 g/m*3 14.8 C 0 km/h
1668 02-10-2011 21:37:01 14.6 C 9.76 g/m*3 14.6 C 0 km/h
1669 02-10-2011 21:50:03 14.5 C 9.83 g/m*3 14.5 C 0 km/h
1670 02-10-2011 22:02:03 14.4 C 9.89 g/m*3 14.4 C 0 km/h
1671 02-10-2011 22:14:03 14.1 C 9.95 g/m*3 14.1 C 0 km/h
1672 02-10-2011 22:26:03 14.1 C 9.95 g/m*3 14.1 C 0 km/h
1673 02-10-2011 22:38:03 13.8 C 9.89 g/m*3 13.8 C 0 km/h
1674 02-10-2011 22:50:03 13.5 C 9.71 g/m*3 13.5 C 0 km/h
1675 02-10-2011 23:02:03 13.4 C 9.76 g/m*3 13.4 C 0 km/h
Sensor: Nr:Datum:Temp:Abs-Feuchte:Windchill:Wind:
Aussen-T/F 1676 02-10-2011 23:14:03 13.1 C 9.59 g/m*3 13.1 C 0 km/h
1677 02-10-2011 23:26:03 13.1 C 9.59 g/m*3 13.1 C 0 km/h
1678 02-10-2011 23:38:03 12.9 C 9.58 g/m*3 12.9 C 0 km/h
1679 02-10-2011 23:50:03 12.9 C 9.58 g/m*3 12.9 C 0 km/h
1680 03-10-2011 00:02:03 12.8 C 9.52 g/m*3 12.8 C 0 km/h
1681 03-10-2011 00:14:03 12.7 C 9.46 g/m*3 12.7 C 0 km/h
1682 03-10-2011 00:26:03 12.5 C 9.46 g/m*3 12.5 C 0 km/h
1683 03-10-2011 00:38:03 12.3 C 9.34 g/m*3 12.3 C 0 km/h
1684 03-10-2011 00:50:03 12.6 C 9.62 g/m*3 12.6 C 0 km/h
1685 03-10-2011 01:02:03 12.7 C 9.68 g/m*3 12.7 C 0 km/h
1686 03-10-2011 01:14:03 12.3 C 9.45 g/m*3 12.3 C 0 km/h
1687 03-10-2011 01:26:03 12.2 C 9.39 g/m*3 12.2 C 0 km/h
1688 03-10-2011 01:38:03 12.2 C 9.39 g/m*3 12.2 C 0 km/h
1689 03-10-2011 01:50:04 12 C 9.38 g/m*3 12 C 0 km/h
1690 03-10-2011 02:02:04 11.7 C 9.2 g/m*3 11.7 C 0 km/h
1691 03-10-2011 02:14:04 11.4 C 9.03 g/m*3 11.4 C 0 km/h
1692 03-10-2011 02:26:04 11.5 C 9.09 g/m*3 11.5 C 0 km/h
1693 03-10-2011 02:38:04 11.9 C 9.32 g/m*3 11.9 C 0 km/h
1694 03-10-2011 02:50:04 11.5 C 9.09 g/m*3 11.5 C 0 km/h
1695 03-10-2011 03:02:04 11.5 C 9.09 g/m*3 11.5 C 0 km/h
1696 03-10-2011 03:14:04 11.4 C 9.03 g/m*3 11.4 C 0 km/h
1697 03-10-2011 03:26:04 11.2 C 8.92 g/m*3 11.2 C 0 km/h
1698 03-10-2011 03:38:04 11.5 C 9.19 g/m*3 11.5 C 0 km/h
1699 03-10-2011 03:50:04 11.1 C 8.86 g/m*3 11.1 C 0 km/h
1700 03-10-2011 04:02:04 11 C 8.81 g/m*3 11 C 0 km/h
Sensor: Nr:Datum:Temp:Abs-Feuchte:Windchill:Wind:
Aussen-T/F 1701 03-10-2011 04:14:04 11.1 C 8.96 g/m*3 11.1 C 0 km/h
1702 03-10-2011 04:26:04 11.1 C 8.96 g/m*3 11.1 C 0 km/h
1703 03-10-2011 04:38:04 11.1 C 8.96 g/m*3 11.1 C 0 km/h
1704 03-10-2011 04:50:04 10.7 C 8.74 g/m*3 10.7 C 0 km/h
1705 03-10-2011 05:02:04 10.6 C 8.69 g/m*3 10.6 C 0 km/h
1706 03-10-2011 05:14:04 10.3 C 8.52 g/m*3 10.3 C 0 km/h
1707 03-10-2011 05:26:04 10.2 C 8.47 g/m*3 10.2 C 0 km/h
1708 03-10-2011 05:38:04 10.4 C 8.58 g/m*3 10.4 C 0 km/h
1709 03-10-2011 05:50:05 10.4 C 8.58 g/m*3 10.4 C 0 km/h
1710 03-10-2011 06:02:05 10.7 C 8.84 g/m*3 10.7 C 0 km/h
1711 03-10-2011 06:14:05 10.4 C 8.58 g/m*3 10.4 C 0 km/h
1712 03-10-2011 06:26:05 10.6 C 8.78 g/m*3 10.6 C 0 km/h
1713 03-10-2011 06:38:05 10.7 C 8.84 g/m*3 10.7 C 0 km/h
1714 03-10-2011 06:50:05 10.3 C 8.62 g/m*3 10.3 C 0 km/h
1715 03-10-2011 07:02:05 10 C 8.46 g/m*3 10 C 0 km/h
1716 03-10-2011 07:14:05 9.6 C 8.34 g/m*3 9.6 C 0 km/h
1717 03-10-2011 07:26:05 10 C 8.46 g/m*3 10 C 0 km/h
1718 03-10-2011 07:38:05 10.1 C 8.51 g/m*3 10.1 C 0 km/h
1719 03-10-2011 07:50:05 9.7 C 8.39 g/m*3 9.7 C 0 km/h
1720 03-10-2011 08:02:03 10.2 C 8.56 g/m*3 10.2 C 0 km/h
1721 03-10-2011 08:14:03 10.3 C 8.62 g/m*3 10.3 C 0 km/h
1722 03-10-2011 08:26:02 10.5 C 8.73 g/m*3 10.5 C 0 km/h
1723 03-10-2011 08:38:02 10.5 C 8.73 g/m*3 10.5 C 0 km/h
1724 03-10-2011 08:50:02 10.5 C 8.73 g/m*3 10.5 C 0 km/h
1725 03-10-2011 09:02:01 10.7 C 8.84 g/m*3 10.7 C 0 km/h
Sensor: Nr:Datum:Temp:Abs-Feuchte:Windchill:Wind:
Aussen-T/F 1726 03-10-2011 09:14:01 10.8 C 8.9 g/m*3 10.8 C 0 km/h
1727 03-10-2011 09:26:02 11.2 C 9.12 g/m*3 11.2 C 0 km/h
1728 03-10-2011 09:38:01 11.2 C 9.12 g/m*3 11.2 C 0 km/h
1729 03-10-2011 09:50:02 11.5 C 9.3 g/m*3 11.5 C 0 km/h
1730 03-10-2011 10:02:02 11.8 C 9.47 g/m*3 11.8 C 0 km/h
1731 03-10-2011 10:14:02 12 C 9.59 g/m*3 12 C 0 km/h
1732 03-10-2011 10:26:01 12.2 C 9.71 g/m*3 12.2 C 0 km/h
1733 03-10-2011 10:38:02 12.5 C 9.89 g/m*3 12.5 C 0 km/h
1734 03-10-2011 10:50:02 12.8 C 10.08 g/m*3 12.8 C 0 km/h
1735 03-10-2011 11:02:02 13.1 C 10.16 g/m*3 13.1 C 0 km/h
1736 03-10-2011 11:14:02 13.4 C 10.35 g/m*3 13.4 C 0 km/h
1737 03-10-2011 11:26:02 13.8 C 10.6 g/m*3 13.8 C 0 km/h
1738 03-10-2011 11:38:02 14.1 C 10.8 g/m*3 14.1 C 0 km/h
1739 03-10-2011 11:50:02 14.2 C 10.75 g/m*3 14.2 C 0 km/h
1740 03-10-2011 12:02:02 14.5 C 10.94 g/m*3 14.5 C 0 km/h
1741 03-10-2011 12:14:03 14.7 C 10.95 g/m*3 14.7 C 0 km/h
1742 03-10-2011 12:26:02 15.4 C 11.43 g/m*3 15.4 C 0 km/h
1743 03-10-2011 12:38:02 15.6 C 11.57 g/m*3 15.6 C 0 km/h
1744 03-10-2011 12:50:02 16.4 C 12 g/m*3 16.4 C 0 km/h
1745 03-10-2011 13:02:02 16.9 C 12.37 g/m*3 16.9 C 0 km/h
1746 03-10-2011 13:14:02 17.5 C 12.52 g/m*3 17.5 C 0 km/h
1747 03-10-2011 13:26:02 18 C 12.44 g/m*3 18 C 0 km/h
1748 03-10-2011 13:38:02 19.8 C 13.15 g/m*3 19.8 C 0 km/h
1749 03-10-2011 13:50:02 20.2 C 12.06 g/m*3 20.2 C 0 km/h
1750 03-10-2011 14:02:02 19.7 C 11.38 g/m*3 19.7 C 0 km/h
Sensor: Nr:Datum:Temp:Abs-Feuchte:Windchill:Wind:
Aussen-T/F 1751 03-10-2011 14:14:02 20 C 10.89 g/m*3 20 C 0 km/h
1752 03-10-2011 14:26:02 20 C 10.37 g/m*3 20 C 0 km/h
1753 03-10-2011 14:38:01 20.4 C 9.91 g/m*3 20.4 C 0 km/h
1754 03-10-2011 14:50:02 21.1 C 9.77 g/m*3 21.1 C 0 km/h
1755 03-10-2011 15:02:01 20.4 C 10.08 g/m*3 20.4 C 0 km/h
1756 03-10-2011 15:14:01 20.8 C 9.6 g/m*3 20.8 C 0 km/h
1757 03-10-2011 15:26:02 20.6 C 10.02 g/m*3 20.6 C 0 km/h
1758 03-10-2011 15:38:02 21 C 9.71 g/m*3 21 C 0 km/h
1759 03-10-2011 15:50:02 21.5 C 9.24 g/m*3 21.5 C 0 km/h
1760 03-10-2011 16:02:02 21.2 C 9.45 g/m*3 21.2 C 0 km/h
1761 03-10-2011 16:14:02 23 C 9.45 g/m*3 23 C 0 km/h
1762 03-10-2011 16:26:02 26.6 C 7.8 g/m*3 26.6 C 0 km/h
1763 03-10-2011 16:38:02 27.9 C 8.65 g/m*3 27.9 C 0 km/h
1764 03-10-2011 16:50:01 27.5 C 8.2 g/m*3 27.5 C 0 km/h
1765 03-10-2011 17:02:02 27.6 C 8.51 g/m*3 27.6 C 0 km/h
1766 03-10-2011 17:14:02 26 C 8.03 g/m*3 26 C 0 km/h
1767 03-10-2011 17:26:01 26.2 C 8.62 g/m*3 26.2 C 0 km/h
1768 03-10-2011 17:38:01 25.5 C 8.29 g/m*3 25.5 C 0 km/h
1769 03-10-2011 17:50:01 25.2 C 8.61 g/m*3 25.2 C 0 km/h
1770 03-10-2011 18:02:02 24.6 C 8.55 g/m*3 24.6 C 0 km/h
1771 03-10-2011 18:14:02 23 C 8.22 g/m*3 23 C 0 km/h
1772 03-10-2011 18:26:01 22.1 C 8.39 g/m*3 22.1 C 0 km/h
1773 03-10-2011 18:38:01 20.8 C 8.51 g/m*3 20.8 C 0 km/h
1774 03-10-2011 18:50:01 20.2 C 8.57 g/m*3 20.2 C 0 km/h
1775 03-10-2011 19:02:01 18.6 C 8.91 g/m*3 18.6 C 0 km/h
Sensor: Nr:Datum:Temp:Abs-Feuchte:Windchill:Wind:
Aussen-T/F 1776 03-10-2011 19:14:01 18.4 C 8.81 g/m*3 18.4 C 0 km/h
1777 03-10-2011 19:26:02 18.1 C 8.81 g/m*3 18.1 C 0 km/h
1778 03-10-2011 19:38:01 17.7 C 9.05 g/m*3 17.7 C 0 km/h
1779 03-10-2011 19:50:02 17.6 C 9 g/m*3 17.6 C 0 km/h
1780 03-10-2011 20:02:01 17.4 C 9.04 g/m*3 17.4 C 0 km/h
1781 03-10-2011 20:14:01 17.2 C 9.08 g/m*3 17.2 C 0 km/h
1782 03-10-2011 20:26:01 16.8 C 9.15 g/m*3 16.8 C 0 km/h
1783 03-10-2011 20:38:01 16.3 C 9.3 g/m*3 16.3 C 0 km/h
1784 03-10-2011 20:51:04 15.6 C 9.31 g/m*3 15.6 C 0 km/h
1785 03-10-2011 21:03:04 15.5 C 9.52 g/m*3 15.5 C 0 km/h
1786 03-10-2011 21:15:04 15.4 C 9.72 g/m*3 15.4 C 0 km/h
1787 03-10-2011 21:27:04 15.5 C 9.65 g/m*3 15.5 C 0 km/h
1788 03-10-2011 21:39:04 15.2 C 9.35 g/m*3 15.2 C 0 km/h
1789 03-10-2011 21:51:04 14.9 C 9.43 g/m*3 14.9 C 0 km/h
1790 03-10-2011 22:03:04 15 C 9.49 g/m*3 15 C 0 km/h
1791 03-10-2011 22:15:04 14.4 C 9.39 g/m*3 14.4 C 0 km/h
1792 03-10-2011 22:27:04 14.2 C 9.4 g/m*3 14.2 C 0 km/h
1793 03-10-2011 22:39:04 14.1 C 9.34 g/m*3 14.1 C 0 km/h
1794 03-10-2011 22:51:04 14.3 C 9.21 g/m*3 14.3 C 0 km/h
1795 03-10-2011 23:03:05 13.8 C 8.94 g/m*3 13.8 C 0 km/h
1796 03-10-2011 23:15:05 13.3 C 8.9 g/m*3 13.3 C 0 km/h
1797 03-10-2011 23:27:05 13.1 C 8.9 g/m*3 13.1 C 0 km/h
1798 03-10-2011 23:39:05 12.9 C 9.02 g/m*3 12.9 C 0 km/h
1799 03-10-2011 23:51:05 12.5 C 8.91 g/m*3 12.5 C 0 km/h
1800 04-10-2011 00:03:05 12.9 C 9.35 g/m*3 12.9 C 0 km/h
Sensor: Nr:Datum:Temp:Abs-Feuchte:Windchill:Wind:
Aussen-T/F 1801 04-10-2011 00:15:05 12.6 C 9.18 g/m*3 12.6 C 0 km/h
1802 04-10-2011 00:27:05 12.3 C 9.01 g/m*3 12.3 C 0 km/h
1803 04-10-2011 00:39:05 12.2 C 8.96 g/m*3 12.2 C 0 km/h
1804 04-10-2011 00:51:05 12.1 C 9.01 g/m*3 12.1 C 0 km/h
1805 04-10-2011 01:03:05 12 C 8.95 g/m*3 12 C 0 km/h
1806 04-10-2011 01:15:05 11.8 C 8.95 g/m*3 11.8 C 0 km/h
1807 04-10-2011 01:27:05 11.9 C 9.11 g/m*3 11.9 C 0 km/h
1808 04-10-2011 01:39:05 11.7 C 8.99 g/m*3 11.7 C 0 km/h
1809 04-10-2011 01:51:05 11.4 C 8.83 g/m*3 11.4 C 0 km/h
1810 04-10-2011 02:03:05 11.3 C 8.77 g/m*3 11.3 C 0 km/h
1811 04-10-2011 02:15:05 11.2 C 8.82 g/m*3 11.2 C 0 km/h
1812 04-10-2011 02:27:05 11.1 C 8.76 g/m*3 11.1 C 0 km/h
1813 04-10-2011 02:39:05 11.2 C 8.82 g/m*3 11.2 C 0 km/h
1814 04-10-2011 02:51:05 11 C 8.71 g/m*3 11 C 0 km/h
1815 04-10-2011 03:03:05 11 C 8.71 g/m*3 11 C 0 km/h
1816 04-10-2011 03:15:06 11.1 C 8.86 g/m*3 11.1 C 0 km/h
1817 04-10-2011 03:27:06 11.1 C 8.86 g/m*3 11.1 C 0 km/h
1818 04-10-2011 03:39:06 11.1 C 8.86 g/m*3 11.1 C 0 km/h
1819 04-10-2011 03:51:06 11.1 C 8.86 g/m*3 11.1 C 0 km/h
1820 04-10-2011 04:03:06 12.1 C 9.44 g/m*3 12.1 C 0 km/h
1821 04-10-2011 04:15:06 11.9 C 9.32 g/m*3 11.9 C 0 km/h
1822 04-10-2011 04:27:06 11.8 C 9.26 g/m*3 11.8 C 0 km/h
1823 04-10-2011 04:39:06 12.7 C 9.68 g/m*3 12.7 C 0 km/h
1824 04-10-2011 04:51:06 12.5 C 9.35 g/m*3 12.5 C 0 km/h
1825 04-10-2011 05:03:06 12.4 C 9.18 g/m*3 12.4 C 0 km/h
Sensor: Nr:Datum:Temp:Abs-Feuchte:Windchill:Wind:
Aussen-T/F 1826 04-10-2011 05:15:06 13.3 C 9.7 g/m*3 13.3 C 0 km/h
1827 04-10-2011 05:27:06 12.8 C 9.07 g/m*3 12.8 C 0 km/h
1828 04-10-2011 05:39:06 12 C 8.63 g/m*3 12 C 0 km/h
1829 04-10-2011 05:51:06 12.2 C 8.96 g/m*3 12.2 C 0 km/h
1830 04-10-2011 06:03:06 12.7 C 9.02 g/m*3 12.7 C 0 km/h
1831 04-10-2011 06:15:06 12.8 C 9.07 g/m*3 12.8 C 0 km/h
1832 04-10-2011 06:27:06 13.5 C 8.77 g/m*3 13.5 C 0 km/h
1833 04-10-2011 06:39:06 13.5 C 8.66 g/m*3 13.5 C 0 km/h
1834 04-10-2011 06:51:06 13.5 C 8.54 g/m*3 13.5 C 0 km/h
1835 04-10-2011 07:03:06 13.4 C 8.6 g/m*3 13.4 C 0 km/h
1836 04-10-2011 07:15:07 13.5 C 8.66 g/m*3 13.5 C 0 km/h
1837 04-10-2011 07:27:07 13.2 C 8.38 g/m*3 13.2 C 0 km/h
1838 04-10-2011 07:39:07 13.3 C 8.43 g/m*3 13.3 C 0 km/h
1839 04-10-2011 07:51:07 13.3 C 8.43 g/m*3 13.3 C 0 km/h
1840 04-10-2011 08:03:07 13.4 C 8.49 g/m*3 13.4 C 0 km/h
1841 04-10-2011 08:15:03 13.3 C 8.55 g/m*3 13.3 C 0 km/h
1842 04-10-2011 08:27:03 13.3 C 8.55 g/m*3 13.3 C 0 km/h
1843 04-10-2011 08:39:03 13.7 C 8.76 g/m*3 13.7 C 0 km/h
1844 04-10-2011 08:51:01 13.8 C 8.58 g/m*3 13.8 C 0 km/h
1845 04-10-2011 09:03:01 14.4 C 8.65 g/m*3 14.4 C 0 km/h
1846 04-10-2011 09:15:01 14.7 C 8.69 g/m*3 14.7 C 0 km/h
1847 04-10-2011 09:27:01 14.6 C 8.63 g/m*3 14.6 C 0 km/h
1848 04-10-2011 09:39:02 15.1 C 8.64 g/m*3 15.1 C 0 km/h
1849 04-10-2011 09:51:02 15.4 C 8.54 g/m*3 15.4 C 0 km/h
1850 04-10-2011 10:03:02 15.7 C 8.56 g/m*3 15.7 C 0 km/h
Sensor: Nr:Datum:Temp:Abs-Feuchte:Windchill:Wind:
Aussen-T/F 1851 04-10-2011 10:15:02 15.8 C 8.62 g/m*3 15.8 C 0 km/h
1852 04-10-2011 10:27:02 15.9 C 8.94 g/m*3 15.9 C 0 km/h
1853 04-10-2011 10:39:02 16.4 C 8.65 g/m*3 16.4 C 0 km/h
1854 04-10-2011 10:51:02 17.4 C 8.3 g/m*3 17.4 C 0 km/h
1855 04-10-2011 11:03:02 18.2 C 8.08 g/m*3 18.2 C 0 km/h
1856 04-10-2011 11:15:02 18.7 C 8.01 g/m*3 18.7 C 0 km/h
1857 04-10-2011 11:27:02 19.1 C 7.87 g/m*3 19.1 C 0 km/h
1858 04-10-2011 11:39:02 19.6 C 7.93 g/m*3 19.6 C 0 km/h
1859 04-10-2011 11:51:01 19.5 C 7.89 g/m*3 19.5 C 0 km/h
1860 04-10-2011 12:03:01 19.8 C 8.03 g/m*3 19.8 C 0 km/h
1861 04-10-2011 12:15:02 19.7 C 8.66 g/m*3 19.7 C 0 km/h
1862 04-10-2011 12:27:02 20.2 C 8.57 g/m*3 20.2 C 0 km/h
1863 04-10-2011 12:39:01 20.8 C 8.33 g/m*3 20.8 C 0 km/h
1864 04-10-2011 12:51:02 20.6 C 8.59 g/m*3 20.6 C 0 km/h
1865 04-10-2011 13:03:02 21.1 C 8.29 g/m*3 21.1 C 0 km/h
1866 04-10-2011 13:15:02 20.9 C 8.74 g/m*3 20.9 C 0 km/h
1867 04-10-2011 13:27:02 21.8 C 8.25 g/m*3 21.8 C 0 km/h
1868 04-10-2011 13:39:02 23 C 8.84 g/m*3 23 C 0 km/h
1869 04-10-2011 13:51:02 22.5 C 7.99 g/m*3 22.5 C 0 km/h
1870 04-10-2011 14:03:02 22.5 C 8.19 g/m*3 22.5 C 0 km/h
1871 04-10-2011 14:15:02 22.5 C 8.19 g/m*3 22.5 C 0 km/h
1872 04-10-2011 14:27:02 22.5 C 8.39 g/m*3 22.5 C 0 km/h
1873 04-10-2011 14:39:01 23.2 C 8.11 g/m*3 23.2 C 0 km/h
1874 04-10-2011 14:51:02 23.5 C 8.04 g/m*3 23.5 C 0 km/h
1875 04-10-2011 15:03:01 23.1 C 8.48 g/m*3 23.1 C 0 km/h
Sensor: Nr:Datum:Temp:Abs-Feuchte:Windchill:Wind:
Aussen-T/F 1876 04-10-2011 15:15:01 23.4 C 8.2 g/m*3 23.4 C 0 km/h
1877 04-10-2011 15:27:01 23.6 C 8.29 g/m*3 23.6 C 0 km/h
1878 04-10-2011 15:39:02 23.5 C 8.25 g/m*3 23.5 C 0 km/h
1879 04-10-2011 15:51:02 23.1 C 8.48 g/m*3 23.1 C 0 km/h
1880 04-10-2011 16:03:02 23.3 C 8.57 g/m*3 23.3 C 0 km/h
1881 04-10-2011 16:15:02 23.9 C 8.65 g/m*3 23.9 C 0 km/h
1882 04-10-2011 16:27:02 25 C 8.06 g/m*3 25 C 0 km/h
1883 04-10-2011 16:39:02 26 C 8.03 g/m*3 26 C 0 km/h
1884 04-10-2011 16:51:02 22.8 C 8.53 g/m*3 22.8 C 0 km/h
1885 04-10-2011 17:03:02 22.2 C 8.64 g/m*3 22.2 C 0 km/h
1886 04-10-2011 17:15:02 21.6 C 8.53 g/m*3 21.6 C 0 km/h
1887 04-10-2011 17:27:02 24 C 8.27 g/m*3 24 C 0 km/h
1888 04-10-2011 17:39:02 23.7 C 8.34 g/m*3 23.7 C 0 km/h
1889 04-10-2011 17:51:02 23 C 8.22 g/m*3 23 C 0 km/h
1890 04-10-2011 18:03:02 22.2 C 8.44 g/m*3 22.2 C 0 km/h
1891 04-10-2011 18:15:02 21.5 C 8.3 g/m*3 21.5 C 0 km/h
1892 04-10-2011 18:27:02 19.8 C 8.54 g/m*3 19.8 C 0 km/h
1893 04-10-2011 18:39:02 19.2 C 8.74 g/m*3 19.2 C 0 km/h
1894 04-10-2011 18:51:02 19.3 C 8.79 g/m*3 19.3 C 0 km/h
1895 04-10-2011 19:03:02 19.3 C 8.79 g/m*3 19.3 C 0 km/h
1896 04-10-2011 19:15:02 19.1 C 9.02 g/m*3 19.1 C 0 km/h
1897 04-10-2011 19:27:03 19.3 C 8.96 g/m*3 19.3 C 0 km/h
1898 04-10-2011 19:39:01 19.1 C 8.69 g/m*3 19.1 C 0 km/h
1899 04-10-2011 19:51:02 18.2 C 8.86 g/m*3 18.2 C 0 km/h
1900 04-10-2011 20:03:01 17.9 C 9.16 g/m*3 17.9 C 0 km/h
Sensor: Nr:Datum:Temp:Abs-Feuchte:Windchill:Wind:
Aussen-T/F 1901 04-10-2011 20:15:02 18.5 C 9.02 g/m*3 18.5 C 0 km/h
1902 04-10-2011 20:27:02 18.5 C 8.86 g/m*3 18.5 C 0 km/h
1903 04-10-2011 20:39:02 18.3 C 9.07 g/m*3 18.3 C 0 km/h
1904 04-10-2011 20:51:03 18.4 C 8.97 g/m*3 18.4 C 0 km/h
1905 04-10-2011 21:03:09 18.6 C 8.75 g/m*3 18.6 C 0 km/h
1906 04-10-2011 21:16:03 18.2 C 8.86 g/m*3 18.2 C 0 km/h
1907 04-10-2011 21:28:03 18.2 C 8.86 g/m*3 18.2 C 0 km/h
1908 04-10-2011 21:40:03 18.2 C 8.86 g/m*3 18.2 C 0 km/h
1909 04-10-2011 21:52:03 18.2 C 8.86 g/m*3 18.2 C 0 km/h
1910 04-10-2011 22:04:03 18.1 C 9.12 g/m*3 18.1 C 0 km/h
1911 04-10-2011 22:16:03 18 C 9.22 g/m*3 18 C 0 km/h
1912 04-10-2011 22:28:03 17.5 C 9.39 g/m*3 17.5 C 0 km/h
1913 04-10-2011 22:40:03 16.8 C 9.58 g/m*3 16.8 C 0 km/h
1914 04-10-2011 22:52:03 16.9 C 9.92 g/m*3 16.9 C 0 km/h
1915 04-10-2011 23:04:03 17 C 9.69 g/m*3 17 C 0 km/h
1916 04-10-2011 23:16:03 17.1 C 9.61 g/m*3 17.1 C 0 km/h
1917 04-10-2011 23:28:03 17 C 9.69 g/m*3 17 C 0 km/h
1918 04-10-2011 23:40:03 16.9 C 9.64 g/m*3 16.9 C 0 km/h
1919 04-10-2011 23:52:03 16.8 C 9.58 g/m*3 16.8 C 0 km/h
1920 05-10-2011 00:04:03 16.8 C 9.72 g/m*3 16.8 C 0 km/h
1921 05-10-2011 00:16:03 16.8 C 9.58 g/m*3 16.8 C 0 km/h
1922 05-10-2011 00:28:03 16.8 C 9.58 g/m*3 16.8 C 0 km/h
1923 05-10-2011 00:40:04 16.8 C 9.58 g/m*3 16.8 C 0 km/h
1924 05-10-2011 00:52:04 17 C 9.55 g/m*3 17 C 0 km/h
1925 05-10-2011 01:04:04 17.4 C 9.48 g/m*3 17.4 C 0 km/h
Sensor: Nr:Datum:Temp:Abs-Feuchte:Windchill:Wind:
Aussen-T/F 1926 05-10-2011 01:16:04 17.5 C 9.39 g/m*3 17.5 C 0 km/h
1927 05-10-2011 01:28:04 17.5 C 9.54 g/m*3 17.5 C 0 km/h
1928 05-10-2011 01:40:04 17.5 C 9.39 g/m*3 17.5 C 0 km/h
1929 05-10-2011 01:52:04 17.5 C 9.54 g/m*3 17.5 C 0 km/h
1930 05-10-2011 02:04:04 17.7 C 9.66 g/m*3 17.7 C 0 km/h
1931 05-10-2011 02:16:04 17.7 C 9.51 g/m*3 17.7 C 0 km/h
1932 05-10-2011 02:28:04 17.5 C 9.54 g/m*3 17.5 C 0 km/h
1933 05-10-2011 02:40:04 17.5 C 9.69 g/m*3 17.5 C 0 km/h
1934 05-10-2011 02:52:04 17.5 C 9.84 g/m*3 17.5 C 0 km/h
1935 05-10-2011 03:04:04 17.5 C 9.69 g/m*3 17.5 C 0 km/h
1936 05-10-2011 03:16:04 17.5 C 9.84 g/m*3 17.5 C 0 km/h
1937 05-10-2011 03:28:04 17.4 C 9.78 g/m*3 17.4 C 0 km/h
1938 05-10-2011 03:40:04 17.4 C 9.78 g/m*3 17.4 C 0 km/h
1939 05-10-2011 03:52:04 17.4 C 9.93 g/m*3 17.4 C 0 km/h
1940 05-10-2011 04:04:04 17.4 C 9.78 g/m*3 17.4 C 0 km/h
1941 05-10-2011 04:16:04 17.6 C 9.6 g/m*3 17.6 C 0 km/h
1942 05-10-2011 04:28:04 18 C 9.06 g/m*3 18 C 0 km/h
1943 05-10-2011 04:40:04 17.8 C 9.41 g/m*3 17.8 C 0 km/h
1944 05-10-2011 04:52:05 17.7 C 9.51 g/m*3 17.7 C 0 km/h
1945 05-10-2011 05:04:05 17.7 C 9.51 g/m*3 17.7 C 0 km/h
1946 05-10-2011 05:16:05 17.4 C 9.48 g/m*3 17.4 C 0 km/h
1947 05-10-2011 05:28:05 17.3 C 9.58 g/m*3 17.3 C 0 km/h
1948 05-10-2011 05:40:05 17.2 C 9.67 g/m*3 17.2 C 0 km/h
1949 05-10-2011 05:52:05 17.2 C 9.67 g/m*3 17.2 C 0 km/h
1950 05-10-2011 06:04:05 17.2 C 9.81 g/m*3 17.2 C 0 km/h
Sensor: Nr:Datum:Temp:Abs-Feuchte:Windchill:Wind:
Aussen-T/F 1951 05-10-2011 06:16:05 17.2 C 9.67 g/m*3 17.2 C 0 km/h
1952 05-10-2011 06:28:05 17.2 C 9.67 g/m*3 17.2 C 0 km/h
1953 05-10-2011 06:40:05 17.2 C 9.67 g/m*3 17.2 C 0 km/h
1954 05-10-2011 06:52:05 17.1 C 9.61 g/m*3 17.1 C 0 km/h
1955 05-10-2011 07:04:05 17 C 9.69 g/m*3 17 C 0 km/h
1956 05-10-2011 07:16:05 16.7 C 9.95 g/m*3 16.7 C 0 km/h
1957 05-10-2011 07:28:05 16.5 C 9.97 g/m*3 16.5 C 0 km/h
1958 05-10-2011 07:40:03 16.7 C 9.95 g/m*3 16.7 C 0 km/h
1959 05-10-2011 07:52:02 16.6 C 9.89 g/m*3 16.6 C 0 km/h
1960 05-10-2011 08:04:03 16.8 C 10.01 g/m*3 16.8 C 0 km/h
1961 05-10-2011 08:16:02 16.9 C 10.07 g/m*3 16.9 C 0 km/h
1962 05-10-2011 08:28:02 16.9 C 9.92 g/m*3 16.9 C 0 km/h
1963 05-10-2011 08:40:02 17.1 C 9.75 g/m*3 17.1 C 0 km/h
1964 05-10-2011 08:52:01 17.2 C 9.67 g/m*3 17.2 C 0 km/h
1965 05-10-2011 09:04:01 17.3 C 9.72 g/m*3 17.3 C 0 km/h
1966 05-10-2011 09:16:02 17.5 C 9.69 g/m*3 17.5 C 0 km/h
1967 05-10-2011 09:28:02 17.4 C 9.78 g/m*3 17.4 C 0 km/h
1968 05-10-2011 09:40:01 16.1 C 10.01 g/m*3 16.1 C 0 km/h
1969 05-10-2011 09:52:02 15.9 C 10.43 g/m*3 15.9 C 0 km/h
1970 05-10-2011 10:04:02 16.2 C 10.62 g/m*3 16.2 C 0 km/h
1971 05-10-2011 10:16:02 16.9 C 10.5 g/m*3 16.9 C 0 km/h
1972 05-10-2011 10:28:02 17.2 C 10.4 g/m*3 17.2 C 0 km/h
1973 05-10-2011 10:40:02 17.5 C 10.29 g/m*3 17.5 C 0 km/h
1974 05-10-2011 10:52:02 17.9 C 9.92 g/m*3 17.9 C 0 km/h
1975 05-10-2011 11:04:01 17.9 C 9.92 g/m*3 17.9 C 0 km/h
Sensor: Nr:Datum:Temp:Abs-Feuchte:Windchill:Wind:
Aussen-T/F 1976 05-10-2011 11:16:02 18.3 C 9.85 g/m*3 18.3 C 0 km/h
1977 05-10-2011 11:28:02 18.5 C 9.81 g/m*3 18.5 C 0 km/h
1978 05-10-2011 11:40:02 18.5 C 9.49 g/m*3 18.5 C 0 km/h
1979 05-10-2011 11:52:02 18.5 C 9.65 g/m*3 18.5 C 0 km/h
1980 05-10-2011 12:04:02 18.8 C 9.34 g/m*3 18.8 C 0 km/h
1981 05-10-2011 12:16:02 19.3 C 8.96 g/m*3 19.3 C 0 km/h
1982 05-10-2011 12:28:02 20.1 C 9.04 g/m*3 20.1 C 0 km/h
1983 05-10-2011 12:40:02 20.6 C 8.95 g/m*3 20.6 C 0 km/h
1984 05-10-2011 12:52:01 19.8 C 8.71 g/m*3 19.8 C 0 km/h
1985 05-10-2011 13:04:02 19.5 C 8.56 g/m*3 19.5 C 0 km/h
1986 05-10-2011 13:16:01 19.5 C 8.39 g/m*3 19.5 C 0 km/h
1987 05-10-2011 13:28:01 19.8 C 8.03 g/m*3 19.8 C 0 km/h
1988 05-10-2011 13:40:01 20.1 C 7.65 g/m*3 20.1 C 0 km/h
1989 05-10-2011 13:52:01 20.4 C 7.78 g/m*3 20.4 C 0 km/h
1990 05-10-2011 14:04:01 20.3 C 7.56 g/m*3 20.3 C 0 km/h
1991 05-10-2011 14:16:02 20.5 C 7.65 g/m*3 20.5 C 0 km/h
1992 05-10-2011 14:28:02 20.6 C 7.7 g/m*3 20.6 C 0 km/h
1993 05-10-2011 14:40:01 20.5 C 7.65 g/m*3 20.5 C 0 km/h
1994 05-10-2011 14:52:03 20.4 C 7.78 g/m*3 20.4 C 0 km/h
1995 05-10-2011 15:04:02 20.8 C 7.97 g/m*3 20.8 C 0 km/h
1996 05-10-2011 15:16:02 21 C 7.69 g/m*3 21 C 0 km/h
1997 05-10-2011 15:28:02 20.7 C 7.74 g/m*3 20.7 C 0 km/h
1998 05-10-2011 15:40:02 21.1 C 7.92 g/m*3 21.1 C 0 km/h
1999 05-10-2011 15:52:02 20.7 C 7.92 g/m*3 20.7 C 0 km/h
2000 05-10-2011 16:04:02 20.8 C 7.79 g/m*3 20.8 C 0 km/h
Sensor: Nr:Datum:Temp:Abs-Feuchte:Windchill:Wind:
Aussen-T/F 2001 05-10-2011 16:16:02 21.1 C 7.74 g/m*3 21.1 C 0 km/h
2002 05-10-2011 16:28:02 22 C 7.96 g/m*3 22 C 0 km/h
2003 05-10-2011 16:40:02 20.9 C 7.65 g/m*3 20.9 C 0 km/h
2004 05-10-2011 16:52:01 20.4 C 7.61 g/m*3 20.4 C 0 km/h
2005 05-10-2011 17:04:02 20.3 C 7.74 g/m*3 20.3 C 0 km/h
2006 05-10-2011 17:16:01 20.4 C 7.61 g/m*3 20.4 C 0 km/h
2007 05-10-2011 17:28:01 20.2 C 7.69 g/m*3 20.2 C 0 km/h
2008 05-10-2011 17:40:02 20 C 7.78 g/m*3 20 C 0 km/h
2009 05-10-2011 17:52:02 19.9 C 7.9 g/m*3 19.9 C 0 km/h
2010 05-10-2011 18:04:02 19.7 C 7.98 g/m*3 19.7 C 0 km/h
2011 05-10-2011 18:16:01 19.6 C 7.93 g/m*3 19.6 C 0 km/h
2012 05-10-2011 18:28:01 19.4 C 8.01 g/m*3 19.4 C 0 km/h
2013 05-10-2011 18:40:02 19.2 C 8.08 g/m*3 19.2 C 0 km/h
2014 05-10-2011 18:52:01 19 C 7.99 g/m*3 19 C 0 km/h
2015 05-10-2011 19:04:02 18.9 C 8.26 g/m*3 18.9 C 0 km/h
2016 05-10-2011 19:16:02 18.6 C 8.28 g/m*3 18.6 C 0 km/h
2017 05-10-2011 19:28:02 18.5 C 8.23 g/m*3 18.5 C 0 km/h
2018 05-10-2011 19:40:02 18.4 C 8.18 g/m*3 18.4 C 0 km/h
2019 05-10-2011 19:52:01 18.4 C 8.18 g/m*3 18.4 C 0 km/h
2020 05-10-2011 20:04:02 18.4 C 8.34 g/m*3 18.4 C 0 km/h
2021 05-10-2011 20:16:02 18 C 8.29 g/m*3 18 C 0 km/h
2022 05-10-2011 20:28:02 17.6 C 8.4 g/m*3 17.6 C 0 km/h
2023 05-10-2011 20:40:01 17.2 C 8.64 g/m*3 17.2 C 0 km/h
2024 05-10-2011 20:52:02 16.7 C 8.53 g/m*3 16.7 C 0 km/h
2025 05-10-2011 21:04:01 16.3 C 8.74 g/m*3 16.3 C 0 km/h
Sensor: Nr:Datum:Temp:Abs-Feuchte:Windchill:Wind:
Aussen-T/F 2026 05-10-2011 21:17:01 15.8 C 8.75 g/m*3 15.8 C 0 km/h
2027 05-10-2011 21:29:01 15.7 C 8.83 g/m*3 15.7 C 0 km/h
2028 05-10-2011 21:41:01 16 C 8.86 g/m*3 16 C 0 km/h
2029 05-10-2011 21:53:01 16.1 C 8.91 g/m*3 16.1 C 0 km/h
2030 05-10-2011 22:05:02 15.3 C 8.75 g/m*3 15.3 C 0 km/h
2031 05-10-2011 22:17:02 15 C 8.85 g/m*3 15 C 0 km/h
2032 05-10-2011 22:29:02 15 C 8.72 g/m*3 15 C 0 km/h
2033 05-10-2011 22:41:02 14.7 C 8.94 g/m*3 14.7 C 0 km/h
2034 05-10-2011 22:53:02 14.8 C 8.99 g/m*3 14.8 C 0 km/h
2035 05-10-2011 23:05:02 14.7 C 9.07 g/m*3 14.7 C 0 km/h
2036 05-10-2011 23:17:02 14.8 C 9.12 g/m*3 14.8 C 0 km/h
2037 05-10-2011 23:29:02 14.5 C 8.95 g/m*3 14.5 C 0 km/h
2038 05-10-2011 23:41:02 14.5 C 9.08 g/m*3 14.5 C 0 km/h
2039 05-10-2011 23:53:02 14.4 C 8.9 g/m*3 14.4 C 0 km/h
2040 06-10-2011 00:05:02 13.9 C 8.87 g/m*3 13.9 C 0 km/h
2041 06-10-2011 00:17:02 13.1 C 8.67 g/m*3 13.1 C 0 km/h
2042 06-10-2011 00:29:02 12.8 C 8.96 g/m*3 12.8 C 0 km/h
2043 06-10-2011 00:41:02 12.8 C 9.07 g/m*3 12.8 C 0 km/h
2044 06-10-2011 00:53:02 12.5 C 8.91 g/m*3 12.5 C 0 km/h
2045 06-10-2011 01:05:02 12.4 C 9.07 g/m*3 12.4 C 0 km/h
2046 06-10-2011 01:17:02 13 C 9.41 g/m*3 13 C 0 km/h
2047 06-10-2011 01:29:02 12.9 C 9.47 g/m*3 12.9 C 0 km/h
2048 06-10-2011 01:41:02 13 C 9.41 g/m*3 13 C 0 km/h
2049 06-10-2011 01:53:02 13.2 C 9.64 g/m*3 13.2 C 0 km/h
2050 06-10-2011 02:05:03 13.7 C 9.83 g/m*3 13.7 C 0 km/h
Sensor: Nr:Datum:Temp:Abs-Feuchte:Windchill:Wind:
Aussen-T/F 2051 06-10-2011 02:17:03 13.9 C 9.59 g/m*3 13.9 C 0 km/h
2052 06-10-2011 02:29:03 14 C 9.41 g/m*3 14 C 0 km/h
2053 06-10-2011 02:41:03 14.3 C 9.21 g/m*3 14.3 C 0 km/h
2054 06-10-2011 02:53:03 14 C 9.17 g/m*3 14 C 0 km/h
2055 06-10-2011 03:05:03 14.1 C 9.22 g/m*3 14.1 C 0 km/h
2056 06-10-2011 03:17:03 14.5 C 8.58 g/m*3 14.5 C 0 km/h
2057 06-10-2011 03:29:03 14.4 C 8.53 g/m*3 14.4 C 0 km/h
2058 06-10-2011 03:41:03 14.3 C 8.23 g/m*3 14.3 C 0 km/h
2059 06-10-2011 03:53:03 14.4 C 8.41 g/m*3 14.4 C 0 km/h
2060 06-10-2011 04:05:03 14.1 C 8.25 g/m*3 14.1 C 0 km/h
2061 06-10-2011 04:17:03 14 C 8.56 g/m*3 14 C 0 km/h
2062 06-10-2011 04:29:03 13.7 C 8.53 g/m*3 13.7 C 0 km/h
2063 06-10-2011 04:41:03 14.3 C 8.48 g/m*3 14.3 C 0 km/h
2064 06-10-2011 04:53:03 14.5 C 8.33 g/m*3 14.5 C 0 km/h
2065 06-10-2011 05:05:03 15.3 C 8.23 g/m*3 15.3 C 0 km/h
2066 06-10-2011 05:17:03 15 C 7.95 g/m*3 15 C 0 km/h
2067 06-10-2011 05:29:03 15.4 C 8.15 g/m*3 15.4 C 0 km/h
2068 06-10-2011 05:41:03 15.5 C 8.2 g/m*3 15.5 C 0 km/h
2069 06-10-2011 05:53:03 15.5 C 8.06 g/m*3 15.5 C 0 km/h
2070 06-10-2011 06:05:02 15.6 C 8.11 g/m*3 15.6 C 0 km/h
2071 06-10-2011 06:17:01 15.8 C 8.08 g/m*3 15.8 C 0 km/h
2072 06-10-2011 06:29:01 16.4 C 7.96 g/m*3 16.4 C 0 km/h
2073 06-10-2011 06:41:01 16.4 C 7.96 g/m*3 16.4 C 0 km/h
2074 06-10-2011 06:53:02 17 C 7.96 g/m*3 17 C 0 km/h
2075 06-10-2011 07:05:02 16.8 C 8.01 g/m*3 16.8 C 0 km/h
Sensor: Nr:Datum:Temp:Abs-Feuchte:Windchill:Wind:
Aussen-T/F 2076 06-10-2011 07:17:01 16.8 C 8.01 g/m*3 16.8 C 0 km/h
2077 06-10-2011 07:29:01 17 C 7.81 g/m*3 17 C 0 km/h
2078 06-10-2011 07:41:02 17 C 7.81 g/m*3 17 C 0 km/h
2079 06-10-2011 07:53:02 16.9 C 7.91 g/m*3 16.9 C 0 km/h
2080 06-10-2011 08:05:02 16.8 C 8.01 g/m*3 16.8 C 0 km/h
2081 06-10-2011 08:17:02 16.9 C 8.05 g/m*3 16.9 C 0 km/h
2082 06-10-2011 08:29:02 16.8 C 8.01 g/m*3 16.8 C 0 km/h
2083 06-10-2011 08:41:02 16.8 C 8.01 g/m*3 16.8 C 0 km/h
2084 06-10-2011 08:53:02 16.8 C 8.01 g/m*3 16.8 C 0 km/h
2085 06-10-2011 09:05:02 16.8 C 8.15 g/m*3 16.8 C 0 km/h
2086 06-10-2011 09:17:02 16.9 C 8.2 g/m*3 16.9 C 0 km/h
2087 06-10-2011 09:29:02 17 C 7.96 g/m*3 17 C 0 km/h
2088 06-10-2011 09:41:02 17.4 C 8.15 g/m*3 17.4 C 0 km/h
2089 06-10-2011 09:53:02 17.5 C 8.05 g/m*3 17.5 C 0 km/h
2090 06-10-2011 10:05:02 17.7 C 8.15 g/m*3 17.7 C 0 km/h
2091 06-10-2011 10:17:03 17.9 C 8.09 g/m*3 17.9 C 0 km/h
2092 06-10-2011 10:29:03 17.9 C 8.09 g/m*3 17.9 C 0 km/h
2093 06-10-2011 10:41:02 17.9 C 8.09 g/m*3 17.9 C 0 km/h
2094 06-10-2011 10:53:01 18 C 7.99 g/m*3 18 C 0 km/h
2095 06-10-2011 11:05:01 18.4 C 8.02 g/m*3 18.4 C 0 km/h
2096 06-10-2011 11:17:02 18.3 C 7.97 g/m*3 18.3 C 0 km/h
2097 06-10-2011 11:29:02 18.5 C 8.07 g/m*3 18.5 C 0 km/h
2098 06-10-2011 11:41:01 18.5 C 8.07 g/m*3 18.5 C 0 km/h
2099 06-10-2011 11:53:02 18.7 C 8.17 g/m*3 18.7 C 0 km/h
2100 06-10-2011 12:05:01 19 C 8.15 g/m*3 19 C 0 km/h
Sensor: Nr:Datum:Temp:Abs-Feuchte:Windchill:Wind:
Aussen-T/F 2101 06-10-2011 12:17:01 19.5 C 8.22 g/m*3 19.5 C 0 km/h
2102 06-10-2011 12:29:01 19.8 C 8.2 g/m*3 19.8 C 0 km/h
2103 06-10-2011 12:41:02 19.8 C 8.37 g/m*3 19.8 C 0 km/h
2104 06-10-2011 12:53:02 19.3 C 8.13 g/m*3 19.3 C 0 km/h
2105 06-10-2011 13:05:02 18.8 C 8.37 g/m*3 18.8 C 0 km/h
2106 06-10-2011 13:17:02 19 C 8.47 g/m*3 19 C 0 km/h
2107 06-10-2011 13:29:02 19.1 C 8.52 g/m*3 19.1 C 0 km/h
2108 06-10-2011 13:41:02 18.5 C 8.7 g/m*3 18.5 C 0 km/h
2109 06-10-2011 13:53:02 18.3 C 8.91 g/m*3 18.3 C 0 km/h
2110 06-10-2011 14:05:02 17.6 C 9.15 g/m*3 17.6 C 0 km/h
2111 06-10-2011 14:17:02 18.4 C 9.12 g/m*3 18.4 C 0 km/h
2112 06-10-2011 14:29:02 18.1 C 9.12 g/m*3 18.1 C 0 km/h
2113 06-10-2011 14:41:01 17.6 C 9.3 g/m*3 17.6 C 0 km/h
2114 06-10-2011 14:53:02 16.9 C 9.78 g/m*3 16.9 C 0 km/h
2115 06-10-2011 15:05:01 17.1 C 9.9 g/m*3 17.1 C 0 km/h
2116 06-10-2011 15:17:02 17.3 C 9.72 g/m*3 17.3 C 0 km/h
2117 06-10-2011 15:29:02 17 C 9.84 g/m*3 17 C 0 km/h
2118 06-10-2011 15:41:03 14.3 C 9.09 g/m*3 14.3 C 0 km/h
2119 06-10-2011 15:53:02 13 C 8.96 g/m*3 13 C 0 km/h
2120 06-10-2011 16:05:02 12.5 C 8.47 g/m*3 12.5 C 0 km/h
2121 06-10-2011 16:17:02 11.7 C 8.26 g/m*3 11.7 C 0 km/h
2122 06-10-2011 16:29:02 11.4 C 8.31 g/m*3 11.4 C 0 km/h
2123 06-10-2011 16:41:02 11.4 C 8.52 g/m*3 11.4 C 0 km/h
2124 06-10-2011 16:53:01 11.2 C 8.41 g/m*3 11.2 C 0 km/h
2125 06-10-2011 17:05:01 11 C 8.31 g/m*3 11 C 0 km/h
Sensor: Nr:Datum:Temp:Abs-Feuchte:Windchill:Wind:
Aussen-T/F 2126 06-10-2011 17:17:01 10.9 C 8.36 g/m*3 10.9 C 0 km/h
2127 06-10-2011 17:29:01 10.8 C 8.3 g/m*3 10.8 C 0 km/h
2128 06-10-2011 17:41:01 10.8 C 8.3 g/m*3 10.8 C 0 km/h
2129 06-10-2011 17:53:02 10.8 C 8.3 g/m*3 10.8 C 0 km/h
2130 06-10-2011 18:05:02 10.9 C 8.36 g/m*3 10.9 C 0 km/h
2131 06-10-2011 18:17:03 10.9 C 8.26 g/m*3 10.9 C 0 km/h
2132 06-10-2011 18:29:03 10.9 C 8.26 g/m*3 10.9 C 0 km/h
2133 06-10-2011 18:41:02 10.8 C 8.2 g/m*3 10.8 C 0 km/h
2134 06-10-2011 18:53:02 10.7 C 8.15 g/m*3 10.7 C 0 km/h
2135 06-10-2011 19:05:01 10.6 C 8.2 g/m*3 10.6 C 0 km/h
2136 06-10-2011 19:17:02 10.5 C 8.24 g/m*3 10.5 C 0 km/h
2137 06-10-2011 19:29:03 10.4 C 8.19 g/m*3 10.4 C 0 km/h
2138 06-10-2011 19:41:01 10.4 C 8.29 g/m*3 10.4 C 0 km/h
2139 06-10-2011 19:53:02 10.5 C 8.34 g/m*3 10.5 C 0 km/h
2140 06-10-2011 20:05:02 10.7 C 8.45 g/m*3 10.7 C 0 km/h
2141 06-10-2011 20:17:02 10.6 C 8.1 g/m*3 10.6 C 0 km/h
2142 06-10-2011 20:29:02 10.4 C 7.9 g/m*3 10.4 C 0 km/h
2143 06-10-2011 20:41:03 10.2 C 7.52 g/m*3 10.2 C 0 km/h
2144 06-10-2011 20:53:02 9.8 C 7.52 g/m*3 9.8 C 0 km/h
2145 06-10-2011 21:05:02 9.5 C 7.55 g/m*3 9.5 C 0 km/h
2146 06-10-2011 21:17:02 9.2 C 7.5 g/m*3 9.2 C 0 km/h
2147 06-10-2011 21:29:02 9 C 7.49 g/m*3 9 C 0 km/h
2148 06-10-2011 21:41:02 9 C 7.49 g/m*3 9 C 0 km/h
2149 06-10-2011 21:53:02 9 C 7.58 g/m*3 9 C 0 km/h
2150 06-10-2011 22:05:02 9.1 C 7.63 g/m*3 9.1 C 0 km/h
Sensor: Nr:Datum:Temp:Abs-Feuchte:Windchill:Wind:
Aussen-T/F 2151 06-10-2011 22:17:02 9.6 C 7.69 g/m*3 9.6 C 0 km/h
2152 06-10-2011 22:29:02 9.2 C 7.32 g/m*3 9.2 C 0 km/h
2153 06-10-2011 22:41:02 8.8 C 7.31 g/m*3 8.8 C 0 km/h
2154 06-10-2011 22:53:01 8.6 C 7.22 g/m*3 8.6 C 0 km/h
2155 06-10-2011 23:05:02 8.5 C 7.26 g/m*3 8.5 C 0 km/h
2156 06-10-2011 23:17:01 8.9 C 7.36 g/m*3 8.9 C 0 km/h
2157 06-10-2011 23:29:01 9.2 C 6.88 g/m*3 9.2 C 0 km/h
2158 06-10-2011 23:41:01 9.3 C 6.2 g/m*3 9.3 C 0 km/h
2159 06-10-2011 23:53:01 9.2 C 5.98 g/m*3 9.2 C 0 km/h
2160 07-10-2011 00:05:02 8.5 C 6.23 g/m*3 8.5 C 0 km/h
2161 07-10-2011 00:17:01 8.3 C 6.24 g/m*3 8.3 C 0 km/h
2162 07-10-2011 00:29:01 8.4 C 6.28 g/m*3 8.4 C 0 km/h
2163 07-10-2011 00:41:02 8.3 C 6.24 g/m*3 8.3 C 0 km/h
2164 07-10-2011 00:53:02 8.5 C 6.23 g/m*3 8.5 C 0 km/h
2165 07-10-2011 01:05:02 7.5 C 6.24 g/m*3 7.5 C 0 km/h
2166 07-10-2011 01:17:02 7.5 C 6.4 g/m*3 7.5 C 0 km/h
2167 07-10-2011 01:29:02 8 C 6.45 g/m*3 8 C 0 km/h
2168 07-10-2011 01:41:02 8.9 C 6.48 g/m*3 8.9 C 0 km/h
2169 07-10-2011 01:53:01 9.1 C 6.21 g/m*3 9.1 C 0 km/h
2170 07-10-2011 02:05:01 8.3 C 6.15 g/m*3 8.3 C 0 km/h
2171 07-10-2011 02:17:01 8.3 C 6.32 g/m*3 8.3 C 0 km/h
2172 07-10-2011 02:29:01 8.1 C 6.32 g/m*3 8.1 C 0 km/h
2173 07-10-2011 02:41:01 8.2 C 6.36 g/m*3 8.2 C 0 km/h
2174 07-10-2011 02:54:02 8.9 C 6.22 g/m*3 8.9 C 0 km/h
2175 07-10-2011 03:06:02 8.9 C 6.22 g/m*3 8.9 C 0 km/h
Sensor: Nr:Datum:Temp:Abs-Feuchte:Windchill:Wind:
Aussen-T/F 2176 07-10-2011 03:18:03 8.8 C 6.18 g/m*3 8.8 C 0 km/h
2177 07-10-2011 03:30:03 8.8 C 6.27 g/m*3 8.8 C 0 km/h
2178 07-10-2011 03:42:02 8.9 C 6.31 g/m*3 8.9 C 0 km/h
2179 07-10-2011 03:54:02 8.9 C 6.22 g/m*3 8.9 C 0 km/h
2180 07-10-2011 04:06:02 9 C 5.99 g/m*3 9 C 0 km/h
2181 07-10-2011 04:18:02 8.4 C 6.02 g/m*3 8.4 C 0 km/h
2182 07-10-2011 04:30:02 7.9 C 6.32 g/m*3 7.9 C 0 km/h
2183 07-10-2011 04:42:02 7.7 C 6.41 g/m*3 7.7 C 0 km/h
2184 07-10-2011 04:54:02 8 C 6.53 g/m*3 8 C 0 km/h
2185 07-10-2011 05:06:02 8.1 C 6.49 g/m*3 8.1 C 0 km/h
2186 07-10-2011 05:18:02 8.4 C 6.36 g/m*3 8.4 C 0 km/h
2187 07-10-2011 05:30:02 8.1 C 6.32 g/m*3 8.1 C 0 km/h
2188 07-10-2011 05:42:02 8.7 C 6.31 g/m*3 8.7 C 0 km/h
2189 07-10-2011 05:54:02 8.5 C 6.4 g/m*3 8.5 C 0 km/h
2190 07-10-2011 06:06:02 8.3 C 6.49 g/m*3 8.3 C 0 km/h
2191 07-10-2011 06:18:02 8.2 C 6.62 g/m*3 8.2 C 0 km/h
2192 07-10-2011 06:30:02 8.4 C 6.7 g/m*3 8.4 C 0 km/h
2193 07-10-2011 06:42:01 8.3 C 6.49 g/m*3 8.3 C 0 km/h
2194 07-10-2011 06:54:02 8 C 6.45 g/m*3 8 C 0 km/h
2195 07-10-2011 07:06:01 8.2 C 6.53 g/m*3 8.2 C 0 km/h
2196 07-10-2011 07:18:01 8.7 C 6.31 g/m*3 8.7 C 0 km/h
2197 07-10-2011 07:30:01 8.8 C 6.35 g/m*3 8.8 C 0 km/h
2198 07-10-2011 07:42:02 8.5 C 6.23 g/m*3 8.5 C 0 km/h
2199 07-10-2011 07:54:02 8 C 6.28 g/m*3 8 C 0 km/h
2200 07-10-2011 08:06:02 7.6 C 6.04 g/m*3 7.6 C 0 km/h
Sensor: Nr:Datum:Temp:Abs-Feuchte:Windchill:Wind:
Aussen-T/F 2201 07-10-2011 08:18:01 7.3 C 6 g/m*3 7.3 C 0 km/h
2202 07-10-2011 08:30:01 7.5 C 5.92 g/m*3 7.5 C 0 km/h
2203 07-10-2011 08:42:02 7.5 C 5.76 g/m*3 7.5 C 0 km/h
2204 07-10-2011 08:54:01 7.5 C 5.84 g/m*3 7.5 C 0 km/h
2205 07-10-2011 09:06:02 8.1 C 5.91 g/m*3 8.1 C 0 km/h
2206 07-10-2011 09:18:02 8.5 C 5.72 g/m*3 8.5 C 0 km/h
2207 07-10-2011 09:30:02 8.6 C 5.76 g/m*3 8.6 C 0 km/h
2208 07-10-2011 09:42:02 8.7 C 5.62 g/m*3 8.7 C 0 km/h
2209 07-10-2011 09:54:02 9.3 C 5.66 g/m*3 9.3 C 0 km/h
2210 07-10-2011 10:06:01 9.4 C 5.88 g/m*3 9.4 C 0 km/h
2211 07-10-2011 10:18:02 8.9 C 6.04 g/m*3 8.9 C 0 km/h
2212 07-10-2011 10:30:02 9.8 C 6.12 g/m*3 9.8 C 0 km/h
2213 07-10-2011 10:42:01 10 C 6.01 g/m*3 10 C 0 km/h
2214 07-10-2011 10:54:02 10.5 C 6.21 g/m*3 10.5 C 0 km/h
2215 07-10-2011 11:06:02 10.6 C 5.95 g/m*3 10.6 C 0 km/h
2216 07-10-2011 11:18:02 10.5 C 5.82 g/m*3 10.5 C 0 km/h
2217 07-10-2011 11:30:02 9.7 C 5.99 g/m*3 9.7 C 0 km/h
2218 07-10-2011 11:42:02 10.4 C 5.98 g/m*3 10.4 C 0 km/h
2219 07-10-2011 11:54:02 10.2 C 6.09 g/m*3 10.2 C 0 km/h
2220 07-10-2011 12:06:02 10.5 C 5.92 g/m*3 10.5 C 0 km/h
2221 07-10-2011 12:18:01 10.1 C 6.05 g/m*3 10.1 C 0 km/h
2222 07-10-2011 12:30:01 11.1 C 6.04 g/m*3 11.1 C 0 km/h
2223 07-10-2011 12:42:02 11.4 C 5.95 g/m*3 11.4 C 0 km/h
2224 07-10-2011 12:54:01 12.2 C 5.83 g/m*3 12.2 C 0 km/h
2225 07-10-2011 13:06:02 12.4 C 5.68 g/m*3 12.4 C 0 km/h
Sensor: Nr:Datum:Temp:Abs-Feuchte:Windchill:Wind:
Aussen-T/F 2226 07-10-2011 13:18:01 12.6 C 5.97 g/m*3 12.6 C 0 km/h
2227 07-10-2011 13:30:01 12.7 C 5.68 g/m*3 12.7 C 0 km/h
2228 07-10-2011 13:42:01 13 C 5.78 g/m*3 13 C 0 km/h
2229 07-10-2011 13:54:01 12.5 C 5.72 g/m*3 12.5 C 0 km/h
2230 07-10-2011 14:06:02 13 C 5.78 g/m*3 13 C 0 km/h
2231 07-10-2011 14:18:02 12.2 C 5.83 g/m*3 12.2 C 0 km/h
2232 07-10-2011 14:30:02 11.1 C 6.35 g/m*3 11.1 C 0 km/h
2233 07-10-2011 14:42:01 11.2 C 6.49 g/m*3 11.2 C 0 km/h
2234 07-10-2011 14:54:02 10.4 C 6.65 g/m*3 10.4 C 0 km/h
2235 07-10-2011 15:06:01 10.2 C 6.95 g/m*3 10.2 C 0 km/h
2236 07-10-2011 15:18:01 10.8 C 7.41 g/m*3 10.8 C 0 km/h
2237 07-10-2011 15:30:02 11.3 C 7.14 g/m*3 11.3 C 0 km/h
2238 07-10-2011 15:42:01 11.6 C 6.34 g/m*3 11.6 C 0 km/h
2239 07-10-2011 15:54:03 11.7 C 5.86 g/m*3 11.7 C 0 km/h
2240 07-10-2011 16:06:02 11.7 C 5.75 g/m*3 11.7 C 0 km/h
2241 07-10-2011 16:18:02 11.8 C 5.79 g/m*3 11.8 C 0 km/h
2242 07-10-2011 16:30:03 12.2 C 5.94 g/m*3 12.2 C 0 km/h
2243 07-10-2011 16:42:02 12.3 C 6.08 g/m*3 12.3 C 0 km/h
2244 07-10-2011 16:54:02 13.7 C 5.8 g/m*3 13.7 C 0 km/h
2245 07-10-2011 17:06:01 15.3 C 6.01 g/m*3 15.3 C 0 km/h
2246 07-10-2011 17:18:02 12.6 C 6.08 g/m*3 12.6 C 0 km/h
2247 07-10-2011 17:30:02 12.4 C 6.34 g/m*3 12.4 C 0 km/h
2248 07-10-2011 17:42:02 12 C 6.39 g/m*3 12 C 0 km/h
2249 07-10-2011 17:54:02 11.9 C 6.67 g/m*3 11.9 C 0 km/h
2250 07-10-2011 18:06:03 11.9 C 6.67 g/m*3 11.9 C 0 km/h
Sensor: Nr:Datum:Temp:Abs-Feuchte:Windchill:Wind:
Aussen-T/F 2251 07-10-2011 18:18:02 11.8 C 6.63 g/m*3 11.8 C 0 km/h
2252 07-10-2011 18:30:02 11.8 C 6.1 g/m*3 11.8 C 0 km/h
2253 07-10-2011 18:42:02 12 C 5.65 g/m*3 12 C 0 km/h
2254 07-10-2011 18:54:01 12 C 5.33 g/m*3 12 C 0 km/h
2255 07-10-2011 19:06:02 12 C 5.33 g/m*3 12 C 0 km/h
2256 07-10-2011 19:18:01 11.5 C 5.37 g/m*3 11.5 C 0 km/h
2257 07-10-2011 19:30:01 11.8 C 5.47 g/m*3 11.8 C 0 km/h
2258 07-10-2011 19:42:01 11.4 C 5.65 g/m*3 11.4 C 0 km/h
2259 07-10-2011 19:54:01 11.8 C 5.37 g/m*3 11.8 C 0 km/h
2260 07-10-2011 20:06:01 11.3 C 5.61 g/m*3 11.3 C 0 km/h
2261 07-10-2011 20:18:02 11.1 C 5.64 g/m*3 11.1 C 0 km/h
2262 07-10-2011 20:30:02 10.9 C 5.77 g/m*3 10.9 C 0 km/h
2263 07-10-2011 20:42:01 10.7 C 5.89 g/m*3 10.7 C 0 km/h
2264 07-10-2011 20:54:03 11.4 C 5.65 g/m*3 11.4 C 0 km/h
2265 07-10-2011 21:06:02 11 C 5.71 g/m*3 11 C 0 km/h
2266 07-10-2011 21:18:03 10.4 C 5.88 g/m*3 10.4 C 0 km/h
2267 07-10-2011 21:30:03 10.2 C 6.09 g/m*3 10.2 C 0 km/h
2268 07-10-2011 21:42:02 10.1 C 6.34 g/m*3 10.1 C 0 km/h
2269 07-10-2011 21:54:03 9.4 C 6.6 g/m*3 9.4 C 0 km/h
2270 07-10-2011 22:06:02 9.2 C 6.79 g/m*3 9.2 C 0 km/h
2271 07-10-2011 22:18:02 8.8 C 6.88 g/m*3 8.8 C 0 km/h
2272 07-10-2011 22:30:02 8.9 C 7.01 g/m*3 8.9 C 0 km/h
2273 07-10-2011 22:43:01 9.1 C 6.92 g/m*3 9.1 C 0 km/h
2274 07-10-2011 22:55:01 9.2 C 6.88 g/m*3 9.2 C 0 km/h
2275 07-10-2011 23:07:01 9.6 C 6.69 g/m*3 9.6 C 0 km/h
Sensor: Nr:Datum:Temp:Abs-Feuchte:Windchill:Wind:
Aussen-T/F 2276 07-10-2011 23:19:01 9.6 C 6.6 g/m*3 9.6 C 0 km/h
2277 07-10-2011 23:31:01 9.5 C 6.46 g/m*3 9.5 C 0 km/h
2278 07-10-2011 23:43:01 9.6 C 6.6 g/m*3 9.6 C 0 km/h
2279 07-10-2011 23:55:01 9.3 C 6.47 g/m*3 9.3 C 0 km/h
2280 08-10-2011 00:07:01 9.3 C 6.65 g/m*3 9.3 C 0 km/h
2281 08-10-2011 00:19:02 9 C 6.79 g/m*3 9 C 0 km/h
2282 08-10-2011 00:31:02 8.8 C 6.96 g/m*3 8.8 C 0 km/h
2283 08-10-2011 00:43:02 8.8 C 7.14 g/m*3 8.8 C 0 km/h
2284 08-10-2011 00:55:02 9.1 C 7.1 g/m*3 9.1 C 0 km/h
2285 08-10-2011 01:07:02 9.1 C 7.01 g/m*3 9.1 C 0 km/h
2286 08-10-2011 01:19:02 8.9 C 7.1 g/m*3 8.9 C 0 km/h
2287 08-10-2011 01:31:02 8.7 C 7.09 g/m*3 8.7 C 0 km/h
2288 08-10-2011 01:43:02 8.7 C 7.18 g/m*3 8.7 C 0 km/h
2289 08-10-2011 01:55:02 8.9 C 7.27 g/m*3 8.9 C 0 km/h
2290 08-10-2011 02:07:02 9.1 C 7.01 g/m*3 9.1 C 0 km/h
2291 08-10-2011 02:19:02 8.9 C 6.83 g/m*3 8.9 C 0 km/h
2292 08-10-2011 02:31:02 9 C 6.7 g/m*3 9 C 0 km/h
2293 08-10-2011 02:43:02 9 C 6.7 g/m*3 9 C 0 km/h
2294 08-10-2011 02:55:02 9 C 6.7 g/m*3 9 C 0 km/h
2295 08-10-2011 03:07:02 9.1 C 6.74 g/m*3 9.1 C 0 km/h
2296 08-10-2011 03:19:02 8.6 C 6.7 g/m*3 8.6 C 0 km/h
2297 08-10-2011 03:31:02 8.7 C 6.83 g/m*3 8.7 C 0 km/h
2298 08-10-2011 03:43:02 8.9 C 6.75 g/m*3 8.9 C 0 km/h
2299 08-10-2011 03:55:02 8.8 C 6.61 g/m*3 8.8 C 0 km/h
2300 08-10-2011 04:07:02 9 C 6.44 g/m*3 9 C 0 km/h
Sensor: Nr:Datum:Temp:Abs-Feuchte:Windchill:Wind:
Aussen-T/F 2301 08-10-2011 04:19:02 8.8 C 6.35 g/m*3 8.8 C 0 km/h
2302 08-10-2011 04:31:02 9.2 C 6.43 g/m*3 9.2 C 0 km/h
2303 08-10-2011 04:43:02 9 C 6.08 g/m*3 9 C 0 km/h
2304 08-10-2011 04:55:03 8.6 C 6.1 g/m*3 8.6 C 0 km/h
2305 08-10-2011 05:07:03 8.1 C 6.24 g/m*3 8.1 C 0 km/h
2306 08-10-2011 05:19:03 8.2 C 6.2 g/m*3 8.2 C 0 km/h
2307 08-10-2011 05:31:03 8.5 C 6.06 g/m*3 8.5 C 0 km/h
2308 08-10-2011 05:43:03 8.3 C 5.98 g/m*3 8.3 C 0 km/h
2309 08-10-2011 05:55:03 8.2 C 6.03 g/m*3 8.2 C 0 km/h
2310 08-10-2011 06:07:03 7.9 C 6.08 g/m*3 7.9 C 0 km/h
2311 08-10-2011 06:19:03 7.8 C 6.12 g/m*3 7.8 C 0 km/h
2312 08-10-2011 06:31:03 7.3 C 6.16 g/m*3 7.3 C 0 km/h
2313 08-10-2011 06:43:03 7.8 C 6.28 g/m*3 7.8 C 0 km/h
2314 08-10-2011 06:55:03 7.6 C 6.28 g/m*3 7.6 C 0 km/h
2315 08-10-2011 07:07:03 7.5 C 6.24 g/m*3 7.5 C 0 km/h
2316 08-10-2011 07:19:03 7.5 C 6.24 g/m*3 7.5 C 0 km/h
2317 08-10-2011 07:31:03 7.2 C 5.89 g/m*3 7.2 C 0 km/h
2318 08-10-2011 07:43:03 7.1 C 6.08 g/m*3 7.1 C 0 km/h
2319 08-10-2011 07:55:03 7.4 C 6.12 g/m*3 7.4 C 0 km/h
2320 08-10-2011 08:07:02 7.2 C 5.97 g/m*3 7.2 C 0 km/h
2321 08-10-2011 08:19:01 7.4 C 6.12 g/m*3 7.4 C 0 km/h
2322 08-10-2011 08:31:01 7.7 C 6.16 g/m*3 7.7 C 0 km/h
2323 08-10-2011 08:43:01 7.7 C 6.08 g/m*3 7.7 C 0 km/h
2324 08-10-2011 08:55:01 7.8 C 6.04 g/m*3 7.8 C 0 km/h
2325 08-10-2011 09:07:01 8.6 C 6.02 g/m*3 8.6 C 0 km/h
Sensor: Nr:Datum:Temp:Abs-Feuchte:Windchill:Wind:
Aussen-T/F 2326 08-10-2011 09:19:02 8.9 C 5.96 g/m*3 8.9 C 0 km/h
2327 08-10-2011 09:31:01 8.9 C 5.96 g/m*3 8.9 C 0 km/h
2328 08-10-2011 09:43:01 8.9 C 6.04 g/m*3 8.9 C 0 km/h
2329 08-10-2011 09:55:02 9.6 C 6.14 g/m*3 9.6 C 0 km/h
2330 08-10-2011 10:07:01 9.8 C 6.03 g/m*3 9.8 C 0 km/h
2331 08-10-2011 10:19:02 10.2 C 5.8 g/m*3 10.2 C 0 km/h
2332 08-10-2011 10:31:01 10.6 C 5.86 g/m*3 10.6 C 0 km/h
2333 08-10-2011 10:43:01 10.8 C 5.93 g/m*3 10.8 C 0 km/h
2334 08-10-2011 10:55:02 11.1 C 5.94 g/m*3 11.1 C 0 km/h
2335 08-10-2011 11:07:02 11.5 C 5.78 g/m*3 11.5 C 0 km/h
2336 08-10-2011 11:19:02 12 C 5.75 g/m*3 12 C 0 km/h
2337 08-10-2011 11:31:02 11.2 C 5.47 g/m*3 11.2 C 0 km/h
2338 08-10-2011 11:43:02 10.3 C 5.55 g/m*3 10.3 C 0 km/h
2339 08-10-2011 11:55:01 10.5 C 5.53 g/m*3 10.5 C 0 km/h
2340 08-10-2011 12:07:02 9.8 C 5.66 g/m*3 9.8 C 0 km/h
2341 08-10-2011 12:19:01 9.2 C 6.16 g/m*3 9.2 C 0 km/h
2342 08-10-2011 12:31:02 8.8 C 6.44 g/m*3 8.8 C 0 km/h
2343 08-10-2011 12:43:02 8.7 C 6.4 g/m*3 8.7 C 0 km/h
2344 08-10-2011 12:55:01 9.3 C 7.1 g/m*3 9.3 C 0 km/h
2345 08-10-2011 13:07:02 9.9 C 7.47 g/m*3 9.9 C 0 km/h
2346 08-10-2011 13:19:01 10.4 C 7.13 g/m*3 10.4 C 0 km/h
2347 08-10-2011 13:31:02 10.2 C 7.04 g/m*3 10.2 C 0 km/h
2348 08-10-2011 13:43:02 10.5 C 6.3 g/m*3 10.5 C 0 km/h
2349 08-10-2011 13:55:01 10.6 C 6.25 g/m*3 10.6 C 0 km/h
2350 08-10-2011 14:07:02 11.1 C 6.04 g/m*3 11.1 C 0 km/h
Sensor: Nr:Datum:Temp:Abs-Feuchte:Windchill:Wind:
Aussen-T/F 2351 08-10-2011 14:19:02 11.5 C 5.89 g/m*3 11.5 C 0 km/h
2352 08-10-2011 14:31:01 11.4 C 5.95 g/m*3 11.4 C 0 km/h
2353 08-10-2011 14:43:01 11.1 C 5.84 g/m*3 11.1 C 0 km/h
2354 08-10-2011 14:55:02 11.1 C 5.74 g/m*3 11.1 C 0 km/h
2355 08-10-2011 15:07:01 11.6 C 6.13 g/m*3 11.6 C 0 km/h
2356 08-10-2011 15:19:02 12.2 C 5.83 g/m*3 12.2 C 0 km/h
2357 08-10-2011 15:31:02 12.4 C 5.35 g/m*3 12.4 C 0 km/h
2358 08-10-2011 15:43:02 12.6 C 4.98 g/m*3 12.6 C 0 km/h
2359 08-10-2011 15:55:02 12.8 C 5.26 g/m*3 12.8 C 0 km/h
2360 08-10-2011 16:07:03 12.8 C 5.15 g/m*3 12.8 C 0 km/h
2361 08-10-2011 16:19:02 13 C 5.1 g/m*3 13 C 0 km/h
2362 08-10-2011 16:31:02 13.1 C 5.14 g/m*3 13.1 C 0 km/h
2363 08-10-2011 16:43:02 14.5 C 5.1 g/m*3 14.5 C 0 km/h
2364 08-10-2011 16:55:01 13 C 4.88 g/m*3 13 C 0 km/h
2365 08-10-2011 17:07:02 11.3 C 5.41 g/m*3 11.3 C 0 km/h
2366 08-10-2011 17:19:01 9.7 C 6.18 g/m*3 9.7 C 0 km/h
2367 08-10-2011 17:31:01 9 C 6.44 g/m*3 9 C 0 km/h
2368 08-10-2011 17:43:01 9 C 6.52 g/m*3 9 C 0 km/h
2369 08-10-2011 17:55:01 8.7 C 6.66 g/m*3 8.7 C 0 km/h
2370 08-10-2011 18:07:01 8.2 C 6.45 g/m*3 8.2 C 0 km/h
2371 08-10-2011 18:19:02 8.1 C 6.74 g/m*3 8.1 C 0 km/h
2372 08-10-2011 18:31:01 8.4 C 6.87 g/m*3 8.4 C 0 km/h
2373 08-10-2011 18:43:01 7.7 C 6.73 g/m*3 7.7 C 0 km/h
2374 08-10-2011 18:55:02 7.3 C 6.64 g/m*3 7.3 C 0 km/h
2375 08-10-2011 19:07:01 7.2 C 6.75 g/m*3 7.2 C 0 km/h
Sensor: Nr:Datum:Temp:Abs-Feuchte:Windchill:Wind:
Aussen-T/F 2376 08-10-2011 19:19:02 7.2 C 6.75 g/m*3 7.2 C 0 km/h
2377 08-10-2011 19:31:01 7.4 C 6.92 g/m*3 7.4 C 0 km/h
2378 08-10-2011 19:43:01 7.5 C 7.04 g/m*3 7.5 C 0 km/h
2379 08-10-2011 19:55:02 7.6 C 7.09 g/m*3 7.6 C 0 km/h
2380 08-10-2011 20:07:02 7.8 C 7.18 g/m*3 7.8 C 0 km/h
2381 08-10-2011 20:19:02 7.9 C 7.23 g/m*3 7.9 C 0 km/h
2382 08-10-2011 20:31:02 7.6 C 7.09 g/m*3 7.6 C 0 km/h
2383 08-10-2011 20:43:02 7.7 C 7.14 g/m*3 7.7 C 0 km/h
2384 08-10-2011 20:55:01 7.9 C 7.23 g/m*3 7.9 C 0 km/h
2385 08-10-2011 21:07:01 7.9 C 7.31 g/m*3 7.9 C 0 km/h
2386 08-10-2011 21:19:01 8 C 7.28 g/m*3 8 C 0 km/h
2387 08-10-2011 21:31:02 7.9 C 7.31 g/m*3 7.9 C 0 km/h
2388 08-10-2011 21:43:02 7.9 C 7.31 g/m*3 7.9 C 0 km/h
2389 08-10-2011 21:55:02 7.8 C 7.26 g/m*3 7.8 C 0 km/h
2390 08-10-2011 22:07:02 7.6 C 7.09 g/m*3 7.6 C 0 km/h
2391 08-10-2011 22:19:02 7.2 C 6.83 g/m*3 7.2 C 0 km/h
2392 08-10-2011 22:32:03 7.1 C 6.86 g/m*3 7.1 C 0 km/h
2393 08-10-2011 22:44:03 6.6 C 6.64 g/m*3 6.6 C 0 km/h
2394 08-10-2011 22:56:03 6.4 C 6.63 g/m*3 6.4 C 0 km/h
2395 08-10-2011 23:08:03 6.2 C 6.55 g/m*3 6.2 C 0 km/h
2396 08-10-2011 23:20:03 6.4 C 6.63 g/m*3 6.4 C 0 km/h
2397 08-10-2011 23:32:03 6.3 C 6.66 g/m*3 6.3 C 0 km/h
2398 08-10-2011 23:44:03 6.5 C 6.75 g/m*3 6.5 C 0 km/h
2399 08-10-2011 23:56:03 6.7 C 6.91 g/m*3 6.7 C 0 km/h
2400 09-10-2011 00:08:03 6.8 C 6.96 g/m*3 6.8 C 0 km/h
Sensor: Nr:Datum:Temp:Abs-Feuchte:Windchill:Wind:
Aussen-T/F 2401 09-10-2011 00:20:04 7 C 6.97 g/m*3 7 C 0 km/h
2402 09-10-2011 00:32:04 7 C 6.97 g/m*3 7 C 0 km/h
2403 09-10-2011 00:44:04 7.1 C 7.02 g/m*3 7.1 C 0 km/h
2404 09-10-2011 00:56:04 7 C 6.97 g/m*3 7 C 0 km/h
2405 09-10-2011 01:08:04 6.6 C 6.87 g/m*3 6.6 C 0 km/h
2406 09-10-2011 01:20:04 6.6 C 6.87 g/m*3 6.6 C 0 km/h
2407 09-10-2011 01:32:04 6.7 C 6.91 g/m*3 6.7 C 0 km/h
2408 09-10-2011 01:44:04 6.7 C 6.91 g/m*3 6.7 C 0 km/h
2409 09-10-2011 01:56:04 6.6 C 6.87 g/m*3 6.6 C 0 km/h
2410 09-10-2011 02:08:04 6.8 C 6.96 g/m*3 6.8 C 0 km/h
2411 09-10-2011 02:20:04 6.9 C 7.08 g/m*3 6.9 C 0 km/h
2412 09-10-2011 02:32:04 6.9 C 7.08 g/m*3 6.9 C 0 km/h
2413 09-10-2011 02:44:04 7 C 7.05 g/m*3 7 C 0 km/h
2414 09-10-2011 02:56:04 7.1 C 7.1 g/m*3 7.1 C 0 km/h
2415 09-10-2011 03:08:05 7.1 C 7.1 g/m*3 7.1 C 0 km/h
2416 09-10-2011 03:20:05 7.1 C 7.1 g/m*3 7.1 C 0 km/h
2417 09-10-2011 03:32:05 7.1 C 7.1 g/m*3 7.1 C 0 km/h
2418 09-10-2011 03:44:05 6.8 C 7.04 g/m*3 6.8 C 0 km/h
2419 09-10-2011 03:56:05 6.4 C 6.85 g/m*3 6.4 C 0 km/h
2420 09-10-2011 04:08:05 6.2 C 6.69 g/m*3 6.2 C 0 km/h
2421 09-10-2011 04:20:05 6.6 C 6.95 g/m*3 6.6 C 0 km/h
2422 09-10-2011 04:32:05 6.5 C 6.9 g/m*3 6.5 C 0 km/h
2423 09-10-2011 04:44:05 6.5 C 6.9 g/m*3 6.5 C 0 km/h
2424 09-10-2011 04:56:05 6.6 C 6.95 g/m*3 6.6 C 0 km/h
2425 09-10-2011 05:08:05 6.9 C 7.08 g/m*3 6.9 C 0 km/h
Sensor: Nr:Datum:Temp:Abs-Feuchte:Windchill:Wind:
Aussen-T/F 2426 09-10-2011 05:20:05 6.9 C 7.08 g/m*3 6.9 C 0 km/h
2427 09-10-2011 05:32:06 6.8 C 7.04 g/m*3 6.8 C 0 km/h
2428 09-10-2011 05:44:06 6.9 C 7.08 g/m*3 6.9 C 0 km/h
2429 09-10-2011 05:56:06 6.9 C 7.16 g/m*3 6.9 C 0 km/h
2430 09-10-2011 06:08:06 6.9 C 7.16 g/m*3 6.9 C 0 km/h
2431 09-10-2011 06:20:06 7 C 7.13 g/m*3 7 C 0 km/h
2432 09-10-2011 06:32:06 6.9 C 7.16 g/m*3 6.9 C 0 km/h
2433 09-10-2011 06:44:06 6.3 C 6.81 g/m*3 6.3 C 0 km/h
2434 09-10-2011 06:56:06 6.1 C 6.72 g/m*3 6.1 C 0 km/h
2435 09-10-2011 07:08:06 5.9 C 6.71 g/m*3 5.9 C 0 km/h
2436 09-10-2011 07:20:06 6.2 C 6.77 g/m*3 6.2 C 0 km/h
2437 09-10-2011 07:32:06 5.8 C 6.66 g/m*3 5.8 C 0 km/h
2438 09-10-2011 07:44:06 5.7 C 6.62 g/m*3 5.7 C 0 km/h
2439 09-10-2011 07:56:06 5.6 C 6.57 g/m*3 5.6 C 0 km/h
2440 09-10-2011 08:08:06 5.6 C 6.57 g/m*3 5.6 C 0 km/h
2441 09-10-2011 08:20:03 5.4 C 6.49 g/m*3 5.4 C 0 km/h
2442 09-10-2011 08:32:03 6.3 C 6.81 g/m*3 6.3 C 0 km/h
2443 09-10-2011 08:44:03 6.3 C 6.81 g/m*3 6.3 C 0 km/h
2444 09-10-2011 08:56:02 6.1 C 6.72 g/m*3 6.1 C 0 km/h
2445 09-10-2011 09:08:02 6.2 C 6.77 g/m*3 6.2 C 0 km/h
2446 09-10-2011 09:20:02 6.4 C 6.85 g/m*3 6.4 C 0 km/h
2447 09-10-2011 09:32:02 6.5 C 6.9 g/m*3 6.5 C 0 km/h
2448 09-10-2011 09:44:02 6.7 C 6.99 g/m*3 6.7 C 0 km/h
2449 09-10-2011 09:56:01 7 C 7.05 g/m*3 7 C 0 km/h
2450 09-10-2011 10:08:02 6.6 C 6.87 g/m*3 6.6 C 0 km/h
Sensor: Nr:Datum:Temp:Abs-Feuchte:Windchill:Wind:
Aussen-T/F 2451 09-10-2011 10:20:01 6.8 C 6.96 g/m*3 6.8 C 0 km/h
2452 09-10-2011 10:32:02 6.9 C 6.93 g/m*3 6.9 C 0 km/h
2453 09-10-2011 10:44:03 7 C 6.9 g/m*3 7 C 0 km/h
2454 09-10-2011 10:56:02 7.1 C 6.94 g/m*3 7.1 C 0 km/h
2455 09-10-2011 11:08:02 7.3 C 7.03 g/m*3 7.3 C 0 km/h
2456 09-10-2011 11:20:02 7.9 C 7.31 g/m*3 7.9 C 0 km/h
2457 09-10-2011 11:32:02 8.7 C 7.52 g/m*3 8.7 C 0 km/h
2458 09-10-2011 11:44:02 9.8 C 7.61 g/m*3 9.8 C 0 km/h
2459 09-10-2011 11:56:01 10.4 C 6.55 g/m*3 10.4 C 0 km/h
2460 09-10-2011 12:08:02 10.4 C 6.17 g/m*3 10.4 C 0 km/h
2461 09-10-2011 12:20:01 10.1 C 5.86 g/m*3 10.1 C 0 km/h
2462 09-10-2011 12:32:01 10.5 C 6.01 g/m*3 10.5 C 0 km/h
2463 09-10-2011 12:44:01 10.9 C 6.07 g/m*3 10.9 C 0 km/h
2464 09-10-2011 12:56:01 11 C 5.81 g/m*3 11 C 0 km/h
2465 09-10-2011 13:08:02 11.3 C 5.92 g/m*3 11.3 C 0 km/h
2466 09-10-2011 13:20:01 11.8 C 5.68 g/m*3 11.8 C 0 km/h
2467 09-10-2011 13:32:02 12.4 C 5.57 g/m*3 12.4 C 0 km/h
2468 09-10-2011 13:44:02 13.3 C 5.66 g/m*3 13.3 C 0 km/h
2469 09-10-2011 13:56:01 12.8 C 5.6 g/m*3 12.8 C 0 km/h
2470 09-10-2011 14:08:02 13 C 5.67 g/m*3 13 C 0 km/h
2471 09-10-2011 14:20:02 12.9 C 5.86 g/m*3 12.9 C 0 km/h
2472 09-10-2011 14:32:01 13.7 C 5.68 g/m*3 13.7 C 0 km/h
2473 09-10-2011 14:44:01 13.5 C 5.38 g/m*3 13.5 C 0 km/h
2474 09-10-2011 14:56:02 13.2 C 5.4 g/m*3 13.2 C 0 km/h
2475 09-10-2011 15:08:01 13.8 C 5.6 g/m*3 13.8 C 0 km/h
Sensor: Nr:Datum:Temp:Abs-Feuchte:Windchill:Wind:
Aussen-T/F 2476 09-10-2011 15:20:02 14 C 5.67 g/m*3 14 C 0 km/h
2477 09-10-2011 15:32:02 14.2 C 5.49 g/m*3 14.2 C 0 km/h
2478 09-10-2011 15:44:02 14.2 C 5.37 g/m*3 14.2 C 0 km/h
2479 09-10-2011 15:56:02 14.1 C 4.98 g/m*3 14.1 C 0 km/h
2480 09-10-2011 16:08:02 14.3 C 5.16 g/m*3 14.3 C 0 km/h
2481 09-10-2011 16:20:02 14.6 C 5.26 g/m*3 14.6 C 0 km/h
2482 09-10-2011 16:32:02 14.6 C 5.26 g/m*3 14.6 C 0 km/h
2483 09-10-2011 16:44:02 14.9 C 5.74 g/m*3 14.9 C 0 km/h
2484 09-10-2011 16:56:01 14 C 5.67 g/m*3 14 C 0 km/h
2485 09-10-2011 17:08:02 14.2 C 5.86 g/m*3 14.2 C 0 km/h
2486 09-10-2011 17:20:01 13.9 C 5.75 g/m*3 13.9 C 0 km/h
2487 09-10-2011 17:32:01 13.1 C 6.05 g/m*3 13.1 C 0 km/h
2488 09-10-2011 17:44:01 12.7 C 6.23 g/m*3 12.7 C 0 km/h
2489 09-10-2011 17:56:01 12 C 6.5 g/m*3 12 C 0 km/h
2490 09-10-2011 18:08:02 11.4 C 6.77 g/m*3 11.4 C 0 km/h
2491 09-10-2011 18:20:01 10.6 C 6.73 g/m*3 10.6 C 0 km/h
2492 09-10-2011 18:32:01 10 C 6.86 g/m*3 10 C 0 km/h
2493 09-10-2011 18:44:01 9.7 C 7.28 g/m*3 9.7 C 0 km/h
2494 09-10-2011 18:56:01 9.5 C 7.28 g/m*3 9.5 C 0 km/h
2495 09-10-2011 19:08:02 9.5 C 7.46 g/m*3 9.5 C 0 km/h
2496 09-10-2011 19:20:02 9.4 C 7.6 g/m*3 9.4 C 0 km/h
2497 09-10-2011 19:32:01 9.4 C 7.69 g/m*3 9.4 C 0 km/h
2498 09-10-2011 19:44:01 9.3 C 7.64 g/m*3 9.3 C 0 km/h
2499 09-10-2011 19:56:02 9.5 C 7.83 g/m*3 9.5 C 0 km/h
2500 09-10-2011 20:08:01 9.4 C 7.78 g/m*3 9.4 C 0 km/h
Sensor: Nr:Datum:Temp:Abs-Feuchte:Windchill:Wind:
Aussen-T/F 2501 09-10-2011 20:20:01 9.4 C 7.78 g/m*3 9.4 C 0 km/h
2502 09-10-2011 20:32:02 9.5 C 7.83 g/m*3 9.5 C 0 km/h
2503 09-10-2011 20:44:02 9.5 C 7.83 g/m*3 9.5 C 0 km/h
2504 09-10-2011 20:56:02 9.5 C 7.83 g/m*3 9.5 C 0 km/h
2505 09-10-2011 21:08:01 9.5 C 7.92 g/m*3 9.5 C 0 km/h
2506 09-10-2011 21:20:02 9.5 C 7.92 g/m*3 9.5 C 0 km/h
2507 09-10-2011 21:32:02 9.6 C 7.97 g/m*3 9.6 C 0 km/h
2508 09-10-2011 21:44:02 9.7 C 8.02 g/m*3 9.7 C 0 km/h
2509 09-10-2011 21:56:01 9.8 C 8.07 g/m*3 9.8 C 0 km/h
2510 09-10-2011 22:08:02 9.8 C 8.07 g/m*3 9.8 C 0 km/h
2511 09-10-2011 22:20:01 9.9 C 8.22 g/m*3 9.9 C 0 km/h
2512 09-10-2011 22:33:03 10 C 8.17 g/m*3 10 C 0 km/h
2513 09-10-2011 22:45:03 10.1 C 8.23 g/m*3 10.1 C 0 km/h
2514 09-10-2011 22:57:03 10.4 C 8.29 g/m*3 10.4 C 0 km/h
2515 09-10-2011 23:09:03 10.5 C 8.24 g/m*3 10.5 C 0 km/h
2516 09-10-2011 23:21:03 10.6 C 8.3 g/m*3 10.6 C 0 km/h
2517 09-10-2011 23:33:03 10.7 C 8.45 g/m*3 10.7 C 0 km/h
2518 09-10-2011 23:45:03 10.7 C 8.45 g/m*3 10.7 C 0 km/h
2519 09-10-2011 23:57:03 10.7 C 8.45 g/m*3 10.7 C 0 km/h
2520 10-10-2011 00:09:03 10.9 C 8.55 g/m*3 10.9 C 0 km/h
2521 10-10-2011 00:21:03 10.8 C 8.5 g/m*3 10.8 C 0 km/h
2522 10-10-2011 00:33:03 11.1 C 8.66 g/m*3 11.1 C 0 km/h
2523 10-10-2011 00:45:04 11.2 C 8.62 g/m*3 11.2 C 0 km/h
2524 10-10-2011 00:57:04 11.4 C 8.62 g/m*3 11.4 C 0 km/h
2525 10-10-2011 01:09:04 11.7 C 8.79 g/m*3 11.7 C 0 km/h
Sensor: Nr:Datum:Temp:Abs-Feuchte:Windchill:Wind:
Aussen-T/F 2526 10-10-2011 01:21:04 11.7 C 8.79 g/m*3 11.7 C 0 km/h
2527 10-10-2011 01:33:04 11.7 C 8.79 g/m*3 11.7 C 0 km/h
2528 10-10-2011 01:45:04 11.7 C 8.79 g/m*3 11.7 C 0 km/h
2529 10-10-2011 01:57:04 11.9 C 9 g/m*3 11.9 C 0 km/h
2530 10-10-2011 02:09:04 11.9 C 8.9 g/m*3 11.9 C 0 km/h
2531 10-10-2011 02:21:04 12.1 C 9.01 g/m*3 12.1 C 0 km/h
2532 10-10-2011 02:33:04 12.2 C 8.96 g/m*3 12.2 C 0 km/h
2533 10-10-2011 02:45:04 12.1 C 8.9 g/m*3 12.1 C 0 km/h
2534 10-10-2011 02:57:04 12.2 C 9.06 g/m*3 12.2 C 0 km/h
2535 10-10-2011 03:09:04 12.3 C 9.12 g/m*3 12.3 C 0 km/h
2536 10-10-2011 03:21:04 12.3 C 9.12 g/m*3 12.3 C 0 km/h
2537 10-10-2011 03:33:04 12.5 C 9.24 g/m*3 12.5 C 0 km/h
2538 10-10-2011 03:45:04 12.7 C 9.46 g/m*3 12.7 C 0 km/h
2539 10-10-2011 03:57:04 12.8 C 9.52 g/m*3 12.8 C 0 km/h
2540 10-10-2011 04:09:04 12.8 C 9.41 g/m*3 12.8 C 0 km/h
2541 10-10-2011 04:21:04 12.8 C 9.41 g/m*3 12.8 C 0 km/h
2542 10-10-2011 04:33:04 12.7 C 9.35 g/m*3 12.7 C 0 km/h
2543 10-10-2011 04:45:04 12.7 C 9.46 g/m*3 12.7 C 0 km/h
2544 10-10-2011 04:57:04 12.9 C 9.58 g/m*3 12.9 C 0 km/h
2545 10-10-2011 05:09:05 12.9 C 9.58 g/m*3 12.9 C 0 km/h
2546 10-10-2011 05:21:05 13.1 C 9.59 g/m*3 13.1 C 0 km/h
2547 10-10-2011 05:33:05 13.1 C 9.59 g/m*3 13.1 C 0 km/h
2548 10-10-2011 05:45:05 13.1 C 9.7 g/m*3 13.1 C 0 km/h
2549 10-10-2011 05:57:05 13.2 C 9.76 g/m*3 13.2 C 0 km/h
2550 10-10-2011 06:09:05 13.2 C 9.87 g/m*3 13.2 C 0 km/h
Sensor: Nr:Datum:Temp:Abs-Feuchte:Windchill:Wind:
Aussen-T/F 2551 10-10-2011 06:21:02 13.3 C 9.94 g/m*3 13.3 C 0 km/h
2552 10-10-2011 06:33:02 13.3 C 9.94 g/m*3 13.3 C 0 km/h
2553 10-10-2011 06:45:02 13.5 C 10.06 g/m*3 13.5 C 0 km/h
2554 10-10-2011 06:57:02 13.7 C 10.18 g/m*3 13.7 C 0 km/h
2555 10-10-2011 07:09:02 13.9 C 10.31 g/m*3 13.9 C 0 km/h
2556 10-10-2011 07:21:02 13.8 C 10.25 g/m*3 13.8 C 0 km/h
2557 10-10-2011 07:33:02 14.1 C 10.32 g/m*3 14.1 C 0 km/h
2558 10-10-2011 07:45:01 14.1 C 10.32 g/m*3 14.1 C 0 km/h
2559 10-10-2011 07:57:01 14.2 C 10.38 g/m*3 14.2 C 0 km/h
2560 10-10-2011 08:09:01 14.1 C 10.44 g/m*3 14.1 C 0 km/h
2561 10-10-2011 08:21:01 14.3 C 10.57 g/m*3 14.3 C 0 km/h
2562 10-10-2011 08:33:02 14.5 C 10.7 g/m*3 14.5 C 0 km/h
2563 10-10-2011 08:45:02 14.6 C 10.76 g/m*3 14.6 C 0 km/h
2564 10-10-2011 08:57:02 14.8 C 10.89 g/m*3 14.8 C 0 km/h
2565 10-10-2011 09:09:02 14.9 C 10.96 g/m*3 14.9 C 0 km/h
2566 10-10-2011 09:21:01 15.3 C 11.23 g/m*3 15.3 C 0 km/h
2567 10-10-2011 09:33:02 15.8 C 11.44 g/m*3 15.8 C 0 km/h
2568 10-10-2011 09:45:02 16.5 C 11.51 g/m*3 16.5 C 0 km/h
2569 10-10-2011 09:57:02 16.9 C 11.08 g/m*3 16.9 C 0 km/h
2570 10-10-2011 10:09:02 17.4 C 10.97 g/m*3 17.4 C 0 km/h
2571 10-10-2011 10:21:02 17.8 C 10.78 g/m*3 17.8 C 0 km/h
2572 10-10-2011 10:33:02 18.1 C 10.35 g/m*3 18.1 C 0 km/h
2573 10-10-2011 10:45:02 18 C 10.44 g/m*3 18 C 0 km/h
2574 10-10-2011 10:57:02 18.2 C 10.57 g/m*3 18.2 C 0 km/h
2575 10-10-2011 11:09:02 18.3 C 10.16 g/m*3 18.3 C 0 km/h
Sensor: Nr:Datum:Temp:Abs-Feuchte:Windchill:Wind:
Aussen-T/F 2576 10-10-2011 11:21:02 18.5 C 10.28 g/m*3 18.5 C 0 km/h
2577 10-10-2011 11:33:02 18.9 C 10.21 g/m*3 18.9 C 0 km/h
2578 10-10-2011 11:45:02 18.9 C 10.04 g/m*3 18.9 C 0 km/h
2579 10-10-2011 11:57:02 19.1 C 9.84 g/m*3 19.1 C 0 km/h
2580 10-10-2011 12:09:02 19.4 C 9.84 g/m*3 19.4 C 0 km/h
2581 10-10-2011 12:21:02 19.4 C 9.68 g/m*3 19.4 C 0 km/h
2582 10-10-2011 12:33:02 19.6 C 9.62 g/m*3 19.6 C 0 km/h
2583 10-10-2011 12:45:02 19.4 C 9.34 g/m*3 19.4 C 0 km/h
2584 10-10-2011 12:57:02 19.6 C 9.45 g/m*3 19.6 C 0 km/h
2585 10-10-2011 13:09:02 19.5 C 9.4 g/m*3 19.5 C 0 km/h
2586 10-10-2011 13:21:02 19.8 C 9.39 g/m*3 19.8 C 0 km/h
2587 10-10-2011 13:33:02 20.1 C 9.04 g/m*3 20.1 C 0 km/h
2588 10-10-2011 13:45:02 20.6 C 9.31 g/m*3 20.6 C 0 km/h
2589 10-10-2011 13:57:02 20.7 C 9 g/m*3 20.7 C 0 km/h
2590 10-10-2011 14:09:01 20.6 C 8.77 g/m*3 20.6 C 0 km/h
2591 10-10-2011 14:21:01 20.8 C 9.05 g/m*3 20.8 C 0 km/h
2592 10-10-2011 14:33:02 20.9 C 8.74 g/m*3 20.9 C 0 km/h
2593 10-10-2011 14:45:02 20.8 C 8.69 g/m*3 20.8 C 0 km/h
2594 10-10-2011 14:57:02 20.8 C 8.69 g/m*3 20.8 C 0 km/h
2595 10-10-2011 15:09:02 20.8 C 8.69 g/m*3 20.8 C 0 km/h
2596 10-10-2011 15:21:01 20.7 C 8.82 g/m*3 20.7 C 0 km/h
2597 10-10-2011 15:33:02 20.9 C 8.56 g/m*3 20.9 C 0 km/h
2598 10-10-2011 15:45:02 21.1 C 8.29 g/m*3 21.1 C 0 km/h
2599 10-10-2011 15:57:02 21.2 C 8.34 g/m*3 21.2 C 0 km/h
2600 10-10-2011 16:09:02 20.9 C 8.38 g/m*3 20.9 C 0 km/h
Sensor: Nr:Datum:Temp:Abs-Feuchte:Windchill:Wind:
Aussen-T/F 2601 10-10-2011 16:21:02 20.7 C 8.46 g/m*3 20.7 C 0 km/h
2602 10-10-2011 16:33:02 21.6 C 8.53 g/m*3 21.6 C 0 km/h
2603 10-10-2011 16:45:02 21.9 C 8.1 g/m*3 21.9 C 0 km/h
2604 10-10-2011 16:57:02 22.4 C 7.94 g/m*3 22.4 C 0 km/h
2605 10-10-2011 17:09:02 21.4 C 8.44 g/m*3 21.4 C 0 km/h
2606 10-10-2011 17:21:02 20.9 C 8.38 g/m*3 20.9 C 0 km/h
2607 10-10-2011 17:33:01 22 C 8.54 g/m*3 22 C 0 km/h
2608 10-10-2011 17:45:02 21.3 C 8.76 g/m*3 21.3 C 0 km/h
2609 10-10-2011 17:57:02 21 C 8.24 g/m*3 21 C 0 km/h
2610 10-10-2011 18:09:01 20 C 8.3 g/m*3 20 C 0 km/h
2611 10-10-2011 18:21:02 19.4 C 8.51 g/m*3 19.4 C 0 km/h
2612 10-10-2011 18:33:02 18.8 C 8.7 g/m*3 18.8 C 0 km/h
2613 10-10-2011 18:45:02 18.1 C 8.65 g/m*3 18.1 C 0 km/h
2614 10-10-2011 18:57:02 18 C 8.75 g/m*3 18 C 0 km/h
2615 10-10-2011 19:09:02 18 C 8.75 g/m*3 18 C 0 km/h
2616 10-10-2011 19:21:02 17.9 C 8.86 g/m*3 17.9 C 0 km/h
2617 10-10-2011 19:33:02 17.6 C 8.85 g/m*3 17.6 C 0 km/h
2618 10-10-2011 19:45:02 17.7 C 9.05 g/m*3 17.7 C 0 km/h
2619 10-10-2011 19:57:02 17.7 C 9.05 g/m*3 17.7 C 0 km/h
2620 10-10-2011 20:09:02 17.7 C 9.05 g/m*3 17.7 C 0 km/h
2621 10-10-2011 20:21:02 17.6 C 9.15 g/m*3 17.6 C 0 km/h
2622 10-10-2011 20:33:02 17.5 C 9.24 g/m*3 17.5 C 0 km/h
2623 10-10-2011 20:45:01 17.4 C 9.34 g/m*3 17.4 C 0 km/h
2624 10-10-2011 20:57:01 17.3 C 9.43 g/m*3 17.3 C 0 km/h
2625 10-10-2011 21:09:01 17.4 C 9.48 g/m*3 17.4 C 0 km/h
Sensor: Nr:Datum:Temp:Abs-Feuchte:Windchill:Wind:
Aussen-T/F 2626 10-10-2011 21:21:02 17.3 C 9.58 g/m*3 17.3 C 0 km/h
2627 10-10-2011 21:33:01 17.2 C 9.37 g/m*3 17.2 C 0 km/h
2628 10-10-2011 21:45:02 17.3 C 9.43 g/m*3 17.3 C 0 km/h
2629 10-10-2011 21:57:02 17.2 C 9.23 g/m*3 17.2 C 0 km/h
2630 10-10-2011 22:09:02 17.1 C 9.03 g/m*3 17.1 C 0 km/h
2631 10-10-2011 22:21:02 17 C 8.97 g/m*3 17 C 0 km/h
2632 10-10-2011 22:33:02 17.1 C 8.88 g/m*3 17.1 C 0 km/h
2633 10-10-2011 22:45:02 17.1 C 8.88 g/m*3 17.1 C 0 km/h
2634 10-10-2011 22:57:02 16.9 C 9.06 g/m*3 16.9 C 0 km/h
2635 10-10-2011 23:09:01 17 C 8.83 g/m*3 17 C 0 km/h
2636 10-10-2011 23:21:02 16.9 C 8.92 g/m*3 16.9 C 0 km/h
2637 10-10-2011 23:33:02 16.9 C 8.92 g/m*3 16.9 C 0 km/h
2638 10-10-2011 23:45:01 16.8 C 9.01 g/m*3 16.8 C 0 km/h
2639 10-10-2011 23:57:01 16.5 C 9.13 g/m*3 16.5 C 0 km/h
2640 11-10-2011 00:09:02 16.5 C 9.13 g/m*3 16.5 C 0 km/h
2641 11-10-2011 00:21:01 16.5 C 9.13 g/m*3 16.5 C 0 km/h
2642 11-10-2011 00:33:01 16.9 C 8.92 g/m*3 16.9 C 0 km/h
2643 11-10-2011 00:45:02 16.9 C 8.77 g/m*3 16.9 C 0 km/h
2644 11-10-2011 00:57:03 16.9 C 8.49 g/m*3 16.9 C 0 km/h
2645 11-10-2011 01:09:02 16.5 C 8.57 g/m*3 16.5 C 0 km/h
2646 11-10-2011 01:21:02 16.5 C 8.71 g/m*3 16.5 C 0 km/h
2647 11-10-2011 01:33:02 16.2 C 8.69 g/m*3 16.2 C 0 km/h
2648 11-10-2011 01:45:01 16.3 C 8.74 g/m*3 16.3 C 0 km/h
2649 11-10-2011 01:57:01 16.4 C 8.79 g/m*3 16.4 C 0 km/h
2650 11-10-2011 02:09:02 16.4 C 8.79 g/m*3 16.4 C 0 km/h
Sensor: Nr:Datum:Temp:Abs-Feuchte:Windchill:Wind:
Aussen-T/F 2651 11-10-2011 02:21:01 16.6 C 8.76 g/m*3 16.6 C 0 km/h
2652 11-10-2011 02:33:01 16.8 C 8.86 g/m*3 16.8 C 0 km/h
2653 11-10-2011 02:45:01 16.6 C 8.76 g/m*3 16.6 C 0 km/h
2654 11-10-2011 02:57:01 16.5 C 8.71 g/m*3 16.5 C 0 km/h
2655 11-10-2011 03:09:01 16.5 C 8.85 g/m*3 16.5 C 0 km/h
2656 11-10-2011 03:21:02 16.4 C 8.79 g/m*3 16.4 C 0 km/h
2657 11-10-2011 03:33:01 16.3 C 8.88 g/m*3 16.3 C 0 km/h
2658 11-10-2011 03:45:01 16.2 C 8.96 g/m*3 16.2 C 0 km/h
2659 11-10-2011 03:57:01 16.1 C 9.05 g/m*3 16.1 C 0 km/h
2660 11-10-2011 04:09:02 16.1 C 9.18 g/m*3 16.1 C 0 km/h
2661 11-10-2011 04:21:01 16 C 9.26 g/m*3 16 C 0 km/h
2662 11-10-2011 04:33:01 15.8 C 9.42 g/m*3 15.8 C 0 km/h
2663 11-10-2011 04:45:01 16 C 9.26 g/m*3 16 C 0 km/h
2664 11-10-2011 04:57:01 16 C 9.26 g/m*3 16 C 0 km/h
2665 11-10-2011 05:09:01 15.8 C 9.29 g/m*3 15.8 C 0 km/h
2666 11-10-2011 05:21:02 15.8 C 9.42 g/m*3 15.8 C 0 km/h
2667 11-10-2011 05:33:01 15.9 C 9.34 g/m*3 15.9 C 0 km/h
2668 11-10-2011 05:45:02 16 C 9.26 g/m*3 16 C 0 km/h
2669 11-10-2011 05:57:02 16 C 9.13 g/m*3 16 C 0 km/h
2670 11-10-2011 06:09:01 15.8 C 9.02 g/m*3 15.8 C 0 km/h
2671 11-10-2011 06:21:02 15.7 C 8.96 g/m*3 15.7 C 0 km/h
2672 11-10-2011 06:33:01 15.6 C 8.78 g/m*3 15.6 C 0 km/h
2673 11-10-2011 06:45:02 15.5 C 8.72 g/m*3 15.5 C 0 km/h
2674 11-10-2011 06:57:02 15.5 C 8.59 g/m*3 15.5 C 0 km/h
2675 11-10-2011 07:09:01 15.4 C 8.67 g/m*3 15.4 C 0 km/h
Sensor: Nr:Datum:Temp:Abs-Feuchte:Windchill:Wind:
Aussen-T/F 2676 11-10-2011 07:21:01 15.4 C 8.54 g/m*3 15.4 C 0 km/h
2677 11-10-2011 07:33:02 15.6 C 8.51 g/m*3 15.6 C 0 km/h
2678 11-10-2011 07:45:01 15.6 C 8.51 g/m*3 15.6 C 0 km/h
2679 11-10-2011 07:57:01 15.6 C 8.51 g/m*3 15.6 C 0 km/h
2680 11-10-2011 08:09:02 15.6 C 8.38 g/m*3 15.6 C 0 km/h
2681 11-10-2011 08:21:01 15.7 C 8.43 g/m*3 15.7 C 0 km/h
2682 11-10-2011 08:33:01 15.8 C 8.48 g/m*3 15.8 C 0 km/h
2683 11-10-2011 08:45:01 15.7 C 8.43 g/m*3 15.7 C 0 km/h
2684 11-10-2011 08:57:01 15.8 C 8.48 g/m*3 15.8 C 0 km/h
2685 11-10-2011 09:09:01 15.8 C 8.48 g/m*3 15.8 C 0 km/h
2686 11-10-2011 09:21:02 15.9 C 8.53 g/m*3 15.9 C 0 km/h
2687 11-10-2011 09:33:01 15.8 C 8.48 g/m*3 15.8 C 0 km/h
2688 11-10-2011 09:45:02 15.8 C 8.48 g/m*3 15.8 C 0 km/h
2689 11-10-2011 09:57:02 15.9 C 8.4 g/m*3 15.9 C 0 km/h
2690 11-10-2011 10:09:01 16 C 8.31 g/m*3 16 C 0 km/h
2691 11-10-2011 10:21:02 16 C 8.31 g/m*3 16 C 0 km/h
2692 11-10-2011 10:33:01 16 C 8.31 g/m*3 16 C 0 km/h
2693 11-10-2011 10:45:02 16 C 8.31 g/m*3 16 C 0 km/h
2694 11-10-2011 10:57:02 15.8 C 8.48 g/m*3 15.8 C 0 km/h
2695 11-10-2011 11:09:01 15.9 C 8.4 g/m*3 15.9 C 0 km/h
2696 11-10-2011 11:21:01 15.9 C 8.4 g/m*3 15.9 C 0 km/h
2697 11-10-2011 11:33:02 16 C 8.45 g/m*3 16 C 0 km/h
2698 11-10-2011 11:45:01 16 C 8.45 g/m*3 16 C 0 km/h
2699 11-10-2011 11:57:01 15.9 C 8.53 g/m*3 15.9 C 0 km/h
2700 11-10-2011 12:09:02 16 C 8.45 g/m*3 16 C 0 km/h
Sensor: Nr:Datum:Temp:Abs-Feuchte:Windchill:Wind:
Aussen-T/F 2701 11-10-2011 12:21:01 16 C 8.45 g/m*3 16 C 0 km/h
2702 11-10-2011 12:33:01 16.1 C 8.5 g/m*3 16.1 C 0 km/h
2703 11-10-2011 12:45:01 16.1 C 8.5 g/m*3 16.1 C 0 km/h
2704 11-10-2011 12:57:01 16.1 C 8.5 g/m*3 16.1 C 0 km/h
2705 11-10-2011 13:09:02 16.1 C 8.64 g/m*3 16.1 C 0 km/h
2706 11-10-2011 13:21:01 16.1 C 8.64 g/m*3 16.1 C 0 km/h
2707 11-10-2011 13:33:01 16 C 8.72 g/m*3 16 C 0 km/h
2708 11-10-2011 13:45:01 16.1 C 8.77 g/m*3 16.1 C 0 km/h
2709 11-10-2011 13:57:01 16 C 8.86 g/m*3 16 C 0 km/h
2710 11-10-2011 14:09:01 16 C 8.86 g/m*3 16 C 0 km/h
2711 11-10-2011 14:21:02 16.2 C 8.83 g/m*3 16.2 C 0 km/h
2712 11-10-2011 14:33:01 16.4 C 8.79 g/m*3 16.4 C 0 km/h
2713 11-10-2011 14:45:02 16.7 C 8.95 g/m*3 16.7 C 0 km/h
2714 11-10-2011 14:57:02 16.8 C 8.86 g/m*3 16.8 C 0 km/h
2715 11-10-2011 15:09:01 17.2 C 8.79 g/m*3 17.2 C 0 km/h
2716 11-10-2011 15:21:01 17.2 C 8.79 g/m*3 17.2 C 0 km/h
2717 11-10-2011 15:33:01 17.2 C 8.79 g/m*3 17.2 C 0 km/h
2718 11-10-2011 15:45:01 17.2 C 8.93 g/m*3 17.2 C 0 km/h
2719 11-10-2011 15:57:01 17.4 C 8.89 g/m*3 17.4 C 0 km/h
2720 11-10-2011 16:09:01 17.6 C 8.85 g/m*3 17.6 C 0 km/h
2721 11-10-2011 16:21:01 17.8 C 8.8 g/m*3 17.8 C 0 km/h
2722 11-10-2011 16:33:02 17.8 C 8.95 g/m*3 17.8 C 0 km/h
2723 11-10-2011 16:45:01 17.6 C 8.85 g/m*3 17.6 C 0 km/h
2724 11-10-2011 16:57:01 17.4 C 8.89 g/m*3 17.4 C 0 km/h
2725 11-10-2011 17:09:02 17.5 C 8.95 g/m*3 17.5 C 0 km/h
Sensor: Nr:Datum:Temp:Abs-Feuchte:Windchill:Wind:
Aussen-T/F 2726 11-10-2011 17:21:01 17.6 C 8.85 g/m*3 17.6 C 0 km/h
2727 11-10-2011 17:33:01 17.6 C 8.7 g/m*3 17.6 C 0 km/h
2728 11-10-2011 17:45:01 17.5 C 8.8 g/m*3 17.5 C 0 km/h
2729 11-10-2011 17:57:01 17.5 C 8.8 g/m*3 17.5 C 0 km/h
2730 11-10-2011 18:09:01 17.5 C 8.65 g/m*3 17.5 C 0 km/h
2731 11-10-2011 18:21:02 17.3 C 8.69 g/m*3 17.3 C 0 km/h
2732 11-10-2011 18:33:01 17.3 C 8.69 g/m*3 17.3 C 0 km/h
2733 11-10-2011 18:45:02 17.1 C 8.59 g/m*3 17.1 C 0 km/h
2734 11-10-2011 18:57:02 17 C 8.68 g/m*3 17 C 0 km/h
2735 11-10-2011 19:09:01 16.8 C 8.86 g/m*3 16.8 C 0 km/h
2736 11-10-2011 19:21:02 16.8 C 8.86 g/m*3 16.8 C 0 km/h
2737 11-10-2011 19:33:01 17 C 8.68 g/m*3 17 C 0 km/h
2738 11-10-2011 19:45:02 17 C 8.54 g/m*3 17 C 0 km/h
2739 11-10-2011 19:57:02 16.9 C 8.63 g/m*3 16.9 C 0 km/h
2740 11-10-2011 20:09:01 16.8 C 8.58 g/m*3 16.8 C 0 km/h
2741 11-10-2011 20:21:01 16.7 C 8.81 g/m*3 16.7 C 0 km/h
2742 11-10-2011 20:33:02 16.8 C 8.86 g/m*3 16.8 C 0 km/h
2743 11-10-2011 20:45:01 16.6 C 8.76 g/m*3 16.6 C 0 km/h
2744 11-10-2011 20:57:01 16.6 C 8.62 g/m*3 16.6 C 0 km/h
2745 11-10-2011 21:09:02 16.6 C 8.62 g/m*3 16.6 C 0 km/h
2746 11-10-2011 21:21:01 16.6 C 8.48 g/m*3 16.6 C 0 km/h
2747 11-10-2011 21:33:01 16.5 C 8.43 g/m*3 16.5 C 0 km/h
2748 11-10-2011 21:45:01 16.3 C 8.46 g/m*3 16.3 C 0 km/h
2749 11-10-2011 21:57:01 16.5 C 8.57 g/m*3 16.5 C 0 km/h
2750 11-10-2011 22:09:02 16.5 C 8.43 g/m*3 16.5 C 0 km/h
Sensor: Nr:Datum:Temp:Abs-Feuchte:Windchill:Wind:
Aussen-T/F 2751 11-10-2011 22:21:01 16.4 C 8.37 g/m*3 16.4 C 0 km/h
2752 11-10-2011 22:33:01 16.3 C 8.46 g/m*3 16.3 C 0 km/h
2753 11-10-2011 22:45:01 16.2 C 8.55 g/m*3 16.2 C 0 km/h
2754 11-10-2011 22:57:01 16.1 C 8.5 g/m*3 16.1 C 0 km/h
2755 11-10-2011 23:09:01 16.1 C 8.5 g/m*3 16.1 C 0 km/h
2756 11-10-2011 23:21:02 16 C 8.58 g/m*3 16 C 0 km/h
2757 11-10-2011 23:33:01 16 C 8.58 g/m*3 16 C 0 km/h
2758 11-10-2011 23:45:02 16 C 8.58 g/m*3 16 C 0 km/h
2759 11-10-2011 23:57:02 16 C 8.58 g/m*3 16 C 0 km/h
2760 12-10-2011 00:09:01 15.9 C 8.67 g/m*3 15.9 C 0 km/h
2761 12-10-2011 00:21:01 15.9 C 8.67 g/m*3 15.9 C 0 km/h
2762 12-10-2011 00:33:02 15.8 C 8.75 g/m*3 15.8 C 0 km/h
2763 12-10-2011 00:45:01 15.8 C 8.75 g/m*3 15.8 C 0 km/h
2764 12-10-2011 00:57:01 15.8 C 8.75 g/m*3 15.8 C 0 km/h
2765 12-10-2011 01:09:02 15.8 C 8.75 g/m*3 15.8 C 0 km/h
2766 12-10-2011 01:21:01 15.8 C 8.75 g/m*3 15.8 C 0 km/h
2767 12-10-2011 01:33:01 15.8 C 8.75 g/m*3 15.8 C 0 km/h
2768 12-10-2011 01:45:01 15.8 C 8.75 g/m*3 15.8 C 0 km/h
2769 12-10-2011 01:57:01 15.7 C 8.7 g/m*3 15.7 C 0 km/h
2770 12-10-2011 02:09:01 15.7 C 8.83 g/m*3 15.7 C 0 km/h
2771 12-10-2011 02:21:01 15.7 C 8.83 g/m*3 15.7 C 0 km/h
2772 12-10-2011 02:33:01 15.6 C 8.78 g/m*3 15.6 C 0 km/h
2773 12-10-2011 02:46:03 15.7 C 8.83 g/m*3 15.7 C 0 km/h
2774 12-10-2011 02:58:03 15.6 C 8.91 g/m*3 15.6 C 0 km/h
2775 12-10-2011 03:10:03 15.5 C 8.86 g/m*3 15.5 C 0 km/h
Sensor: Nr:Datum:Temp:Abs-Feuchte:Windchill:Wind:
Aussen-T/F 2776 12-10-2011 03:22:03 15.4 C 8.8 g/m*3 15.4 C 0 km/h
2777 12-10-2011 03:34:01 15.4 C 8.8 g/m*3 15.4 C 0 km/h
2778 12-10-2011 03:46:01 15.4 C 8.8 g/m*3 15.4 C 0 km/h
2779 12-10-2011 03:58:01 15.3 C 8.88 g/m*3 15.3 C 0 km/h
2780 12-10-2011 04:10:02 15.5 C 8.86 g/m*3 15.5 C 0 km/h
2781 12-10-2011 04:22:01 15.3 C 8.75 g/m*3 15.3 C 0 km/h
2782 12-10-2011 04:34:01 15.2 C 8.83 g/m*3 15.2 C 0 km/h
2783 12-10-2011 04:46:01 15.2 C 8.83 g/m*3 15.2 C 0 km/h
2784 12-10-2011 04:58:01 15.3 C 8.88 g/m*3 15.3 C 0 km/h
2785 12-10-2011 05:10:01 15.2 C 8.83 g/m*3 15.2 C 0 km/h
2786 12-10-2011 05:22:02 15.3 C 8.88 g/m*3 15.3 C 0 km/h
2787 12-10-2011 05:34:01 15.4 C 8.8 g/m*3 15.4 C 0 km/h
2788 12-10-2011 05:46:02 15.3 C 8.88 g/m*3 15.3 C 0 km/h
2789 12-10-2011 05:58:02 15.2 C 8.83 g/m*3 15.2 C 0 km/h
2790 12-10-2011 06:10:02 15.4 C 8.93 g/m*3 15.4 C 0 km/h
2791 12-10-2011 06:22:02 15.2 C 8.96 g/m*3 15.2 C 0 km/h
2792 12-10-2011 06:34:03 15.2 C 8.96 g/m*3 15.2 C 0 km/h
2793 12-10-2011 06:46:02 15.1 C 8.9 g/m*3 15.1 C 0 km/h
2794 12-10-2011 06:58:02 15.1 C 8.9 g/m*3 15.1 C 0 km/h
2795 12-10-2011 07:10:01 15 C 8.98 g/m*3 15 C 0 km/h
2796 12-10-2011 07:22:01 15.1 C 9.03 g/m*3 15.1 C 0 km/h
2797 12-10-2011 07:34:02 15 C 8.98 g/m*3 15 C 0 km/h
2798 12-10-2011 07:46:02 14.9 C 9.18 g/m*3 14.9 C 0 km/h
2799 12-10-2011 07:58:02 14.8 C 9.25 g/m*3 14.8 C 0 km/h
2800 12-10-2011 08:10:02 15 C 9.1 g/m*3 15 C 0 km/h
Sensor: Nr:Datum:Temp:Abs-Feuchte:Windchill:Wind:
Aussen-T/F 2801 12-10-2011 08:22:02 15 C 9.1 g/m*3 15 C 0 km/h
2802 12-10-2011 08:34:02 15.1 C 9.16 g/m*3 15.1 C 0 km/h
2803 12-10-2011 08:46:02 15.1 C 9.16 g/m*3 15.1 C 0 km/h
2804 12-10-2011 08:58:02 15.1 C 9.16 g/m*3 15.1 C 0 km/h
2805 12-10-2011 09:10:02 15.2 C 9.22 g/m*3 15.2 C 0 km/h
2806 12-10-2011 09:22:02 15.5 C 9.25 g/m*3 15.5 C 0 km/h
2807 12-10-2011 09:34:02 15.5 C 9.12 g/m*3 15.5 C 0 km/h
2808 12-10-2011 09:46:02 15.6 C 9.18 g/m*3 15.6 C 0 km/h
2809 12-10-2011 09:58:02 15.8 C 9.15 g/m*3 15.8 C 0 km/h
2810 12-10-2011 10:10:02 15.9 C 9.21 g/m*3 15.9 C 0 km/h
2811 12-10-2011 10:22:02 16.4 C 9.07 g/m*3 16.4 C 0 km/h
2812 12-10-2011 10:34:01 16.6 C 9.04 g/m*3 16.6 C 0 km/h
2813 12-10-2011 10:46:02 16.8 C 9.15 g/m*3 16.8 C 0 km/h
2814 12-10-2011 10:58:02 16.9 C 9.06 g/m*3 16.9 C 0 km/h
2815 12-10-2011 11:10:01 16.7 C 9.1 g/m*3 16.7 C 0 km/h
2816 12-10-2011 11:22:02 17 C 8.97 g/m*3 17 C 0 km/h
2817 12-10-2011 11:34:02 17.6 C 9 g/m*3 17.6 C 0 km/h
2818 12-10-2011 11:46:02 17.8 C 9.11 g/m*3 17.8 C 0 km/h
2819 12-10-2011 11:58:02 17.8 C 8.95 g/m*3 17.8 C 0 km/h
2820 12-10-2011 12:10:02 17.2 C 8.93 g/m*3 17.2 C 0 km/h
2821 12-10-2011 12:22:02 17.1 C 8.88 g/m*3 17.1 C 0 km/h
2822 12-10-2011 12:34:02 17.2 C 8.93 g/m*3 17.2 C 0 km/h
2823 12-10-2011 12:46:02 17.2 C 8.79 g/m*3 17.2 C 0 km/h
2824 12-10-2011 12:58:02 17 C 8.97 g/m*3 17 C 0 km/h
2825 12-10-2011 13:10:02 17.2 C 8.93 g/m*3 17.2 C 0 km/h
Sensor: Nr:Datum:Temp:Abs-Feuchte:Windchill:Wind:
Aussen-T/F 2826 12-10-2011 13:22:02 17.1 C 8.88 g/m*3 17.1 C 0 km/h
2827 12-10-2011 13:34:02 17.3 C 8.99 g/m*3 17.3 C 0 km/h
2828 12-10-2011 13:46:02 16.9 C 9.06 g/m*3 16.9 C 0 km/h
2829 12-10-2011 13:58:02 17 C 8.97 g/m*3 17 C 0 km/h
2830 12-10-2011 14:10:02 17.1 C 9.03 g/m*3 17.1 C 0 km/h
2831 12-10-2011 14:22:03 17 C 8.83 g/m*3 17 C 0 km/h
2832 12-10-2011 14:34:02 17.1 C 8.88 g/m*3 17.1 C 0 km/h
2833 12-10-2011 14:46:02 17.1 C 8.88 g/m*3 17.1 C 0 km/h
2834 12-10-2011 14:58:02 17.1 C 8.73 g/m*3 17.1 C 0 km/h
2835 12-10-2011 15:10:02 17.2 C 8.79 g/m*3 17.2 C 0 km/h
2836 12-10-2011 15:22:02 17 C 8.68 g/m*3 17 C 0 km/h
2837 12-10-2011 15:34:01 16.9 C 8.92 g/m*3 16.9 C 0 km/h
2838 12-10-2011 15:46:02 16.9 C 8.92 g/m*3 16.9 C 0 km/h
2839 12-10-2011 15:58:03 17 C 8.83 g/m*3 17 C 0 km/h
2840 12-10-2011 16:10:01 16.9 C 8.77 g/m*3 16.9 C 0 km/h
2841 12-10-2011 16:22:01 17 C 8.83 g/m*3 17 C 0 km/h
2842 12-10-2011 16:34:02 16.9 C 8.77 g/m*3 16.9 C 0 km/h
2843 12-10-2011 16:46:02 16.8 C 8.72 g/m*3 16.8 C 0 km/h
2844 12-10-2011 16:58:02 16.8 C 8.86 g/m*3 16.8 C 0 km/h
2845 12-10-2011 17:10:02 16.8 C 8.72 g/m*3 16.8 C 0 km/h
2846 12-10-2011 17:22:02 16.7 C 8.67 g/m*3 16.7 C 0 km/h
2847 12-10-2011 17:34:02 16.8 C 8.72 g/m*3 16.8 C 0 km/h
2848 12-10-2011 17:46:02 16.5 C 8.57 g/m*3 16.5 C 0 km/h
2849 12-10-2011 17:58:02 16.5 C 8.57 g/m*3 16.5 C 0 km/h
2850 12-10-2011 18:10:02 16.5 C 8.57 g/m*3 16.5 C 0 km/h
Sensor: Nr:Datum:Temp:Abs-Feuchte:Windchill:Wind:
Aussen-T/F 2851 12-10-2011 18:22:02 16.5 C 8.43 g/m*3 16.5 C 0 km/h
2852 12-10-2011 18:34:02 16.5 C 8.43 g/m*3 16.5 C 0 km/h
2853 12-10-2011 18:46:02 16.3 C 8.32 g/m*3 16.3 C 0 km/h
2854 12-10-2011 18:58:02 16.2 C 8.27 g/m*3 16.2 C 0 km/h
2855 12-10-2011 19:10:02 16.2 C 8.14 g/m*3 16.2 C 0 km/h
2856 12-10-2011 19:22:02 16.1 C 8.09 g/m*3 16.1 C 0 km/h
2857 12-10-2011 19:34:02 16 C 8.17 g/m*3 16 C 0 km/h
2858 12-10-2011 19:46:02 15.9 C 8.26 g/m*3 15.9 C 0 km/h
2859 12-10-2011 19:58:02 15.7 C 8.3 g/m*3 15.7 C 0 km/h
2860 12-10-2011 20:10:02 15.7 C 8.43 g/m*3 15.7 C 0 km/h
2861 12-10-2011 20:22:02 15.8 C 8.21 g/m*3 15.8 C 0 km/h
2862 12-10-2011 20:34:02 15.8 C 8.35 g/m*3 15.8 C 0 km/h
2863 12-10-2011 20:46:01 15.7 C 8.3 g/m*3 15.7 C 0 km/h
2864 12-10-2011 20:58:01 15.2 C 8.18 g/m*3 15.2 C 0 km/h
2865 12-10-2011 21:10:02 14.1 C 8.86 g/m*3 14.1 C 0 km/h
2866 12-10-2011 21:22:01 13.6 C 9.18 g/m*3 13.6 C 0 km/h
2867 12-10-2011 21:34:02 13.3 C 9.24 g/m*3 13.3 C 0 km/h
2868 12-10-2011 21:46:02 13.4 C 9.53 g/m*3 13.4 C 0 km/h
2869 12-10-2011 21:58:02 13.1 C 9.47 g/m*3 13.1 C 0 km/h
2870 12-10-2011 22:11:02 13.3 C 9.59 g/m*3 13.3 C 0 km/h
2871 12-10-2011 22:23:02 13.3 C 9.59 g/m*3 13.3 C 0 km/h
2872 12-10-2011 22:35:02 13.2 C 9.64 g/m*3 13.2 C 0 km/h
2873 12-10-2011 22:47:02 13.4 C 9.76 g/m*3 13.4 C 0 km/h
2874 12-10-2011 22:59:02 13.3 C 9.82 g/m*3 13.3 C 0 km/h
2875 12-10-2011 23:11:03 13.3 C 9.94 g/m*3 13.3 C 0 km/h
Sensor: Nr:Datum:Temp:Abs-Feuchte:Windchill:Wind:
Aussen-T/F 2876 12-10-2011 23:23:03 13.3 C 9.94 g/m*3 13.3 C 0 km/h
2877 12-10-2011 23:35:03 13.3 C 9.94 g/m*3 13.3 C 0 km/h
2878 12-10-2011 23:47:03 13.2 C 9.99 g/m*3 13.2 C 0 km/h
2879 12-10-2011 23:59:03 13.2 C 9.99 g/m*3 13.2 C 0 km/h
2880 13-10-2011 00:11:03 12.9 C 9.81 g/m*3 12.9 C 0 km/h
2881 13-10-2011 00:23:03 12.5 C 9.57 g/m*3 12.5 C 0 km/h
2882 13-10-2011 00:35:03 11.8 C 9.16 g/m*3 11.8 C 0 km/h
2883 13-10-2011 00:47:03 11.1 C 8.66 g/m*3 11.1 C 0 km/h
2884 13-10-2011 00:59:03 10.7 C 8.45 g/m*3 10.7 C 0 km/h
2885 13-10-2011 01:11:03 10.8 C 8.5 g/m*3 10.8 C 0 km/h
2886 13-10-2011 01:23:03 10.7 C 8.55 g/m*3 10.7 C 0 km/h
2887 13-10-2011 01:35:03 10.5 C 8.34 g/m*3 10.5 C 0 km/h
2888 13-10-2011 01:47:03 10.2 C 8.18 g/m*3 10.2 C 0 km/h
2889 13-10-2011 01:59:03 10 C 8.08 g/m*3 10 C 0 km/h
2890 13-10-2011 02:11:03 9.9 C 8.12 g/m*3 9.9 C 0 km/h
2891 13-10-2011 02:23:03 9.6 C 7.97 g/m*3 9.6 C 0 km/h
2892 13-10-2011 02:35:03 9.5 C 7.92 g/m*3 9.5 C 0 km/h
2893 13-10-2011 02:47:03 9.4 C 7.87 g/m*3 9.4 C 0 km/h
2894 13-10-2011 02:59:03 9.5 C 7.92 g/m*3 9.5 C 0 km/h
2895 13-10-2011 03:11:03 9.5 C 7.92 g/m*3 9.5 C 0 km/h
2896 13-10-2011 03:23:04 9.5 C 7.92 g/m*3 9.5 C 0 km/h
2897 13-10-2011 03:35:04 9.4 C 7.96 g/m*3 9.4 C 0 km/h
2898 13-10-2011 03:47:04 9.2 C 7.77 g/m*3 9.2 C 0 km/h
2899 13-10-2011 03:59:04 8.9 C 7.71 g/m*3 8.9 C 0 km/h
2900 13-10-2011 04:11:04 8.6 C 7.56 g/m*3 8.6 C 0 km/h
Sensor: Nr:Datum:Temp:Abs-Feuchte:Windchill:Wind:
Aussen-T/F 2901 13-10-2011 04:23:04 8.5 C 7.51 g/m*3 8.5 C 0 km/h
2902 13-10-2011 04:35:04 8.4 C 7.47 g/m*3 8.4 C 0 km/h
2903 13-10-2011 04:47:04 8.5 C 7.6 g/m*3 8.5 C 0 km/h
2904 13-10-2011 04:59:04 8.5 C 7.6 g/m*3 8.5 C 0 km/h
2905 13-10-2011 05:11:04 8.5 C 7.6 g/m*3 8.5 C 0 km/h
2906 13-10-2011 05:23:04 8.4 C 7.55 g/m*3 8.4 C 0 km/h
2907 13-10-2011 05:35:04 8.1 C 7.41 g/m*3 8.1 C 0 km/h
2908 13-10-2011 05:47:04 8 C 7.36 g/m*3 8 C 0 km/h
2909 13-10-2011 05:59:04 8.1 C 7.41 g/m*3 8.1 C 0 km/h
2910 13-10-2011 06:11:04 8.2 C 7.45 g/m*3 8.2 C 0 km/h
2911 13-10-2011 06:23:04 8.2 C 7.54 g/m*3 8.2 C 0 km/h
2912 13-10-2011 06:35:04 8.2 C 7.54 g/m*3 8.2 C 0 km/h
2913 13-10-2011 06:47:04 8.3 C 7.59 g/m*3 8.3 C 0 km/h
2914 13-10-2011 06:59:04 8.4 C 7.63 g/m*3 8.4 C 0 km/h
2915 13-10-2011 07:11:02 8.4 C 7.63 g/m*3 8.4 C 0 km/h
2916 13-10-2011 07:23:02 8.4 C 7.63 g/m*3 8.4 C 0 km/h
2917 13-10-2011 07:35:03 8.4 C 7.63 g/m*3 8.4 C 0 km/h
2918 13-10-2011 07:47:02 8.3 C 7.59 g/m*3 8.3 C 0 km/h
2919 13-10-2011 07:59:02 8.2 C 7.54 g/m*3 8.2 C 0 km/h
2920 13-10-2011 08:11:02 8.2 C 7.54 g/m*3 8.2 C 0 km/h
2921 13-10-2011 08:23:02 8.4 C 7.63 g/m*3 8.4 C 0 km/h
2922 13-10-2011 08:35:02 8.6 C 7.73 g/m*3 8.6 C 0 km/h
2923 13-10-2011 08:47:02 8.7 C 7.78 g/m*3 8.7 C 0 km/h
2924 13-10-2011 08:59:02 9 C 7.85 g/m*3 9 C 0 km/h
2925 13-10-2011 09:11:02 9.3 C 8.09 g/m*3 9.3 C 0 km/h
Sensor: Nr:Datum:Temp:Abs-Feuchte:Windchill:Wind:
Aussen-T/F 2926 13-10-2011 09:23:02 9 C 7.85 g/m*3 9 C 0 km/h
2927 13-10-2011 09:35:03 9.2 C 7.86 g/m*3 9.2 C 0 km/h
2928 13-10-2011 09:47:02 9.3 C 7.82 g/m*3 9.3 C 0 km/h
2929 13-10-2011 09:59:02 9.5 C 7.74 g/m*3 9.5 C 0 km/h
2930 13-10-2011 10:11:01 9.7 C 7.65 g/m*3 9.7 C 0 km/h
2931 13-10-2011 10:23:02 9.9 C 7.56 g/m*3 9.9 C 0 km/h
2932 13-10-2011 10:35:02 10.4 C 7.42 g/m*3 10.4 C 0 km/h
2933 13-10-2011 10:47:01 10.6 C 7.22 g/m*3 10.6 C 0 km/h
2934 13-10-2011 10:59:01 10.3 C 6.99 g/m*3 10.3 C 0 km/h
2935 13-10-2011 11:11:01 10.3 C 6.99 g/m*3 10.3 C 0 km/h
2936 13-10-2011 11:23:01 10 C 7.05 g/m*3 10 C 0 km/h
2937 13-10-2011 11:35:02 10.5 C 7.08 g/m*3 10.5 C 0 km/h
2938 13-10-2011 11:47:01 11 C 7.01 g/m*3 11 C 0 km/h
2939 13-10-2011 11:59:01 11.1 C 6.95 g/m*3 11.1 C 0 km/h
2940 13-10-2011 12:11:02 11.1 C 6.85 g/m*3 11.1 C 0 km/h
2941 13-10-2011 12:23:01 11.2 C 6.79 g/m*3 11.2 C 0 km/h
2942 13-10-2011 12:35:02 12 C 6.61 g/m*3 12 C 0 km/h
2943 13-10-2011 12:47:01 13.1 C 6.39 g/m*3 13.1 C 0 km/h
2944 13-10-2011 12:59:01 13.8 C 6.31 g/m*3 13.8 C 0 km/h
2945 13-10-2011 13:11:02 14.2 C 6.23 g/m*3 14.2 C 0 km/h
2946 13-10-2011 13:23:02 13.5 C 6.32 g/m*3 13.5 C 0 km/h
2947 13-10-2011 13:35:01 14.4 C 6.3 g/m*3 14.4 C 0 km/h
2948 13-10-2011 13:47:02 13.4 C 6.28 g/m*3 13.4 C 0 km/h
2949 13-10-2011 13:59:02 13.1 C 5.93 g/m*3 13.1 C 0 km/h
2950 13-10-2011 14:11:01 13.1 C 6.16 g/m*3 13.1 C 0 km/h
Sensor: Nr:Datum:Temp:Abs-Feuchte:Windchill:Wind:
Aussen-T/F 2951 13-10-2011 14:23:02 13.5 C 5.85 g/m*3 13.5 C 0 km/h
2952 13-10-2011 14:35:01 13.4 C 5.23 g/m*3 13.4 C 0 km/h
2953 13-10-2011 14:47:02 14 C 4.95 g/m*3 14 C 0 km/h
2954 13-10-2011 14:59:02 14.2 C 5.13 g/m*3 14.2 C 0 km/h
2955 13-10-2011 15:11:02 14.3 C 5.28 g/m*3 14.3 C 0 km/h
2956 13-10-2011 15:23:02 14.4 C 5.56 g/m*3 14.4 C 0 km/h
2957 13-10-2011 15:35:03 13.9 C 5.04 g/m*3 13.9 C 0 km/h
2958 13-10-2011 15:47:02 14.5 C 4.97 g/m*3 14.5 C 0 km/h
2959 13-10-2011 15:59:02 14.8 C 4.81 g/m*3 14.8 C 0 km/h
2960 13-10-2011 16:11:02 14.1 C 4.98 g/m*3 14.1 C 0 km/h
2961 13-10-2011 16:23:01 13.2 C 5.4 g/m*3 13.2 C 0 km/h
2962 13-10-2011 16:35:02 12.8 C 6.16 g/m*3 12.8 C 0 km/h
2963 13-10-2011 16:47:02 16.5 C 5.76 g/m*3 16.5 C 0 km/h
2964 13-10-2011 16:59:02 18.6 C 6.05 g/m*3 18.6 C 0 km/h
2965 13-10-2011 17:11:02 20.1 C 5.56 g/m*3 20.1 C 0 km/h
2966 13-10-2011 17:23:01 18.7 C 4.8 g/m*3 18.7 C 0 km/h
2967 13-10-2011 17:35:02 20.3 C 4.92 g/m*3 20.3 C 0 km/h
2968 13-10-2011 17:47:02 18 C 5.53 g/m*3 18 C 0 km/h
2969 13-10-2011 17:59:02 13.8 C 5.48 g/m*3 13.8 C 0 km/h
2970 13-10-2011 18:11:02 11.7 C 5.65 g/m*3 11.7 C 0 km/h
2971 13-10-2011 18:23:02 10.5 C 5.82 g/m*3 10.5 C 0 km/h
2972 13-10-2011 18:35:02 9.5 C 5.83 g/m*3 9.5 C 0 km/h
2973 13-10-2011 18:47:02 8.9 C 5.78 g/m*3 8.9 C 0 km/h
2974 13-10-2011 18:59:02 8.6 C 5.76 g/m*3 8.6 C 0 km/h
2975 13-10-2011 19:11:02 7.7 C 5.59 g/m*3 7.7 C 0 km/h
Sensor: Nr:Datum:Temp:Abs-Feuchte:Windchill:Wind:
Aussen-T/F 2976 13-10-2011 19:23:02 7.8 C 5.88 g/m*3 7.8 C 0 km/h
2977 13-10-2011 19:35:01 8.2 C 5.69 g/m*3 8.2 C 0 km/h
2978 13-10-2011 19:47:01 7.6 C 5.8 g/m*3 7.6 C 0 km/h
2979 13-10-2011 19:59:01 7.5 C 5.84 g/m*3 7.5 C 0 km/h
2980 13-10-2011 20:11:01 7.9 C 6.08 g/m*3 7.9 C 0 km/h
2981 13-10-2011 20:23:01 8.2 C 6.11 g/m*3 8.2 C 0 km/h
2982 13-10-2011 20:35:02 8.4 C 6.28 g/m*3 8.4 C 0 km/h
2983 13-10-2011 20:47:02 8.2 C 6.11 g/m*3 8.2 C 0 km/h
2984 13-10-2011 20:59:02 8.3 C 6.24 g/m*3 8.3 C 0 km/h
2985 13-10-2011 21:11:02 7.8 C 6.12 g/m*3 7.8 C 0 km/h
2986 13-10-2011 21:23:01 8.1 C 6.07 g/m*3 8.1 C 0 km/h
2987 13-10-2011 21:35:02 6.7 C 5.55 g/m*3 6.7 C 0 km/h
2988 13-10-2011 21:47:02 6.5 C 5.7 g/m*3 6.5 C 0 km/h
2989 13-10-2011 21:59:02 6.3 C 5.77 g/m*3 6.3 C 0 km/h
2990 13-10-2011 22:11:02 6.5 C 5.92 g/m*3 6.5 C 0 km/h
2991 13-10-2011 22:23:02 6.1 C 5.84 g/m*3 6.1 C 0 km/h
2992 13-10-2011 22:35:02 5.7 C 5.76 g/m*3 5.7 C 0 km/h
2993 13-10-2011 22:47:02 5.3 C 5.68 g/m*3 5.3 C 0 km/h
2994 13-10-2011 22:59:02 4.8 C 5.57 g/m*3 4.8 C 0 km/h
2995 13-10-2011 23:11:02 5.2 C 5.78 g/m*3 5.2 C 0 km/h
2996 13-10-2011 23:23:02 4.8 C 5.77 g/m*3 4.8 C 0 km/h
2997 13-10-2011 23:35:02 4.6 C 5.76 g/m*3 4.6 C 0 km/h
2998 13-10-2011 23:47:02 4.6 C 5.76 g/m*3 4.6 C 0 km/h
2999 13-10-2011 23:59:02 4.2 C 5.61 g/m*3 4.2 C 0 km/h
3000 14-10-2011 00:11:02 3.8 C 5.52 g/m*3 3.8 C 0 km/h
Sensor: Nr:Datum:Temp:Abs-Feuchte:Windchill:Wind:
Aussen-T/F 3001 14-10-2011 00:23:02 3.7 C 5.48 g/m*3 3.7 C 0 km/h
3002 14-10-2011 00:35:02 4.1 C 5.63 g/m*3 4.1 C 0 km/h
3003 14-10-2011 00:47:02 3.6 C 5.51 g/m*3 3.6 C 0 km/h
3004 14-10-2011 00:59:02 3.8 C 5.58 g/m*3 3.8 C 0 km/h
3005 14-10-2011 01:11:02 3.4 C 5.44 g/m*3 3.4 C 0 km/h
3006 14-10-2011 01:23:02 3.3 C 5.4 g/m*3 3.3 C 0 km/h
3007 14-10-2011 01:35:01 3.4 C 5.44 g/m*3 3.4 C 0 km/h
3008 14-10-2011 01:47:02 3.3 C 5.4 g/m*3 3.3 C 0 km/h
3009 14-10-2011 01:59:03 3.4 C 5.5 g/m*3 3.4 C 0 km/h
3010 14-10-2011 02:11:01 3.9 C 5.68 g/m*3 3.9 C 0 km/h
3011 14-10-2011 02:23:02 3.4 C 5.5 g/m*3 3.4 C 0 km/h
3012 14-10-2011 02:35:02 3.3 C 5.46 g/m*3 3.3 C 0 km/h
3013 14-10-2011 02:48:04 3 C 5.35 g/m*3 3 C 0 km/h
3014 14-10-2011 03:00:04 2.9 C 5.37 g/m*3 2.9 C 0 km/h
3015 14-10-2011 03:12:04 2.6 C 5.27 g/m*3 2.6 C 0 km/h
3016 14-10-2011 03:24:04 2.6 C 5.32 g/m*3 2.6 C 0 km/h
3017 14-10-2011 03:36:02 2.5 C 5.23 g/m*3 2.5 C 0 km/h
3018 14-10-2011 03:48:02 2.5 C 5.23 g/m*3 2.5 C 0 km/h
3019 14-10-2011 04:00:02 2.2 C 5.13 g/m*3 2.2 C 0 km/h
3020 14-10-2011 04:12:02 2.3 C 5.16 g/m*3 2.3 C 0 km/h
3021 14-10-2011 04:24:02 2.2 C 5.13 g/m*3 2.2 C 0 km/h
3022 14-10-2011 04:36:02 2.3 C 5.16 g/m*3 2.3 C 0 km/h
3023 14-10-2011 04:48:01 2.3 C 5.16 g/m*3 2.3 C 0 km/h
3024 14-10-2011 05:00:01 2 C 5.06 g/m*3 2 C 0 km/h
3025 14-10-2011 05:12:02 2.2 C 5.13 g/m*3 2.2 C 0 km/h
Sensor: Nr:Datum:Temp:Abs-Feuchte:Windchill:Wind:
Aussen-T/F 3026 14-10-2011 05:24:01 1.9 C 5.08 g/m*3 1.9 C 0 km/h
3027 14-10-2011 05:36:02 1.9 C 5.08 g/m*3 1.9 C 0 km/h
3028 14-10-2011 05:48:01 1.9 C 5.08 g/m*3 1.9 C 0 km/h
3029 14-10-2011 06:00:01 1.5 C 4.94 g/m*3 1.5 C 0 km/h
3030 14-10-2011 06:12:02 1.2 C 4.79 g/m*3 1.2 C 0 km/h
3031 14-10-2011 06:24:02 1.7 C 5.01 g/m*3 1.7 C 0 km/h
3032 14-10-2011 06:36:01 2.4 C 5.25 g/m*3 2.4 C 0 km/h
3033 14-10-2011 06:48:02 2.5 C 5.29 g/m*3 2.5 C 0 km/h
3034 14-10-2011 07:00:02 2.6 C 5.32 g/m*3 2.6 C 0 km/h
3035 14-10-2011 07:12:01 2.5 C 5.29 g/m*3 2.5 C 0 km/h
3036 14-10-2011 07:24:02 2.3 C 5.22 g/m*3 2.3 C 0 km/h
3037 14-10-2011 07:36:01 3 C 5.47 g/m*3 3 C 0 km/h
3038 14-10-2011 07:48:02 3.3 C 5.58 g/m*3 3.3 C 0 km/h
3039 14-10-2011 08:00:02 3.6 C 5.76 g/m*3 3.6 C 0 km/h
3040 14-10-2011 08:12:02 3.8 C 5.83 g/m*3 3.8 C 0 km/h
3041 14-10-2011 08:24:02 3.7 C 5.8 g/m*3 3.7 C 0 km/h
3042 14-10-2011 08:36:02 4 C 5.85 g/m*3 4 C 0 km/h
3043 14-10-2011 08:48:02 4.2 C 5.99 g/m*3 4.2 C 0 km/h
3044 14-10-2011 09:00:02 4.4 C 6.07 g/m*3 4.4 C 0 km/h
3045 14-10-2011 09:12:03 4.2 C 5.99 g/m*3 4.2 C 0 km/h
3046 14-10-2011 09:24:02 4.3 C 6.03 g/m*3 4.3 C 0 km/h
3047 14-10-2011 09:36:02 4.3 C 6.03 g/m*3 4.3 C 0 km/h
3048 14-10-2011 09:48:02 4.4 C 6.07 g/m*3 4.4 C 0 km/h
3049 14-10-2011 10:00:02 4.5 C 6.11 g/m*3 4.5 C 0 km/h
3050 14-10-2011 10:12:02 4.8 C 6.24 g/m*3 4.8 C 0 km/h
Sensor: Nr:Datum:Temp:Abs-Feuchte:Windchill:Wind:
Aussen-T/F 3051 14-10-2011 10:24:02 5.4 C 6.49 g/m*3 5.4 C 0 km/h
3052 14-10-2011 10:36:02 5.4 C 6.42 g/m*3 5.4 C 0 km/h
3053 14-10-2011 10:48:02 5.1 C 6.29 g/m*3 5.1 C 0 km/h
3054 14-10-2011 11:00:02 5.1 C 6.22 g/m*3 5.1 C 0 km/h
3055 14-10-2011 11:12:02 4.9 C 6.21 g/m*3 4.9 C 0 km/h
3056 14-10-2011 11:24:02 5.4 C 6.35 g/m*3 5.4 C 0 km/h
3057 14-10-2011 11:36:02 5.9 C 6.63 g/m*3 5.9 C 0 km/h
3058 14-10-2011 11:48:02 6.2 C 6.69 g/m*3 6.2 C 0 km/h
3059 14-10-2011 12:00:02 6.7 C 6.91 g/m*3 6.7 C 0 km/h
3060 14-10-2011 12:12:02 7 C 7.05 g/m*3 7 C 0 km/h
3061 14-10-2011 12:24:02 7.4 C 7.24 g/m*3 7.4 C 0 km/h
3062 14-10-2011 12:36:01 8.4 C 7.63 g/m*3 8.4 C 0 km/h
3063 14-10-2011 12:48:02 9.3 C 7.73 g/m*3 9.3 C 0 km/h
3064 14-10-2011 13:00:02 9 C 7.14 g/m*3 9 C 0 km/h
3065 14-10-2011 13:12:01 10.2 C 6.38 g/m*3 10.2 C 0 km/h
3066 14-10-2011 13:24:01 10.9 C 6.07 g/m*3 10.9 C 0 km/h
3067 14-10-2011 13:36:02 12.7 C 6.23 g/m*3 12.7 C 0 km/h
3068 14-10-2011 13:48:02 11.7 C 5.65 g/m*3 11.7 C 0 km/h
3069 14-10-2011 14:00:02 11.6 C 5.4 g/m*3 11.6 C 0 km/h
3070 14-10-2011 14:12:02 10.9 C 5.47 g/m*3 10.9 C 0 km/h
3071 14-10-2011 14:24:01 11 C 4.8 g/m*3 11 C 0 km/h
3072 14-10-2011 14:36:02 11 C 5 g/m*3 11 C 0 km/h
3073 14-10-2011 14:48:02 11.2 C 4.97 g/m*3 11.2 C 0 km/h
3074 14-10-2011 15:00:02 11.8 C 4.74 g/m*3 11.8 C 0 km/h
3075 14-10-2011 15:12:02 11.8 C 4.74 g/m*3 11.8 C 0 km/h
Sensor: Nr:Datum:Temp:Abs-Feuchte:Windchill:Wind:
Aussen-T/F 3076 14-10-2011 15:24:01 12.7 C 4.9 g/m*3 12.7 C 0 km/h
3077 14-10-2011 15:36:02 13 C 4.42 g/m*3 13 C 0 km/h
3078 14-10-2011 15:48:01 13.1 C 4.56 g/m*3 13.1 C 0 km/h
3079 14-10-2011 16:00:01 13 C 4.54 g/m*3 13 C 0 km/h
3080 14-10-2011 16:12:02 13.1 C 4.56 g/m*3 13.1 C 0 km/h
3081 14-10-2011 16:24:02 13.1 C 4.68 g/m*3 13.1 C 0 km/h
3082 14-10-2011 16:36:01 13.2 C 4.94 g/m*3 13.2 C 0 km/h
3083 14-10-2011 16:48:02 14.3 C 5.04 g/m*3 14.3 C 0 km/h
3084 14-10-2011 17:00:02 14 C 5.43 g/m*3 14 C 0 km/h
3085 14-10-2011 17:12:01 13.7 C 4.86 g/m*3 13.7 C 0 km/h
3086 14-10-2011 17:24:02 15 C 5.13 g/m*3 15 C 0 km/h
3087 14-10-2011 17:36:02 13.7 C 4.97 g/m*3 13.7 C 0 km/h
3088 14-10-2011 17:48:02 14.5 C 5.35 g/m*3 14.5 C 0 km/h
3089 14-10-2011 18:00:02 14.3 C 5.04 g/m*3 14.3 C 0 km/h
3090 14-10-2011 18:12:03 11.3 C 5.3 g/m*3 11.3 C 0 km/h
3091 14-10-2011 18:24:02 9.6 C 5.4 g/m*3 9.6 C 0 km/h
3092 14-10-2011 18:36:02 8.5 C 5.38 g/m*3 8.5 C 0 km/h
3093 14-10-2011 18:48:01 7.9 C 5.5 g/m*3 7.9 C 0 km/h
3094 14-10-2011 19:00:01 7.5 C 5.6 g/m*3 7.5 C 0 km/h
3095 14-10-2011 19:12:02 7 C 5.66 g/m*3 7 C 0 km/h
3096 14-10-2011 19:24:01 6.5 C 5.62 g/m*3 6.5 C 0 km/h
3097 14-10-2011 19:36:01 6.4 C 5.59 g/m*3 6.4 C 0 km/h
3098 14-10-2011 19:48:01 6.2 C 5.59 g/m*3 6.2 C 0 km/h
3099 14-10-2011 20:00:01 5.9 C 5.55 g/m*3 5.9 C 0 km/h
3100 14-10-2011 20:12:01 5.6 C 5.59 g/m*3 5.6 C 0 km/h
Sensor: Nr:Datum:Temp:Abs-Feuchte:Windchill:Wind:
Aussen-T/F 3101 14-10-2011 20:24:02 5.3 C 5.54 g/m*3 5.3 C 0 km/h
3102 14-10-2011 20:36:01 5.4 C 5.72 g/m*3 5.4 C 0 km/h
3103 14-10-2011 20:48:03 5.5 C 5.76 g/m*3 5.5 C 0 km/h
3104 14-10-2011 21:00:03 5.2 C 5.71 g/m*3 5.2 C 0 km/h
3105 14-10-2011 21:12:02 5.4 C 5.86 g/m*3 5.4 C 0 km/h
3106 14-10-2011 21:24:02 5.1 C 5.68 g/m*3 5.1 C 0 km/h
3107 14-10-2011 21:36:02 5 C 5.71 g/m*3 5 C 0 km/h
3108 14-10-2011 21:48:02 4.8 C 5.7 g/m*3 4.8 C 0 km/h
3109 14-10-2011 22:00:02 4.7 C 5.73 g/m*3 4.7 C 0 km/h
3110 14-10-2011 22:13:02 4.6 C 5.69 g/m*3 4.6 C 0 km/h
3111 14-10-2011 22:25:02 4.8 C 5.83 g/m*3 4.8 C 0 km/h
3112 14-10-2011 22:37:02 4.3 C 5.64 g/m*3 4.3 C 0 km/h
3113 14-10-2011 22:49:02 4.4 C 5.68 g/m*3 4.4 C 0 km/h
3114 14-10-2011 23:01:03 4.3 C 5.64 g/m*3 4.3 C 0 km/h
3115 14-10-2011 23:13:03 4.3 C 5.71 g/m*3 4.3 C 0 km/h
3116 14-10-2011 23:25:03 4.1 C 5.63 g/m*3 4.1 C 0 km/h
3117 14-10-2011 23:37:03 4 C 5.59 g/m*3 4 C 0 km/h
3118 14-10-2011 23:49:03 3.8 C 5.58 g/m*3 3.8 C 0 km/h
3119 15-10-2011 00:01:03 3.8 C 5.58 g/m*3 3.8 C 0 km/h
3120 15-10-2011 00:13:03 3.5 C 5.53 g/m*3 3.5 C 0 km/h
3121 15-10-2011 00:25:03 3.5 C 5.53 g/m*3 3.5 C 0 km/h
3122 15-10-2011 00:37:03 3.2 C 5.42 g/m*3 3.2 C 0 km/h
3123 15-10-2011 00:49:03 3.2 C 5.42 g/m*3 3.2 C 0 km/h
3124 15-10-2011 01:01:03 3.1 C 5.39 g/m*3 3.1 C 0 km/h
3125 15-10-2011 01:13:03 2.9 C 5.37 g/m*3 2.9 C 0 km/h
Sensor: Nr:Datum:Temp:Abs-Feuchte:Windchill:Wind:
Aussen-T/F 3126 15-10-2011 01:25:03 2.9 C 5.37 g/m*3 2.9 C 0 km/h
3127 15-10-2011 01:37:03 2.7 C 5.3 g/m*3 2.7 C 0 km/h
3128 15-10-2011 01:49:03 2.7 C 5.3 g/m*3 2.7 C 0 km/h
3129 15-10-2011 02:01:03 2.7 C 5.3 g/m*3 2.7 C 0 km/h
3130 15-10-2011 02:13:03 2.6 C 5.27 g/m*3 2.6 C 0 km/h
3131 15-10-2011 02:25:03 2.3 C 5.16 g/m*3 2.3 C 0 km/h
3132 15-10-2011 02:37:03 2.5 C 5.29 g/m*3 2.5 C 0 km/h
3133 15-10-2011 02:49:03 2.5 C 5.29 g/m*3 2.5 C 0 km/h
3134 15-10-2011 03:01:03 2.5 C 5.29 g/m*3 2.5 C 0 km/h
3135 15-10-2011 03:13:04 2.3 C 5.22 g/m*3 2.3 C 0 km/h
3136 15-10-2011 03:25:04 1.7 C 5.01 g/m*3 1.7 C 0 km/h
3137 15-10-2011 03:37:04 1.5 C 4.94 g/m*3 1.5 C 0 km/h
3138 15-10-2011 03:49:04 1.6 C 4.97 g/m*3 1.6 C 0 km/h
3139 15-10-2011 04:01:04 1.4 C 4.91 g/m*3 1.4 C 0 km/h
3140 15-10-2011 04:13:04 1.5 C 4.94 g/m*3 1.5 C 0 km/h
3141 15-10-2011 04:25:04 1.7 C 5.06 g/m*3 1.7 C 0 km/h
3142 15-10-2011 04:37:04 1.4 C 4.91 g/m*3 1.4 C 0 km/h
3143 15-10-2011 04:49:04 0.9 C 4.79 g/m*3 0.9 C 0 km/h
3144 15-10-2011 05:01:04 0.8 C 4.76 g/m*3 0.8 C 0 km/h
3145 15-10-2011 05:13:04 0.9 C 4.79 g/m*3 0.9 C 0 km/h
3146 15-10-2011 05:25:04 0.8 C 4.76 g/m*3 0.8 C 0 km/h
3147 15-10-2011 05:37:04 1.1 C 4.81 g/m*3 1.1 C 0 km/h
3148 15-10-2011 05:49:04 0.6 C 4.7 g/m*3 0.6 C 0 km/h
3149 15-10-2011 06:01:04 1.2 C 4.89 g/m*3 1.2 C 0 km/h
3150 15-10-2011 06:13:04 0.9 C 4.79 g/m*3 0.9 C 0 km/h
Sensor: Nr:Datum:Temp:Abs-Feuchte:Windchill:Wind:
Aussen-T/F 3151 15-10-2011 06:25:04 1 C 4.83 g/m*3 1 C 0 km/h
3152 15-10-2011 06:37:04 0.6 C 4.7 g/m*3 0.6 C 0 km/h
3153 15-10-2011 06:49:04 0.7 C 4.73 g/m*3 0.7 C 0 km/h
3154 15-10-2011 07:01:04 0.2 C 4.57 g/m*3 0.2 C 0 km/h
3155 15-10-2011 07:13:04 0.2 C 4.57 g/m*3 0.2 C 0 km/h
3156 15-10-2011 07:25:02 0.2 C 4.57 g/m*3 0.2 C 0 km/h
3157 15-10-2011 07:37:02 0.3 C 4.6 g/m*3 0.3 C 0 km/h
3158 15-10-2011 07:49:02 0.3 C 4.6 g/m*3 0.3 C 0 km/h
3159 15-10-2011 08:01:02 0.5 C 4.66 g/m*3 0.5 C 0 km/h
3160 15-10-2011 08:13:02 0.7 C 4.73 g/m*3 0.7 C 0 km/h
3161 15-10-2011 08:25:01 0.3 C 4.6 g/m*3 0.3 C 0 km/h
3162 15-10-2011 08:37:02 0.3 C 4.6 g/m*3 0.3 C 0 km/h
3163 15-10-2011 08:49:02 0 C 4.51 g/m*3 0 C 0 km/h
3164 15-10-2011 09:01:02 0.3 C 4.6 g/m*3 0.3 C 0 km/h
3165 15-10-2011 09:13:02 0.6 C 4.7 g/m*3 0.6 C 0 km/h
3166 15-10-2011 09:25:01 1.4 C 4.96 g/m*3 1.4 C 0 km/h
3167 15-10-2011 09:37:02 1.3 C 4.93 g/m*3 1.3 C 0 km/h
3168 15-10-2011 09:49:01 1.5 C 4.99 g/m*3 1.5 C 0 km/h
3169 15-10-2011 10:01:02 1.6 C 5.03 g/m*3 1.6 C 0 km/h
3170 15-10-2011 10:13:02 1.7 C 5.12 g/m*3 1.7 C 0 km/h
3171 15-10-2011 10:25:02 2 C 5.17 g/m*3 2 C 0 km/h
3172 15-10-2011 10:37:02 2.1 C 5.2 g/m*3 2.1 C 0 km/h
3173 15-10-2011 10:49:02 2.6 C 5.38 g/m*3 2.6 C 0 km/h
3174 15-10-2011 11:01:01 2.8 C 5.51 g/m*3 2.8 C 0 km/h
3175 15-10-2011 11:13:01 3.3 C 5.64 g/m*3 3.3 C 0 km/h
Sensor: Nr:Datum:Temp:Abs-Feuchte:Windchill:Wind:
Aussen-T/F 3176 15-10-2011 11:25:02 3.7 C 5.8 g/m*3 3.7 C 0 km/h
3177 15-10-2011 11:37:01 4.1 C 5.95 g/m*3 4.1 C 0 km/h
3178 15-10-2011 11:49:02 4.4 C 6.07 g/m*3 4.4 C 0 km/h
3179 15-10-2011 12:01:01 4.9 C 6.28 g/m*3 4.9 C 0 km/h
3180 15-10-2011 12:13:01 5.2 C 6.33 g/m*3 5.2 C 0 km/h
3181 15-10-2011 12:25:01 5.7 C 6.55 g/m*3 5.7 C 0 km/h
3182 15-10-2011 12:37:02 6.3 C 6.74 g/m*3 6.3 C 0 km/h
3183 15-10-2011 12:49:02 7 C 6.9 g/m*3 7 C 0 km/h
3184 15-10-2011 13:01:02 7.4 C 6.84 g/m*3 7.4 C 0 km/h
3185 15-10-2011 13:13:02 7.5 C 6.56 g/m*3 7.5 C 0 km/h
3186 15-10-2011 13:25:01 9.7 C 6.64 g/m*3 9.7 C 0 km/h
3187 15-10-2011 13:37:02 10.2 C 6.28 g/m*3 10.2 C 0 km/h
3188 15-10-2011 13:49:02 9.9 C 5.88 g/m*3 9.9 C 0 km/h
3189 15-10-2011 14:01:02 9.3 C 4.76 g/m*3 9.3 C 0 km/h
3190 15-10-2011 14:13:02 9.6 C 5.22 g/m*3 9.6 C 0 km/h
3191 15-10-2011 14:25:01 9.4 C 4.97 g/m*3 9.4 C 0 km/h
3192 15-10-2011 14:37:02 10 C 4.6 g/m*3 10 C 0 km/h
3193 15-10-2011 14:49:01 9.7 C 4.98 g/m*3 9.7 C 0 km/h
3194 15-10-2011 15:01:02 9.8 C 5.01 g/m*3 9.8 C 0 km/h
3195 15-10-2011 15:13:02 9.9 C 5.32 g/m*3 9.9 C 0 km/h
3196 15-10-2011 15:25:02 10.8 C 4.55 g/m*3 10.8 C 0 km/h
3197 15-10-2011 15:37:02 11.1 C 4.43 g/m*3 11.1 C 0 km/h
3198 15-10-2011 15:49:02 11.3 C 4.28 g/m*3 11.3 C 0 km/h
3199 15-10-2011 16:01:01 11.4 C 4.62 g/m*3 11.4 C 0 km/h
3200 15-10-2011 16:13:01 11.7 C 4.29 g/m*3 11.7 C 0 km/h
Sensor: Nr:Datum:Temp:Abs-Feuchte:Windchill:Wind:
Aussen-T/F 3201 15-10-2011 16:25:02 12.2 C 4.32 g/m*3 12.2 C 0 km/h
3202 15-10-2011 16:37:02 12.6 C 4.65 g/m*3 12.6 C 0 km/h
3203 15-10-2011 16:49:02 15.2 C 4.93 g/m*3 15.2 C 0 km/h
3204 15-10-2011 17:01:03 18.1 C 4.94 g/m*3 18.1 C 0 km/h
3205 15-10-2011 17:13:03 18.2 C 4.2 g/m*3 18.2 C 0 km/h
3206 15-10-2011 17:25:02 18.5 C 5.06 g/m*3 18.5 C 0 km/h
3207 15-10-2011 17:37:02 17.8 C 4.86 g/m*3 17.8 C 0 km/h
3208 15-10-2011 17:49:01 15.8 C 4.98 g/m*3 15.8 C 0 km/h
3209 15-10-2011 18:01:02 13.1 C 4.34 g/m*3 13.1 C 0 km/h
3210 15-10-2011 18:13:02 9.3 C 4.58 g/m*3 9.3 C 0 km/h
3211 15-10-2011 18:25:01 8.1 C 4.66 g/m*3 8.1 C 0 km/h
3212 15-10-2011 18:37:02 7.4 C 4.61 g/m*3 7.4 C 0 km/h
3213 15-10-2011 18:49:01 6.8 C 4.59 g/m*3 6.8 C 0 km/h
3214 15-10-2011 19:01:02 6 C 4.5 g/m*3 6 C 0 km/h
3215 15-10-2011 19:13:02 5.7 C 4.7 g/m*3 5.7 C 0 km/h
3216 15-10-2011 19:25:02 5.6 C 4.67 g/m*3 5.6 C 0 km/h
3217 15-10-2011 19:37:02 5.4 C 4.74 g/m*3 5.4 C 0 km/h
3218 15-10-2011 19:49:02 5.2 C 4.68 g/m*3 5.2 C 0 km/h
3219 15-10-2011 20:01:01 4.9 C 4.79 g/m*3 4.9 C 0 km/h
3220 15-10-2011 20:13:01 5.1 C 4.86 g/m*3 5.1 C 0 km/h
3221 15-10-2011 20:25:02 4.9 C 4.86 g/m*3 4.9 C 0 km/h
3222 15-10-2011 20:37:01 4.4 C 4.77 g/m*3 4.4 C 0 km/h
3223 15-10-2011 20:49:02 4.5 C 4.93 g/m*3 4.5 C 0 km/h
3224 15-10-2011 21:01:01 3.8 C 4.89 g/m*3 3.8 C 0 km/h
3225 15-10-2011 21:13:01 3.3 C 4.73 g/m*3 3.3 C 0 km/h
Sensor: Nr:Datum:Temp:Abs-Feuchte:Windchill:Wind:
Aussen-T/F 3226 15-10-2011 21:25:01 3 C 4.76 g/m*3 3 C 0 km/h
3227 15-10-2011 21:37:02 2.6 C 4.75 g/m*3 2.6 C 0 km/h
3228 15-10-2011 21:49:02 2.5 C 4.77 g/m*3 2.5 C 0 km/h
3229 15-10-2011 22:01:01 2.6 C 4.86 g/m*3 2.6 C 0 km/h
3230 15-10-2011 22:13:01 2.1 C